Provisional Data: Sing Sing Creek near Big Flats, NY


Please select a monitoring station.
Please select start date.
Please select start date.

Toggle Unit: C/F Toggle Unit: C/F
Sample Time Temperature (C) Temperature (F) Specific Conductivity (mS/cm) pH   Turbidity (NTU+) DO (mg/L)
1/12/2021 12:00:00 AM 2.63 36.734 0.458 7.35 3.09 12.67
1/12/2021 12:15:00 AM 2.63 36.734 0.457 7.35 3.2 12.64
1/12/2021 12:30:00 AM 2.64 36.752 0.456 7.35 2.99 12.64
1/12/2021 12:45:00 AM 2.65 36.77 0.455 7.35 3.17 12.63
1/12/2021 1:00:00 AM 2.67 36.806 0.454 7.33 3.11 12.62
1/12/2021 1:15:00 AM 2.68 36.824 0.453 7.33 3.07 12.6
1/12/2021 1:30:00 AM 2.68 36.824 0.451 7.34 3.2 12.6
1/12/2021 1:45:00 AM 2.69 36.842 0.449 7.32 3.26 12.59
1/12/2021 2:00:00 AM 2.69 36.842 0.447 7.33 3.15 12.58
1/12/2021 2:15:00 AM 2.69 36.842 0.445 7.32 3.59 12.58
1/12/2021 2:30:00 AM 2.68 36.824 0.443 7.32 3.14 12.58
1/12/2021 2:45:00 AM 2.68 36.824 0.44 7.32 3.31 12.58
1/12/2021 3:00:00 AM 2.66 36.788 0.438 7.31 3.38 12.58
1/12/2021 3:15:00 AM 2.65 36.77 0.435 7.3 3.74 12.58
1/12/2021 3:30:00 AM 2.63 36.734 0.433 7.3 3.87 12.59
1/12/2021 3:45:00 AM 2.61 36.698 0.431 7.3 3.91 12.59
1/12/2021 4:00:00 AM 2.59 36.662 0.429 7.27 3.71 12.59
1/12/2021 4:15:00 AM 2.57 36.626 0.427 7.29 3.54 12.6
1/12/2021 4:30:00 AM 2.55 36.59 0.425 7.28 3.36 12.6
1/12/2021 4:45:00 AM 2.53 36.554 0.424 7.28 3.52 12.61
1/12/2021 5:00:00 AM 2.52 36.536 0.423 7.26 3.69 12.6
1/12/2021 5:15:00 AM 2.51 36.518 0.422 7.27 3.58 12.61
1/12/2021 5:30:00 AM 2.49 36.482 0.421 7.27 3.3 12.62
1/12/2021 5:45:00 AM 2.48 36.464 0.421 7.26 3.61 12.6
1/12/2021 6:00:00 AM 2.47 36.446 0.42 7.26 3.4 12.62
1/12/2021 6:15:00 AM 2.44 36.392 0.42 7.25 3.51 12.62
1/12/2021 6:30:00 AM 2.43 36.374 0.421 7.27 3.31 12.62
1/12/2021 6:45:00 AM 2.42 36.356 0.421 7.26 3.13 12.62
1/12/2021 7:00:00 AM 2.43 36.374 0.421 7.27 3.44 12.61
1/12/2021 7:15:00 AM 2.43 36.374 0.422 7.27 3.19 12.61
1/12/2021 7:30:00 AM 2.43 36.374 0.423 7.25 3.12 12.61
1/12/2021 7:45:00 AM 2.44 36.392 0.424 7.27 3.51 12.6
1/12/2021 8:00:00 AM 2.44 36.392 0.425 7.27 3.28 12.6
1/12/2021 8:15:00 AM 2.46 36.428 0.426 7.27 3.03 12.62
1/12/2021 8:30:00 AM 2.48 36.464 0.427 7.28 2.99 12.62
1/12/2021 8:45:00 AM 2.49 36.482 0.428 7.28 3.27 12.63
1/12/2021 9:00:00 AM 2.51 36.518 0.429 7.27 3.23 12.65
1/12/2021 9:15:00 AM 2.53 36.554 0.43 7.28 2.96 12.66
1/12/2021 9:30:00 AM 2.58 36.644 0.431 7.3 3.08 12.69
1/12/2021 9:45:00 AM 2.61 36.698 0.432 7.3 2.93 12.72
1/12/2021 10:00:00 AM 2.65 36.77 0.432 7.31 2.96 12.75
1/12/2021 10:15:00 AM 2.7 36.86 0.432 7.31 2.33 12.76
1/12/2021 10:30:00 AM 2.74 36.932 0.434 7.32 2.44 12.81
1/12/2021 10:45:00 AM 2.78 37.004 0.435 7.31 2.44 12.83
1/12/2021 11:00:00 AM 2.87 37.166 0.435 7.34 2.08 12.87
1/12/2021 11:15:00 AM 2.92 37.256 0.436 7.34 2.25 12.9
1/12/2021 11:30:00 AM 2.95 37.31 0.437 7.35 2.28 12.93
1/12/2021 11:45:00 AM 2.98 37.364 0.437 7.35 2.38 12.95
1/12/2021 12:00:00 PM 3.03 37.454 0.437 7.36 2.42 12.98
1/12/2021 12:15:00 PM 3.08 37.544 0.438 7.36 2.39 13.02
1/12/2021 12:30:00 PM 3.11 37.598 0.438 7.37 2.48 13.04
1/12/2021 12:45:00 PM 3.15 37.67 0.438 7.36 2.27 13.06
1/12/2021 1:00:00 PM 3.2 37.76 0.439 7.39 2.19 13.09
1/12/2021 1:15:00 PM 3.24 37.832 0.439 7.38 2.46 13.1
1/12/2021 1:30:00 PM 3.28 37.904 0.439 7.39 2.27 13.12
1/12/2021 1:45:00 PM 3.33 37.994 0.439 7.4 2.24 13.16
1/12/2021 2:00:00 PM 3.38 38.084 0.44 7.41 2.27 13.17
1/12/2021 2:15:00 PM 3.42 38.156 0.44 7.41 2.13 13.19
1/12/2021 2:30:00 PM 3.45 38.21 0.44 7.41 2.08 13.2
1/12/2021 2:45:00 PM 3.49 38.282 0.44 7.42 2.11 13.21
1/12/2021 3:00:00 PM 3.51 38.318 0.44 7.41 2.1 13.21
1/12/2021 3:15:00 PM 3.53 38.354 0.44 7.42 2.06 13.21
1/12/2021 3:30:00 PM 3.54 38.372 0.44 7.42 1.95 13.2
1/12/2021 3:45:00 PM 3.55 38.39 0.441 7.43 2.06 13.16
1/12/2021 4:00:00 PM 3.57 38.426 0.44 7.43 1.94 13.16
1/12/2021 4:15:00 PM 3.57 38.426 0.44 7.44 2.1 13.14
1/12/2021 4:30:00 PM 3.58 38.444 0.441 7.43 2.27 13.1
1/12/2021 4:45:00 PM 3.58 38.444 0.44 7.44 2.2 13.05
1/12/2021 5:00:00 PM 3.59 38.462 0.441 7.43 2.16 13.03
1/12/2021 5:15:00 PM 3.59 38.462 0.441 7.41 2.37 13
1/12/2021 5:30:00 PM 3.59 38.462 0.441 7.43 2.19 12.97
1/12/2021 5:45:00 PM 3.59 38.462 0.441 7.42 2.32 12.92
1/12/2021 6:00:00 PM 3.59 38.462 0.441 7.43 2.29 12.9
1/12/2021 6:15:00 PM 3.59 38.462 0.441 7.42 2.19 12.86
1/12/2021 6:30:00 PM 3.58 38.444 0.442 7.42 2.58 12.82
1/12/2021 6:45:00 PM 3.58 38.444 0.442 7.41 2.43 12.77
1/12/2021 7:00:00 PM 3.57 38.426 0.442 7.42 2.27 12.76
1/12/2021 7:15:00 PM 3.57 38.426 0.442 7.4 2.3 12.72
1/12/2021 7:30:00 PM 3.56 38.408 0.442 7.41 2.14 12.68
1/12/2021 7:45:00 PM 3.55 38.39 0.442 7.41 2.1 12.65
1/12/2021 8:00:00 PM 3.54 38.372 0.443 7.4 2.58 12.62
1/12/2021 8:15:00 PM 3.53 38.354 0.443 7.38 2.52 12.59
1/12/2021 8:30:00 PM 3.52 38.336 0.443 7.39 2.49 12.57
1/12/2021 8:45:00 PM 3.51 38.318 0.443 7.38 2.48 12.54
1/12/2021 9:00:00 PM 3.5 38.3 0.443 7.38 2.81 12.51
1/12/2021 9:15:00 PM 3.48 38.264 0.443 7.38 2.79 12.49
1/12/2021 9:30:00 PM 3.47 38.246 0.444 7.38 2.78 12.47
1/12/2021 9:45:00 PM 3.46 38.228 0.444 7.38 2.97 12.44
1/12/2021 10:00:00 PM 3.44 38.192 0.444 7.37 2.84 12.42
1/12/2021 10:15:00 PM 3.43 38.174 0.444 7.37 2.72 12.41
1/12/2021 10:30:00 PM 3.42 38.156 0.444 7.35 2.9 12.39
1/12/2021 10:45:00 PM 3.4 38.12 0.444 7.36 2.58 12.37
1/12/2021 11:00:00 PM 3.39 38.102 0.445 7.36 2.66 12.36
1/12/2021 11:15:00 PM 3.38 38.084 0.445 7.36 2.35 12.34
1/12/2021 11:30:00 PM 3.37 38.066 0.445 7.36 2.33 12.33
1/12/2021 11:45:00 PM 3.37 38.066 0.445 7.36 2.56 12.32
1/13/2021 12:00:00 AM 3.36 38.048 0.445 7.35 2.32 12.3
1/13/2021 12:15:00 AM 3.35 38.03 0.445 7.35 2.2 12.3
1/13/2021 12:30:00 AM 3.35 38.03 0.446 7.35 2.26 12.29
1/13/2021 12:45:00 AM 3.34 38.012 0.446 7.35 2.34 12.28
1/13/2021 1:00:00 AM 3.33 37.994 0.446 7.34 2.38 12.27
1/13/2021 1:15:00 AM 3.32 37.976 0.446 7.33 2.4 12.26
1/13/2021 1:30:00 AM 3.31 37.958 0.446 7.34 2.25 12.27
1/13/2021 1:45:00 AM 3.31 37.958 0.446 7.34 2.37 12.25
1/13/2021 2:00:00 AM 3.3 37.94 0.446 7.34 2.31 12.25
1/13/2021 2:15:00 AM 3.29 37.922 0.446 7.32 2.2 12.25
1/13/2021 2:30:00 AM 3.28 37.904 0.446 7.33 2.61 12.25
1/13/2021 2:45:00 AM 3.27 37.886 0.446 7.34 2.37 12.24
1/13/2021 3:00:00 AM 3.26 37.868 0.446 7.32 2.68 12.25
1/13/2021 3:15:00 AM 3.26 37.868 0.446 7.33 3.05 12.22
1/13/2021 3:30:00 AM 3.25 37.85 0.445 7.33 3.16 12.24
1/13/2021 3:45:00 AM 3.24 37.832 0.445 7.33 2.98 12.24
1/13/2021 4:00:00 AM 3.23 37.814 0.445 7.33 2.66 12.24
1/13/2021 4:15:00 AM 3.22 37.796 0.445 7.33 2.83 12.24
1/13/2021 4:30:00 AM 3.21 37.778 0.446 7.33 2.97 12.24
1/13/2021 4:45:00 AM 3.21 37.778 0.445 7.33 2.84 12.24
1/13/2021 5:00:00 AM 3.2 37.76 0.445 7.33 2.71 12.24
1/13/2021 5:15:00 AM 3.19 37.742 0.446 7.33 2.53 12.24
1/13/2021 5:30:00 AM 3.18 37.724 0.446 7.33 2.52 12.25
1/13/2021 5:45:00 AM 3.18 37.724 0.446 7.31 2.62 12.24
1/13/2021 6:00:00 AM 3.17 37.706 0.446 7.33 2.32 12.23
1/13/2021 6:15:00 AM 3.16 37.688 0.446 7.33 2.21 12.24
1/13/2021 6:30:00 AM 3.15 37.67 0.446 7.33 2.37 12.24
1/13/2021 6:45:00 AM 3.15 37.67 0.446 7.31 2.83 12.23
1/13/2021 7:00:00 AM 3.14 37.652 0.446 7.33 2.79 12.24
1/13/2021 7:15:00 AM 3.13 37.634 0.447 7.33 2.58 12.24
1/13/2021 7:30:00 AM 3.12 37.616 0.447 7.33 2.66 12.25
1/13/2021 7:45:00 AM 3.11 37.598 0.447 7.33 2.76 12.24
1/13/2021 8:00:00 AM 3.1 37.58 0.447 7.33 2.78 12.25
1/13/2021 8:15:00 AM 3.09 37.562 0.447 7.32 2.67 12.27
1/13/2021 8:30:00 AM 3.09 37.562 0.447 7.32 2.71 12.28
1/13/2021 8:45:00 AM 3.08 37.544 0.448 7.33 2.72 12.29
1/13/2021 9:00:00 AM 3.07 37.526 0.447 7.34 2.41 12.32
1/13/2021 9:15:00 AM 3.07 37.526 0.448 7.32 2.45 12.34
1/13/2021 9:30:00 AM 3.07 37.526 0.448 7.33 2.4 12.36
1/13/2021 9:45:00 AM 3.07 37.526 0.448 7.35 2.32 12.39
1/13/2021 10:00:00 AM 3.08 37.544 0.448 7.35 2.2 12.43
1/13/2021 10:15:00 AM 3.09 37.562 0.449 7.34 2.2 12.46
1/13/2021 10:30:00 AM 3.1 37.58 0.449 7.37 2.16 12.49
1/13/2021 10:45:00 AM 3.12 37.616 0.449 7.37 2.14 12.53
1/13/2021 11:00:00 AM 3.13 37.634 0.449 7.35 2.2 12.56
1/13/2021 11:15:00 AM 3.15 37.67 0.449 7.37 2.26 12.58
1/13/2021 11:30:00 AM 3.18 37.724 0.45 7.38 2.21 12.63
1/13/2021 11:45:00 AM 3.2 37.76 0.45 7.38 2.12 12.67
1/13/2021 12:00:00 PM 3.22 37.796 0.45 7.38 2.27 12.7
1/13/2021 12:15:00 PM 3.26 37.868 0.45 7.39 2.31 12.75
1/13/2021 12:30:00 PM 3.3 37.94 0.45 7.4 2.32 12.8
1/13/2021 12:45:00 PM 3.34 38.012 0.45 7.41 2.37 12.83
1/13/2021 1:00:00 PM 3.41 38.138 0.45 7.41 2.32 12.89
1/13/2021 1:15:00 PM 3.46 38.228 0.45 7.42 2.07 12.91
1/13/2021 1:30:00 PM 3.51 38.318 0.45 7.42 2.06 12.96
1/13/2021 1:45:00 PM 3.54 38.372 0.45 7.42 2.07 12.98
1/13/2021 2:00:00 PM 3.59 38.462 0.45 7.43 2.01 13.01
1/13/2021 2:15:00 PM 3.66 38.588 0.45 7.44 2.06 13.04
1/13/2021 2:30:00 PM 3.72 38.696 0.45 7.45 1.94 13.07
1/13/2021 2:45:00 PM 3.75 38.75 0.45 7.46 2.03 13.1
1/13/2021 3:00:00 PM 3.78 38.804 0.45 7.46 2.04 13.11
1/13/2021 3:15:00 PM 3.79 38.822 0.451 7.45 2.19 13.12
1/13/2021 3:30:00 PM 3.81 38.858 0.45 7.46 2.05 13.11
1/13/2021 3:45:00 PM 3.82 38.876 0.45 7.48 1.97 13.16
1/13/2021 4:00:00 PM 3.84 38.912 0.45 7.47 2.06 13.15
1/13/2021 4:15:00 PM 3.86 38.948 0.45 7.48 2.05 13.14
1/13/2021 4:30:00 PM 3.87 38.966 0.45 7.47 1.98 13.11
1/13/2021 4:45:00 PM 3.88 38.984 0.45 7.48 2.08 13.08
1/13/2021 5:00:00 PM 3.89 39.002 0.45 7.49 2.17 13.05
1/13/2021 5:15:00 PM 3.89 39.002 0.45 7.49 2.25 13
1/13/2021 5:30:00 PM 3.89 39.002 0.451 7.49 2.24 12.98
1/13/2021 5:45:00 PM 3.89 39.002 0.451 7.47 2.08 12.94
1/13/2021 6:00:00 PM 3.88 38.984 0.451 7.48 2.14 12.89
1/13/2021 6:15:00 PM 3.87 38.966 0.451 7.48 2.23 12.87
1/13/2021 6:30:00 PM 3.86 38.948 0.451 7.48 2.18 12.83
1/13/2021 6:45:00 PM 3.85 38.93 0.451 7.48 2.29 12.78
1/13/2021 7:00:00 PM 3.85 38.93 0.451 7.48 2.22 12.75
1/13/2021 7:15:00 PM 3.85 38.93 0.451 7.47 2.31 12.7
1/13/2021 7:30:00 PM 3.84 38.912 0.451 7.46 2.41 12.66
1/13/2021 7:45:00 PM 3.82 38.876 0.451 7.45 2.29 12.62
1/13/2021 8:00:00 PM 3.81 38.858 0.452 7.46 2.2 12.56
1/13/2021 8:15:00 PM 3.79 38.822 0.452 7.45 2.44 12.54
1/13/2021 8:30:00 PM 3.78 38.804 0.452 7.45 2.32 12.5
1/13/2021 8:45:00 PM 3.75 38.75 0.452 7.44 2.58 12.46
1/13/2021 9:00:00 PM 3.73 38.714 0.452 7.43 2.39 12.44
1/13/2021 9:15:00 PM 3.71 38.678 0.452 7.43 2.36 12.4
1/13/2021 9:30:00 PM 3.69 38.642 0.452 7.44 2.37 12.37
1/13/2021 9:45:00 PM 3.66 38.588 0.452 7.42 2.33 12.35
1/13/2021 10:00:00 PM 3.64 38.552 0.452 7.42 2.44 12.32
1/13/2021 10:15:00 PM 3.6 38.48 0.453 7.42 2.46 12.31
1/13/2021 10:30:00 PM 3.58 38.444 0.453 7.4 2.52 12.27
1/13/2021 10:45:00 PM 3.55 38.39 0.453 7.41 3.18 12.25
1/13/2021 11:00:00 PM 3.51 38.318 0.453 7.41 2.63 12.24
1/13/2021 11:15:00 PM 3.49 38.282 0.453 7.41 2.26 12.22
1/13/2021 11:30:00 PM 3.47 38.246 0.454 7.38 2.2 12.2
1/13/2021 11:45:00 PM 3.45 38.21 0.454 7.4 2.41 12.18
1/14/2021 12:00:00 AM 3.43 38.174 0.454 7.4 2.52 12.18
1/14/2021 12:15:00 AM 3.41 38.138 0.454 7.39 2.5 12.16
1/14/2021 12:30:00 AM 3.38 38.084 0.454 7.38 2.47 12.15
1/14/2021 12:45:00 AM 3.36 38.048 0.454 7.38 2.37 12.15
1/14/2021 1:00:00 AM 3.34 38.012 0.454 7.38 2.42 12.14
1/14/2021 1:15:00 AM 3.32 37.976 0.454 7.38 2.42 12.13
1/14/2021 1:30:00 AM 3.31 37.958 0.455 7.37 2.15 12.12
1/14/2021 1:45:00 AM 3.29 37.922 0.454 7.38 2.21 12.13
1/14/2021 2:00:00 AM 3.28 37.904 0.455 7.37 2.39 12.12
1/14/2021 2:15:00 AM 3.26 37.868 0.455 7.37 2.25 12.12
1/14/2021 2:30:00 AM 3.25 37.85 0.455 7.37 2.36 12.11
1/14/2021 2:45:00 AM 3.24 37.832 0.455 7.35 2.3 12.11
1/14/2021 3:00:00 AM 3.23 37.814 0.455 7.37 2.21 12.12
1/14/2021 3:15:00 AM 3.22 37.796 0.455 7.37 2.17 12.11
1/14/2021 3:30:00 AM 3.21 37.778 0.455 7.36 2.52 12.11
1/14/2021 3:45:00 AM 3.19 37.742 0.455 7.36 2.65 12.12
1/14/2021 4:00:00 AM 3.18 37.724 0.455 7.37 2.22 12.11
1/14/2021 4:15:00 AM 3.17 37.706 0.455 7.35 2.26 12.12
1/14/2021 4:30:00 AM 3.16 37.688 0.455 7.35 2.26 12.12
1/14/2021 4:45:00 AM 3.15 37.67 0.455 7.35 2.29 12.12
1/14/2021 5:00:00 AM 3.14 37.652 0.455 7.36 1.98 12.13
1/14/2021 5:15:00 AM 3.13 37.634 0.455 7.36 2.3 12.14
1/14/2021 5:30:00 AM 3.13 37.634 0.455 7.35 2.21 12.13
1/14/2021 5:45:00 AM 3.12 37.616 0.455 7.35 2.26 12.14
1/14/2021 6:00:00 AM 3.12 37.616 0.455 7.35 2.47 12.14
1/14/2021 6:15:00 AM 3.11 37.598 0.455 7.35 2.47 12.15
1/14/2021 6:30:00 AM 3.1 37.58 0.455 7.34 2.33 12.14
1/14/2021 6:45:00 AM 3.1 37.58 0.455 7.35 2.29 12.14
1/14/2021 7:00:00 AM 3.1 37.58 0.455 7.34 2.34 12.14
1/14/2021 7:15:00 AM 3.1 37.58 0.455 7.33 2.18 12.15
1/14/2021 7:30:00 AM 3.09 37.562 0.455 7.35 3.42 12.15
1/14/2021 7:45:00 AM 3.09 37.562 0.455 7.35 2.33 12.15
1/14/2021 8:00:00 AM 3.09 37.562 0.455 7.34 2.41 12.16
1/14/2021 8:15:00 AM 3.09 37.562 0.455 7.35 2.32 12.18
1/14/2021 8:30:00 AM 3.1 37.58 0.455 7.35 2.54 12.18
1/14/2021 8:45:00 AM 3.11 37.598 0.455 7.35 2.2 12.22
1/14/2021 9:00:00 AM 3.12 37.616 0.455 7.34 2.35 12.25
1/14/2021 9:15:00 AM 3.14 37.652 0.455 7.35 2.18 12.27
1/14/2021 9:30:00 AM 3.15 37.67 0.455 7.37 2.52 12.3
1/14/2021 9:45:00 AM 3.17 37.706 0.455 7.37 2.25 12.34
1/14/2021 10:00:00 AM 3.19 37.742 0.455 7.37 2.12 12.38
1/14/2021 10:15:00 AM 3.22 37.796 0.455 7.36 2.13 12.42
1/14/2021 10:30:00 AM 3.25 37.85 0.455 7.38 2.12 12.46
1/14/2021 10:45:00 AM 3.3 37.94 0.455 7.38 1.99 12.52
1/14/2021 11:00:00 AM 3.35 38.03 0.455 7.39 2.02 12.56
1/14/2021 11:15:00 AM 3.38 38.084 0.455 7.38 2.06 12.6
1/14/2021 11:30:00 AM 3.41 38.138 0.455 7.41 2.07 12.65
1/14/2021 11:45:00 AM 3.45 38.21 0.455 7.41 2.06 12.69
1/14/2021 12:00:00 PM 3.48 38.264 0.455 7.42 2.14 12.73
1/14/2021 12:15:00 PM 3.53 38.354 0.455 7.41 1.93 12.78
1/14/2021 12:30:00 PM 3.59 38.462 0.454 7.42 2.11 12.83
1/14/2021 12:45:00 PM 3.64 38.552 0.455 7.43 2.01 12.86
1/14/2021 1:00:00 PM 3.69 38.642 0.455 7.45 2.09 12.9
1/14/2021 1:15:00 PM 3.75 38.75 0.454 7.44 1.9 12.93
1/14/2021 1:30:00 PM 3.77 38.786 0.454 7.46 2.06 12.96
1/14/2021 1:45:00 PM 3.8 38.84 0.455 7.46 2.12 12.97
1/14/2021 2:00:00 PM 3.83 38.894 0.455 7.47 1.84 12.98
1/14/2021 2:15:00 PM 3.86 38.948 0.454 7.47 2.12 13.01
1/14/2021 2:30:00 PM 3.89 39.002 0.455 7.47 2.11 13.03
1/14/2021 2:45:00 PM 3.92 39.056 0.455 7.49 2.03 13.03
1/14/2021 3:00:00 PM 3.95 39.11 0.455 7.49 2.1 13.04
1/14/2021 3:15:00 PM 3.97 39.146 0.455 7.49 2.18 13.04
1/14/2021 3:30:00 PM 3.98 39.164 0.455 7.49 1.99 13.02
1/14/2021 3:45:00 PM 4 39.2 0.455 7.5 1.93 13.02
1/14/2021 4:00:00 PM 4.03 39.254 0.455 7.48 2.01 13.01
1/14/2021 4:15:00 PM 4.04 39.272 0.455 7.5 1.93 12.99
1/14/2021 4:30:00 PM 4.06 39.308 0.455 7.5 2.06 12.96
1/14/2021 4:45:00 PM 4.07 39.326 0.455 7.5 1.91 12.93
1/14/2021 5:00:00 PM 4.08 39.344 0.455 7.5 1.98 12.89
1/14/2021 5:15:00 PM 4.08 39.344 0.455 7.5 1.92 12.85
1/14/2021 5:30:00 PM 4.09 39.362 0.455 7.5 1.99 12.81
1/14/2021 5:45:00 PM 4.1 39.38 0.455 7.49 1.94 12.77
1/14/2021 6:00:00 PM 4.11 39.398 0.455 7.5 2 12.73
1/14/2021 6:15:00 PM 4.12 39.416 0.455 7.49 2.11 12.68
1/14/2021 6:30:00 PM 4.12 39.416 0.456 7.48 2.07 12.64
1/14/2021 6:45:00 PM 4.13 39.434 0.456 7.48 2 12.61
1/14/2021 7:00:00 PM 4.14 39.452 0.456 7.48 1.95 12.56
1/14/2021 7:15:00 PM 4.15 39.47 0.456 7.47 2.14 12.53
1/14/2021 7:30:00 PM 4.15 39.47 0.456 7.46 2.21 12.49
1/14/2021 7:45:00 PM 4.15 39.47 0.456 7.46 2.04 12.45
1/14/2021 8:00:00 PM 4.16 39.488 0.456 7.45 2.34 12.41
1/14/2021 8:15:00 PM 4.16 39.488 0.456 7.44 2.19 12.37
1/14/2021 8:30:00 PM 4.16 39.488 0.456 7.44 2.06 12.33
1/14/2021 8:45:00 PM 4.16 39.488 0.456 7.43 2.66 12.29
1/14/2021 9:00:00 PM 4.16 39.488 0.456 7.43 2.38 12.25
1/14/2021 9:15:00 PM 4.15 39.47 0.456 7.43 2.51 12.22
1/14/2021 9:30:00 PM 4.15 39.47 0.456 7.42 2.31 12.19
1/14/2021 9:45:00 PM 4.15 39.47 0.456 7.42 2.33 12.17
1/14/2021 10:00:00 PM 4.14 39.452 0.456 7.4 2.5 12.12
1/14/2021 10:15:00 PM 4.14 39.452 0.456 7.4 2.64 12.1
1/14/2021 10:30:00 PM 4.13 39.434 0.456 7.42 2.48 12.09
1/14/2021 10:45:00 PM 4.13 39.434 0.456 7.41 2.3 12.06
1/14/2021 11:00:00 PM 4.12 39.416 0.456 7.39 2.5 12.04
1/14/2021 11:15:00 PM 4.12 39.416 0.456 7.4 2.36 12.02
1/14/2021 11:30:00 PM 4.12 39.416 0.456 7.39 2.33 12
1/14/2021 11:45:00 PM 4.11 39.398 0.457 7.4 2.39 11.99
1/15/2021 12:00:00 AM 4.11 39.398 0.457 7.38 2.23 11.97
1/15/2021 12:15:00 AM 4.1 39.38 0.457 7.39 2.21 11.96
1/15/2021 12:30:00 AM 4.1 39.38 0.458 7.39 2.2 11.95
1/15/2021 12:45:00 AM 4.09 39.362 0.458 7.37 2.22 11.94
1/15/2021 1:00:00 AM 4.09 39.362 0.459 7.39 2.22 11.93
1/15/2021 1:15:00 AM 4.09 39.362 0.459 7.39 2.3 11.92
1/15/2021 1:30:00 AM 4.09 39.362 0.459 7.37 2.2 11.91
1/15/2021 1:45:00 AM 4.09 39.362 0.46 7.38 2.12 11.9
1/15/2021 2:00:00 AM 4.09 39.362 0.46 7.38 2.25 11.9
1/15/2021 2:15:00 AM 4.09 39.362 0.46 7.38 2.17 11.9
1/15/2021 2:30:00 AM 4.09 39.362 0.459 7.37 2.37 11.88
1/15/2021 2:45:00 AM 4.09 39.362 0.459 7.38 2.31 11.88
1/15/2021 3:00:00 AM 4.09 39.362 0.459 7.38 2.28 11.87
1/15/2021 3:15:00 AM 4.06 39.308 0.459 7.38 2.17 11.88
1/15/2021 3:30:00 AM 4.04 39.272 0.458 7.37 2.13 11.87
1/15/2021 3:45:00 AM 4.01 39.218 0.458 7.36 2.15 11.87
1/15/2021 4:00:00 AM 3.98 39.164 0.458 7.38 2.15 11.88
1/15/2021 4:15:00 AM 3.96 39.128 0.458 7.36 2.29 11.88
1/15/2021 4:30:00 AM 3.94 39.092 0.458 7.37 2.41 11.87
1/15/2021 4:45:00 AM 3.92 39.056 0.458 7.37 2.44 11.88
1/15/2021 5:00:00 AM 3.9 39.02 0.458 7.36 2.45 11.88
1/15/2021 5:15:00 AM 3.88 38.984 0.458 7.36 2.36 11.88
1/15/2021 5:30:00 AM 3.86 38.948 0.458 7.37 2.36 11.88
1/15/2021 5:45:00 AM 3.84 38.912 0.458 7.36 2.24 11.87
1/15/2021 6:00:00 AM 3.82 38.876 0.459 7.35 2.33 11.89
1/15/2021 6:15:00 AM 3.79 38.822 0.459 7.36 2.57 11.89
1/15/2021 6:30:00 AM 3.77 38.786 0.458 7.36 2.33 11.9
1/15/2021 6:45:00 AM 3.74 38.732 0.458 7.37 2.39 11.9
1/15/2021 7:00:00 AM 3.72 38.696 0.458 7.35 2.34 11.91
1/15/2021 7:15:00 AM 3.7 38.66 0.458 7.37 2.83 11.89
1/15/2021 7:30:00 AM 3.68 38.624 0.459 7.36 2.35 11.91
1/15/2021 7:45:00 AM 3.67 38.606 0.458 7.37 2.28 11.93
1/15/2021 8:00:00 AM 3.65 38.57 0.459 7.35 2.36 11.93
1/15/2021 8:15:00 AM 3.65 38.57 0.458 7.37 2.38 11.96
1/15/2021 8:30:00 AM 3.64 38.552 0.459 7.37 2.41 11.98
1/15/2021 8:45:00 AM 3.64 38.552 0.459 7.37 2.34 12.02
1/15/2021 9:00:00 AM 3.64 38.552 0.459 7.38 2.34 12.05
1/15/2021 9:15:00 AM 3.64 38.552 0.46 7.39 2.22 12.1
1/15/2021 9:30:00 AM 3.65 38.57 0.46 7.39 2.44 12.14
1/15/2021 9:45:00 AM 3.66 38.588 0.46 7.39 2.25 12.19
1/15/2021 10:00:00 AM 3.68 38.624 0.46 7.4 2.14 12.24
1/15/2021 10:15:00 AM 3.7 38.66 0.461 7.39 2.09 12.3
1/15/2021 10:30:00 AM 3.74 38.732 0.461 7.42 2.02 12.37
1/15/2021 10:45:00 AM 3.79 38.822 0.462 7.43 1.93 12.42
1/15/2021 11:00:00 AM 3.85 38.93 0.462 7.43 2.21 12.49
1/15/2021 11:15:00 AM 3.93 39.074 0.462 7.43 2.25 12.55
1/15/2021 11:30:00 AM 3.97 39.146 0.463 7.44 2.24 12.61
1/15/2021 11:45:00 AM 4.01 39.218 0.463 7.45 2.22 12.67
1/15/2021 12:00:00 PM 4.04 39.272 0.463 7.47 2.67 12.72
1/15/2021 12:15:00 PM 4.07 39.326 0.463 7.48 2.09 12.77
1/15/2021 12:30:00 PM 4.08 39.344 0.463 7.49 1.97 12.81
1/15/2021 12:45:00 PM 4.1 39.38 0.463 7.49 2.05 12.84
1/15/2021 1:00:00 PM 4.11 39.398 0.464 7.49 1.94 12.87
1/15/2021 1:15:00 PM 4.13 39.434 0.464 7.51 2.02 12.9
1/15/2021 1:30:00 PM 4.17 39.506 0.463 7.52 2.13 12.95
1/15/2021 1:45:00 PM 4.22 39.596 0.463 7.53 1.99 12.99
1/15/2021 2:00:00 PM 4.26 39.668 0.463 7.53 2.04 13.04
1/15/2021 2:15:00 PM 4.3 39.74 0.463 7.54 2.18 13.06
1/15/2021 2:30:00 PM 4.34 39.812 0.463 7.53 2.06 13.09
1/15/2021 2:45:00 PM 4.4 39.92 0.463 7.56 2.31 13.11
1/15/2021 3:00:00 PM 4.42 39.956 0.462 7.56 2.26 13.1
1/15/2021 3:15:00 PM 4.44 39.992 0.462 7.57 2.2 13.1
1/15/2021 3:30:00 PM 4.45 40.01 0.462 7.55 2 13.08
1/15/2021 3:45:00 PM 4.47 40.046 0.462 7.57 2.08 13.06
1/15/2021 4:00:00 PM 4.49 40.082 0.462 7.57 2.08 13.05
1/15/2021 4:15:00 PM 4.51 40.118 0.462 7.58 2.06 13.03
1/15/2021 4:30:00 PM 4.53 40.154 0.461 7.58 2.06 13
1/15/2021 4:45:00 PM 4.54 40.172 0.461 7.58 2.11 12.96
1/15/2021 5:00:00 PM 4.56 40.208 0.461 7.58 2.14 12.92
1/15/2021 5:15:00 PM 4.58 40.244 0.461 7.56 2.22 12.87
1/15/2021 5:30:00 PM 4.59 40.262 0.461 7.57 2.17 12.83
1/15/2021 5:45:00 PM 4.6 40.28 0.461 7.56 2.34 12.77
1/15/2021 6:00:00 PM 4.62 40.316 0.461 7.55 2.34 12.73
1/15/2021 6:15:00 PM 4.63 40.334 0.46 7.56 2.44 12.66
1/15/2021 6:30:00 PM 4.64 40.352 0.46 7.55 2.42 12.61
1/15/2021 6:45:00 PM 4.65 40.37 0.46 7.54 2.59 12.55
1/15/2021 7:00:00 PM 4.66 40.388 0.46 7.54 2.51 12.5
1/15/2021 7:15:00 PM 4.67 40.406 0.46 7.53 2.7 12.45
1/15/2021 7:30:00 PM 4.68 40.424 0.46 7.53 2.43 12.4
1/15/2021 7:45:00 PM 4.68 40.424 0.46 7.52 2.35 12.35
1/15/2021 8:00:00 PM 4.69 40.442 0.46 7.53 2.24 12.31
1/15/2021 8:15:00 PM 4.69 40.442 0.46 7.52 2.41 12.25
1/15/2021 8:30:00 PM 4.69 40.442 0.459 7.51 2.63 12.22
1/15/2021 8:45:00 PM 4.68 40.424 0.459 7.5 2.57 12.16
1/15/2021 9:00:00 PM 4.68 40.424 0.459 7.51 2.41 12.14
1/15/2021 9:15:00 PM 4.68 40.424 0.459 7.5 2.59 12.1
1/15/2021 9:30:00 PM 4.67 40.406 0.458 7.5 2.4 12.07
1/15/2021 9:45:00 PM 4.67 40.406 0.458 7.49 2.6 12.04
1/15/2021 10:00:00 PM 4.66 40.388 0.458 7.49 2.7 12
1/15/2021 10:15:00 PM 4.65 40.37 0.457 7.48 2.68 11.98
1/15/2021 10:30:00 PM 4.65 40.37 0.457 7.46 2.64 11.93
1/15/2021 10:45:00 PM 4.64 40.352 0.457 7.46 2.74 11.91
1/15/2021 11:00:00 PM 4.63 40.334 0.456 7.47 2.74 11.89
1/15/2021 11:15:00 PM 4.63 40.334 0.456 7.46 2.96 11.86
1/15/2021 11:30:00 PM 4.62 40.316 0.455 7.45 2.73 11.84
1/15/2021 11:45:00 PM 4.61 40.298 0.454 7.46 2.62 11.82
1/16/2021 12:00:00 AM 4.61 40.298 0.454 7.45 2.82 11.8
1/16/2021 12:15:00 AM 4.6 40.28 0.454 7.44 3.17 11.78
1/16/2021 12:30:00 AM 4.6 40.28 0.455 7.43 3.27 11.79
1/16/2021 12:45:00 AM 4.59 40.262 0.459 7.44 3.85 11.78
1/16/2021 1:00:00 AM 4.57 40.226 0.47 7.44 4.65 11.78
1/16/2021 1:15:00 AM 4.56 40.208 0.469 7.44 4.77 11.77
1/16/2021 1:30:00 AM 4.56 40.208 0.464 7.44 4.65 11.76
1/16/2021 1:45:00 AM 4.55 40.19 0.461 7.43 4.6 11.76
1/16/2021 2:00:00 AM 4.55 40.19 0.456 7.44 4.39 11.75
1/16/2021 2:15:00 AM 4.54 40.172 0.451 7.43 4.85 11.74
1/16/2021 2:30:00 AM 4.54 40.172 0.45 7.42 5.29 11.74
1/16/2021 2:45:00 AM 4.53 40.154 0.447 7.43 5.45 11.74
1/16/2021 3:00:00 AM 4.52 40.136 0.446 7.43 6.22 11.74
1/16/2021 3:15:00 AM 4.51 40.118 0.444 7.43 6.59 11.74
1/16/2021 3:30:00 AM 4.49 40.082 0.441 7.43 7.89 11.75
1/16/2021 3:45:00 AM 4.48 40.064 0.44 7.43 8.07 11.76
1/16/2021 4:00:00 AM 4.46 40.028 0.438 7.42 7.86 11.76
1/16/2021 4:15:00 AM 4.44 39.992 0.436 7.42 8.85 11.78
1/16/2021 4:30:00 AM 4.41 39.938 0.434 7.42 9.25 11.79
1/16/2021 4:45:00 AM 4.38 39.884 0.431 7.42 9.66 11.81
1/16/2021 5:00:00 AM 4.36 39.848 0.429 7.42 10.4 11.83
1/16/2021 5:15:00 AM 4.34 39.812 0.427 7.42 10.39 11.84
1/16/2021 5:30:00 AM 4.32 39.776 0.426 7.39 11.39 11.86
1/16/2021 5:45:00 AM 4.31 39.758 0.427 7.42 10.26 11.86
1/16/2021 6:00:00 AM 4.29 39.722 0.43 7.4 10.99 11.87
1/16/2021 6:15:00 AM 4.29 39.722 0.432 7.41 12.64 11.87
1/16/2021 6:30:00 AM 4.28 39.704 0.434 7.41 11.99 11.88
1/16/2021 6:45:00 AM 4.27 39.686 0.434 7.41 12.08 11.88
1/16/2021 7:00:00 AM 4.25 39.65 0.435 7.39 12.7 11.89
1/16/2021 7:15:00 AM 4.21 39.578 0.437 7.39 13.46 11.91
1/16/2021 7:30:00 AM 4.14 39.452 0.441 7.39 15.07 11.94
1/16/2021 7:45:00 AM 4.05 39.29 0.447 7.34 18.66 11.99
1/16/2021 8:00:00 AM 3.95 39.11 0.448 7.33 20.62 12.04
1/16/2021 8:15:00 AM 3.85 38.93 0.444 7.33 23.78 12.09
1/16/2021 8:30:00 AM 3.75 38.75 0.438 7.32 19.55 12.16
1/16/2021 8:45:00 AM 3.65 38.57 0.436 7.31 20.49 12.23
1/16/2021 9:00:00 AM 3.56 38.408 0.442 7.3 25.32 12.27
1/16/2021 9:15:00 AM 3.49 38.282 0.45 7.29 29.16 12.29
1/16/2021 9:30:00 AM 3.44 38.192 0.452 7.29 31.1 12.31
1/16/2021 9:45:00 AM 3.42 38.156 0.441 7.28 27.91 12.32
1/16/2021 10:00:00 AM 3.39 38.102 0.421 7.24 33.17 12.37
1/16/2021 10:15:00 AM 3.33 37.994 0.396 7.25 30.34 12.44
1/16/2021 10:30:00 AM 3.28 37.904 0.375 7.21 27.66 12.52
1/16/2021 10:45:00 AM 3.23 37.814 0.357 7.2 27.99 12.59
1/16/2021 11:00:00 AM 3.2 37.76 0.342 7.2 20.05 12.67
1/16/2021 11:15:00 AM 3.18 37.724 0.328 7.17 25.17 12.73
1/16/2021 11:30:00 AM 3.17 37.706 0.317 7.18 25.79 12.78
1/16/2021 11:45:00 AM 3.14 37.652 0.307 7.17 36.45 12.83
1/16/2021 12:00:00 PM 3.09 37.562 0.299 7.15 45.2 12.88
1/16/2021 12:15:00 PM 3.05 37.49 0.295 7.15 31.6 12.93
1/16/2021 12:30:00 PM 3.03 37.454 0.293 7.14 59.14 12.97
1/16/2021 12:45:00 PM 2.99 37.382 0.294 7.11 32.93 13
1/16/2021 1:00:00 PM 2.95 37.31 0.295 7.13 44.69 13.03
1/16/2021 1:15:00 PM 2.95 37.31 0.296 7.12 58.55 13.06
1/16/2021 1:30:00 PM 2.97 37.346 0.296 7.12 38.23 13.08
1/16/2021 1:45:00 PM 2.98 37.364 0.295 7.12 40.28 13.1
1/16/2021 2:00:00 PM 2.96 37.328 0.295 7.13 67.8 13.12
1/16/2021 2:15:00 PM 2.97 37.346 0.294 7.13 31.49 13.13
1/16/2021 2:30:00 PM 2.99 37.382 0.293 7.14 33.98 13.14
1/16/2021 2:45:00 PM 3 37.4 0.293 7.14 33.54 13.15
1/16/2021 3:00:00 PM 3.02 37.436 0.293 7.14 41.64 13.15
1/16/2021 3:15:00 PM 3.03 37.454 0.293 7.15 37.57 13.14
1/16/2021 3:30:00 PM 3.05 37.49 0.293 7.16 31.37 13.14
1/16/2021 3:45:00 PM 3.06 37.508 0.293 7.16 34.3 13.14
1/16/2021 4:00:00 PM 3.06 37.508 0.294 7.17 30 13.13
1/16/2021 4:15:00 PM 3.06 37.508 0.295 7.17 38.76 13.11
1/16/2021 4:30:00 PM 3.06 37.508 0.296 7.18 27.3 13.09
1/16/2021 4:45:00 PM 3.05 37.49 0.298 7.18 35.83 13.06
1/16/2021 5:00:00 PM 3.06 37.508 0.299 7.19 23.08 13.04
1/16/2021 5:15:00 PM 3.07 37.526 0.301 7.19 28.29 13.01
1/16/2021 5:30:00 PM 3.08 37.544 0.302 7.18 24.03 12.97
1/16/2021 5:45:00 PM 3.08 37.544 0.303 7.19 27.38 12.94
1/16/2021 6:00:00 PM 3.1 37.58 0.305 7.18 24.42 12.91
1/16/2021 6:15:00 PM 3.1 37.58 0.306 7.19 26.15 12.87
1/16/2021 6:30:00 PM 3.1 37.58 0.307 7.18 31.28 12.84
1/16/2021 6:45:00 PM 3.1 37.58 0.308 7.19 22.5 12.8
1/16/2021 7:00:00 PM 3.09 37.562 0.308 7.19 15.53 12.77
1/16/2021 7:15:00 PM 3.09 37.562 0.309 7.19 19.57 12.74
1/16/2021 7:30:00 PM 3.09 37.562 0.31 7.19 18.07 12.71
1/16/2021 7:45:00 PM 3.09 37.562 0.31 7.18 19.19 12.69
1/16/2021 8:00:00 PM 3.09 37.562 0.311 7.18 20.25 12.67
1/16/2021 8:15:00 PM 3.09 37.562 0.311 7.18 16.19 12.65
1/16/2021 8:30:00 PM 3.08 37.544 0.312 7.17 17.02 12.63
1/16/2021 8:45:00 PM 3.07 37.526 0.312 7.18 17.77 12.61
1/16/2021 9:00:00 PM 3.05 37.49 0.312 7.17 17.52 12.6
1/16/2021 9:15:00 PM 3.03 37.454 0.312 7.17 16.95 12.6
1/16/2021 9:30:00 PM 3.01 37.418 0.313 7.16 15.61 12.59
1/16/2021 9:45:00 PM 2.99 37.382 0.313 7.17 16.79 12.59
1/16/2021 10:00:00 PM 2.96 37.328 0.312 7.17 16.96 12.58
1/16/2021 10:15:00 PM 2.95 37.31 0.312 7.15 16.65 12.58
1/16/2021 10:30:00 PM 2.93 37.274 0.312 7.15 15.03 12.59
1/16/2021 10:45:00 PM 2.91 37.238 0.312 7.16 15.32 12.58
1/16/2021 11:00:00 PM 2.88 37.184 0.312 7.16 14.85 12.58
1/16/2021 11:15:00 PM 2.87 37.166 0.312 7.14 16.98 12.58
1/16/2021 11:30:00 PM 2.85 37.13 0.312 7.15 14.68 12.59
1/16/2021 11:45:00 PM 2.84 37.112 0.311 7.15 14.87 12.59
1/17/2021 12:00:00 AM 2.82 37.076 0.311 7.15 14.86 12.59
1/17/2021 12:15:00 AM 2.81 37.058 0.311 7.14 15.74 12.59
1/17/2021 12:30:00 AM 2.8 37.04 0.311 7.15 15.19 12.6
1/17/2021 12:45:00 AM 2.79 37.022 0.311 7.14 12.17 12.59
1/17/2021 1:00:00 AM 2.77 36.986 0.311 7.14 14.56 12.6
1/17/2021 1:15:00 AM 2.74 36.932 0.311 7.14 13.86 12.61
1/17/2021 1:30:00 AM 2.72 36.896 0.311 7.15 15.84 12.61
1/17/2021 1:45:00 AM 2.69 36.842 0.311 7.15 13.5 12.62
1/17/2021 2:00:00 AM 2.66 36.788 0.311 7.15 14.68 12.63
1/17/2021 2:15:00 AM 2.63 36.734 0.311 7.15 13.65 12.64
1/17/2021 2:30:00 AM 2.59 36.662 0.311 7.15 15.94 12.65
1/17/2021 2:45:00 AM 2.55 36.59 0.312 7.12 12.38 12.65
1/17/2021 3:00:00 AM 2.52 36.536 0.312 7.15 15.45 12.66
1/17/2021 3:15:00 AM 2.5 36.5 0.312 7.15 14.77 12.68
1/17/2021 3:30:00 AM 2.47 36.446 0.312 7.14 13.2 12.69
1/17/2021 3:45:00 AM 2.43 36.374 0.313 7.14 13.67 12.7
1/17/2021 4:00:00 AM 2.42 36.356 0.313 7.15 14.05 12.71
1/17/2021 4:15:00 AM 2.39 36.302 0.313 7.15 13.96 12.72
1/17/2021 4:30:00 AM 2.37 36.266 0.314 7.15 14.08 12.73
1/17/2021 4:45:00 AM 2.34 36.212 0.314 7.15 13.17 12.74
1/17/2021 5:00:00 AM 2.32 36.176 0.314 7.15 13.07 12.75
1/17/2021 5:15:00 AM 2.29 36.122 0.315 7.13 12.13 12.76
1/17/2021 5:30:00 AM 2.27 36.086 0.315 7.15 11.56 12.77
1/17/2021 5:45:00 AM 2.25 36.05 0.315 7.15 11.33 12.78
1/17/2021 6:00:00 AM 2.23 36.014 0.316 7.15 11.67 12.78
1/17/2021 6:15:00 AM 2.22 35.996 0.316 7.15 11.73 12.79
1/17/2021 6:30:00 AM 2.21 35.978 0.316 7.13 11.27 12.79
1/17/2021 6:45:00 AM 2.2 35.96 0.317 7.14 10.97 12.8
1/17/2021 7:00:00 AM 2.19 35.942 0.317 7.15 11.22 12.8
1/17/2021 7:15:00 AM 2.18 35.924 0.317 7.15 10.91 12.81
1/17/2021 7:30:00 AM 2.16 35.888 0.318 7.15 10.82 12.82
1/17/2021 7:45:00 AM 2.15 35.87 0.318 7.16 11.33 12.82
1/17/2021 8:00:00 AM 2.14 35.852 0.318 7.15 10.88 12.83
1/17/2021 8:15:00 AM 2.14 35.852 0.319 7.16 10.88 12.83
1/17/2021 8:30:00 AM 2.14 35.852 0.319 7.16 10.39 12.85
1/17/2021 8:45:00 AM 2.15 35.87 0.319 7.15 11.07 12.87
1/17/2021 9:00:00 AM 2.14 35.852 0.32 7.17 9.71 12.88
1/17/2021 9:15:00 AM 2.15 35.87 0.32 7.17 9.35 12.9
1/17/2021 9:30:00 AM 2.17 35.906 0.321 7.17 10.03 12.93
1/17/2021 9:45:00 AM 2.18 35.924 0.321 7.18 9.48 12.95
1/17/2021 10:00:00 AM 2.22 35.996 0.321 7.19 9.17 12.99
1/17/2021 10:15:00 AM 2.29 36.122 0.321 7.2 9.34 13.04
1/17/2021 10:30:00 AM 2.32 36.176 0.322 7.21 8.73 13.07
1/17/2021 10:45:00 AM 2.32 36.176 0.322 7.19 8.65 13.11
1/17/2021 11:00:00 AM 2.34 36.212 0.322 7.22 8.55 13.14
1/17/2021 11:15:00 AM 2.36 36.248 0.323 7.22 8.64 13.18
1/17/2021 11:30:00 AM 2.39 36.302 0.323 7.24 15.06 13.21
1/17/2021 11:45:00 AM 2.43 36.374 0.323 7.25 8.1 13.24
1/17/2021 12:00:00 PM 2.45 36.41 0.324 7.23 7.21 13.28
1/17/2021 12:15:00 PM 2.49 36.482 0.324 7.26 7.61 13.3
1/17/2021 12:30:00 PM 2.53 36.554 0.324 7.27 8.17 13.34
1/17/2021 12:45:00 PM 2.58 36.644 0.324 7.28 7.97 13.36
1/17/2021 1:00:00 PM 2.62 36.716 0.325 7.29 7.66 13.4
1/17/2021 1:15:00 PM 2.65 36.77 0.325 7.28 7.23 13.43
1/17/2021 1:30:00 PM 2.68 36.824 0.325 7.3 7.36 13.45
1/17/2021 1:45:00 PM 2.75 36.95 0.325 7.3 6.79 13.48
1/17/2021 2:00:00 PM 2.79 37.022 0.326 7.33 7.07 13.49
1/17/2021 2:15:00 PM 2.83 37.094 0.326 7.33 6.85 13.51
1/17/2021 2:30:00 PM 2.87 37.166 0.326 7.34 7.74 13.52
1/17/2021 2:45:00 PM 2.91 37.238 0.327 7.34 7.3 13.52
1/17/2021 3:00:00 PM 2.93 37.274 0.327 7.35 6.92 13.51
1/17/2021 3:15:00 PM 2.95 37.31 0.327 7.34 7.2 13.49
1/17/2021 3:30:00 PM 2.98 37.364 0.327 7.35 7.01 13.47
1/17/2021 3:45:00 PM 2.99 37.382 0.328 7.35 6.94 13.44
1/17/2021 4:00:00 PM 3.01 37.418 0.328 7.36 7.66 13.41
1/17/2021 4:15:00 PM 3.02 37.436 0.328 7.34 6.95 13.37
1/17/2021 4:30:00 PM 3.04 37.472 0.329 7.35 7 13.34
1/17/2021 4:45:00 PM 3.05 37.49 0.329 7.34 6.97 13.29
1/17/2021 5:00:00 PM 3.06 37.508 0.33 7.34 6.24 13.25
1/17/2021 5:15:00 PM 3.06 37.508 0.33 7.32 6.67 13.2
1/17/2021 5:30:00 PM 3.07 37.526 0.33 7.33 6.61 13.15
1/17/2021 5:45:00 PM 3.07 37.526 0.33 7.32 6.56 13.11
1/17/2021 6:00:00 PM 3.07 37.526 0.331 7.31 6.52 13.06
1/17/2021 6:15:00 PM 3.07 37.526 0.331 7.31 6.13 13.02
1/17/2021 6:30:00 PM 3.08 37.544 0.331 7.28 6.5 12.98
1/17/2021 6:45:00 PM 3.08 37.544 0.332 7.29 6.51 12.93
1/17/2021 7:00:00 PM 3.08 37.544 0.332 7.28 6.32 12.89
1/17/2021 7:15:00 PM 3.08 37.544 0.332 7.29 6.6 12.86
1/17/2021 7:30:00 PM 3.08 37.544 0.333 7.28 5.85 12.82
1/17/2021 7:45:00 PM 3.08 37.544 0.333 7.25 6.16 12.78
1/17/2021 8:00:00 PM 3.08 37.544 0.334 7.27 6.64 12.75
1/17/2021 8:15:00 PM 3.08 37.544 0.334 7.26 6.32 12.71
1/17/2021 8:30:00 PM 3.09 37.562 0.334 7.24 6.52 12.69
1/17/2021 8:45:00 PM 3.09 37.562 0.335 7.25 6.39 12.66
1/17/2021 9:00:00 PM 3.09 37.562 0.335 7.25 5.93 12.64
1/17/2021 9:15:00 PM 3.1 37.58 0.335 7.24 5.69 12.61
1/17/2021 9:30:00 PM 3.11 37.598 0.336 7.24 5.89 12.59
1/17/2021 9:45:00 PM 3.11 37.598 0.336 7.24 5.91 12.57
1/17/2021 10:00:00 PM 3.12 37.616 0.336 7.24 5.92 12.55
1/17/2021 10:15:00 PM 3.12 37.616 0.337 7.22 5.8 12.54
1/17/2021 10:30:00 PM 3.13 37.634 0.337 7.24 6.03 12.53
1/17/2021 10:45:00 PM 3.13 37.634 0.337 7.22 5.98 12.51
1/17/2021 11:00:00 PM 3.13 37.634 0.337 7.23 5.95 12.5
1/17/2021 11:15:00 PM 3.13 37.634 0.337 7.23 5.61 12.49
1/17/2021 11:30:00 PM 3.13 37.634 0.338 7.23 5.55 12.48
1/17/2021 11:45:00 PM 3.13 37.634 0.338 7.23 5.74 12.47
1/18/2021 12:00:00 AM 3.13 37.634 0.338 7.23 5.65 12.46
1/18/2021 12:15:00 AM 3.13 37.634 0.338 7.23 5.59 12.46
1/18/2021 12:30:00 AM 3.13 37.634 0.339 7.23 5.78 12.45
1/18/2021 12:45:00 AM 3.13 37.634 0.339 7.23 6.11 12.44
1/18/2021 1:00:00 AM 3.13 37.634 0.339 7.23 5.42 12.44
1/18/2021 1:15:00 AM 3.13 37.634 0.339 7.23 5.57 12.43
1/18/2021 1:30:00 AM 3.12 37.616 0.339 7.23 6.02 12.43
1/18/2021 1:45:00 AM 3.11 37.598 0.339 7.22 5.45 12.42
1/18/2021 2:00:00 AM 3.1 37.58 0.339 7.23 5.93 12.43
1/18/2021 2:15:00 AM 3.1 37.58 0.339 7.23 5.54 12.42
1/18/2021 2:30:00 AM 3.1 37.58 0.34 7.23 5.19 12.42
1/18/2021 2:45:00 AM 3.1 37.58 0.34 7.23 5.58 12.42
1/18/2021 3:00:00 AM 3.08 37.544 0.34 7.22 5.75 12.42
1/18/2021 3:15:00 AM 3.07 37.526 0.34 7.23 6.05 12.42
1/18/2021 3:30:00 AM 3.05 37.49 0.34 7.22 5.88 12.42
1/18/2021 3:45:00 AM 3.04 37.472 0.34 7.22 5.69 12.42
1/18/2021 4:00:00 AM 3.02 37.436 0.34 7.22 6.35 12.43
1/18/2021 4:15:00 AM 3.01 37.418 0.34 7.22 6.09 12.42
1/18/2021 4:30:00 AM 3 37.4 0.341 7.23 5.79 12.43
1/18/2021 4:45:00 AM 2.99 37.382 0.341 7.22 6.03 12.43
1/18/2021 5:00:00 AM 2.98 37.364 0.341 7.22 6.43 12.43
1/18/2021 5:15:00 AM 2.97 37.346 0.341 7.22 5.97 12.44
1/18/2021 5:30:00 AM 2.96 37.328 0.341 7.22 6.46 12.44
1/18/2021 5:45:00 AM 2.95 37.31 0.341 7.21 5.76 12.44
1/18/2021 6:00:00 AM 2.95 37.31 0.342 7.21 5.85 12.45
1/18/2021 6:15:00 AM 2.94 37.292 0.342 7.22 5.94 12.45
1/18/2021 6:30:00 AM 2.93 37.274 0.342 7.22 6.19 12.46
1/18/2021 6:45:00 AM 2.91 37.238 0.342 7.22 5.88 12.46
1/18/2021 7:00:00 AM 2.9 37.22 0.342 7.2 6.34 12.46
1/18/2021 7:15:00 AM 2.89 37.202 0.343 7.22 6.05 12.47
1/18/2021 7:30:00 AM 2.87 37.166 0.343 7.21 6.01 12.48
1/18/2021 7:45:00 AM 2.86 37.148 0.343 7.21 5.87 12.49
1/18/2021 8:00:00 AM 2.84 37.112 0.343 7.23 6.03 12.5
1/18/2021 8:15:00 AM 2.83 37.094 0.343 7.23 5.94 12.52
1/18/2021 8:30:00 AM 2.82 37.076 0.343 7.23 5.88 12.55
1/18/2021 8:45:00 AM 2.81 37.058 0.343 7.23 5.89 12.59
1/18/2021 9:00:00 AM 2.83 37.094 0.344 7.24 7.69 12.64
1/18/2021 9:15:00 AM 2.85 37.13 0.344 7.25 6.5 12.68
1/18/2021 9:30:00 AM 2.87 37.166 0.344 7.25 5.38 12.74
1/18/2021 9:45:00 AM 2.88 37.184 0.344 7.26 5.38 12.78
1/18/2021 10:00:00 AM 2.87 37.166 0.344 7.27 5.49 12.81
1/18/2021 10:15:00 AM 2.86 37.148 0.345 7.28 5.49 12.86
1/18/2021 10:30:00 AM 2.9 37.22 0.345 7.29 5.67 12.93
1/18/2021 10:45:00 AM 2.93 37.274 0.345 7.3 5.2 12.99
1/18/2021 11:00:00 AM 2.95 37.31 0.345 7.31 5.34 13.04
1/18/2021 11:15:00 AM 2.98 37.364 0.345 7.32 5.01 13.09
1/18/2021 11:30:00 AM 3.08 37.544 0.345 7.33 5.02 13.14
1/18/2021 11:45:00 AM 3.12 37.616 0.345 7.34 4.86 13.18
1/18/2021 12:00:00 PM 3.11 37.598 0.345 7.32 5.46 13.23
1/18/2021 12:15:00 PM 3.16 37.688 0.345 7.36 4.7 13.29
1/18/2021 12:30:00 PM 3.21 37.778 0.345 7.37 5.09 13.34
1/18/2021 12:45:00 PM 3.29 37.922 0.345 7.38 4.82 13.4
1/18/2021 1:00:00 PM 3.36 38.048 0.345 7.4 4.98 13.45
1/18/2021 1:15:00 PM 3.38 38.084 0.345 7.41 5.05 13.48
1/18/2021 1:30:00 PM 3.39 38.102 0.345 7.41 4.94 13.51
1/18/2021 1:45:00 PM 3.41 38.138 0.345 7.44 4.5 13.54
1/18/2021 2:00:00 PM 3.44 38.192 0.345 7.43 5.17 13.57
1/18/2021 2:15:00 PM 3.47 38.246 0.345 7.46 4.67 13.59
1/18/2021 2:30:00 PM 3.48 38.264 0.345 7.45 4.5 13.59
1/18/2021 2:45:00 PM 3.49 38.282 0.345 7.47 4.71 13.59
1/18/2021 3:00:00 PM 3.5 38.3 0.345 7.48 4.72 13.6
1/18/2021 3:15:00 PM 3.51 38.318 0.345 7.46 4.58 13.6
1/18/2021 3:30:00 PM 3.52 38.336 0.345 7.49 4.75 13.61
1/18/2021 3:45:00 PM 3.53 38.354 0.346 7.49 4.62 13.59
1/18/2021 4:00:00 PM 3.53 38.354 0.346 7.49 4.6 13.58
1/18/2021 4:15:00 PM 3.52 38.336 0.346 7.49 4.65 13.55
1/18/2021 4:30:00 PM 3.51 38.318 0.346 7.49 4.78 13.5
1/18/2021 4:45:00 PM 3.5 38.3 0.347 7.49 4.53 13.47
1/18/2021 5:00:00 PM 3.5 38.3 0.347 7.48 4.64 13.42
1/18/2021 5:15:00 PM 3.49 38.282 0.347 7.47 4.58 13.37
1/18/2021 5:30:00 PM 3.48 38.264 0.348 7.47 5.18 13.32
1/18/2021 5:45:00 PM 3.48 38.264 0.348 7.46 4.75 13.27
1/18/2021 6:00:00 PM 3.47 38.246 0.348 7.45 5.53 13.2
1/18/2021 6:15:00 PM 3.44 38.192 0.349 7.43 4.82 13.15
1/18/2021 6:30:00 PM 3.38 38.084 0.349 7.43 6.01 13.11
1/18/2021 6:45:00 PM 3.29 37.922 0.349 7.42 4.51 13.05
1/18/2021 7:00:00 PM 3.29 37.922 0.35 7.4 4.53 12.99
1/18/2021 7:15:00 PM 3.29 37.922 0.35 7.4 4.39 12.96
1/18/2021 7:30:00 PM 3.29 37.922 0.35 7.39 4.36 12.92
1/18/2021 7:45:00 PM 3.28 37.904 0.351 7.37 4.68 12.87
1/18/2021 8:00:00 PM 3.27 37.886 0.352 7.37 4.26 12.83
1/18/2021 8:15:00 PM 3.27 37.886 0.353 7.36 4.36 12.79
1/18/2021 8:30:00 PM 3.25 37.85 0.353 7.36 4.5 12.75
1/18/2021 8:45:00 PM 3.24 37.832 0.354 7.35 4.39 12.72
1/18/2021 9:00:00 PM 3.21 37.778 0.354 7.33 4.82 12.68
1/18/2021 9:15:00 PM 3.19 37.742 0.354 7.33 4.16 12.64
1/18/2021 9:30:00 PM 3.18 37.724 0.353 7.33 4.84 12.61
1/18/2021 9:45:00 PM 3.18 37.724 0.353 7.32 4.63 12.6
1/18/2021 10:00:00 PM 3.17 37.706 0.352 7.3 5.27 12.57
1/18/2021 10:15:00 PM 3.16 37.688 0.352 7.31 4.52 12.56
1/18/2021 10:30:00 PM 3.15 37.67 0.352 7.3 4.4 12.55
1/18/2021 10:45:00 PM 3.14 37.652 0.352 7.3 4.25 12.54
1/18/2021 11:00:00 PM 3.13 37.634 0.353 7.28 4.41 12.53
1/18/2021 11:15:00 PM 3.12 37.616 0.354 7.29 4.42 12.53
1/18/2021 11:30:00 PM 3.11 37.598 0.356 7.29 4.4 12.52
1/18/2021 11:45:00 PM 3.11 37.598 0.359 7.3 4.52 12.51
1/19/2021 12:00:00 AM 3.11 37.598 0.364 7.28 4.61 12.51
1/19/2021 12:15:00 AM 3.11 37.598 0.37 7.29 4.36 12.5
1/19/2021 12:30:00 AM 3.1 37.58 0.378 7.28 4.55 12.49
1/19/2021 12:45:00 AM 3.08 37.544 0.386 7.29 4.75 12.49
1/19/2021 1:00:00 AM 3.08 37.544 0.395 7.28 4.52 12.48
1/19/2021 1:15:00 AM 3.08 37.544 0.404 7.27 4.5 12.48
1/19/2021 1:30:00 AM 3.07 37.526 0.41 7.28 4.21 12.47
1/19/2021 1:45:00 AM 3.07 37.526 0.415 7.28 4.38 12.46
1/19/2021 2:00:00 AM 3.06 37.508 0.419 7.27 4.54 12.46
1/19/2021 2:15:00 AM 3.07 37.526 0.42 7.27 4.43 12.46
1/19/2021 2:30:00 AM 3.07 37.526 0.42 7.28 4.43 12.46
1/19/2021 2:45:00 AM 3.07 37.526 0.418 7.28 4.48 12.46
1/19/2021 3:00:00 AM 3.06 37.508 0.415 7.27 4.44 12.47
1/19/2021 3:15:00 AM 3.05 37.49 0.411 7.27 4.4 12.46
1/19/2021 3:30:00 AM 3.04 37.472 0.407 7.28 4.62 12.47
1/19/2021 3:45:00 AM 3.03 37.454 0.404 7.26 4.62 12.47
1/19/2021 4:00:00 AM 3.02 37.436 0.4 7.27 4.91 12.47
1/19/2021 4:15:00 AM 3.01 37.418 0.396 7.27 4.91 12.48
1/19/2021 4:30:00 AM 2.99 37.382 0.393 7.27 5.24 12.48
1/19/2021 4:45:00 AM 2.97 37.346 0.39 7.26 4.8 12.49
1/19/2021 5:00:00 AM 2.96 37.328 0.388 7.27 4.61 12.49
1/19/2021 5:15:00 AM 2.94 37.292 0.385 7.26 4.36 12.49
1/19/2021 5:30:00 AM 2.93 37.274 0.383 7.26 4.65 12.51
1/19/2021 5:45:00 AM 2.92 37.256 0.382 7.25 4.48 12.5
1/19/2021 6:00:00 AM 2.91 37.238 0.38 7.26 4.37 12.51
1/19/2021 6:15:00 AM 2.89 37.202 0.378 7.26 4.35 12.51
1/19/2021 6:30:00 AM 2.87 37.166 0.377 7.26 4.43 12.52
1/19/2021 6:45:00 AM 2.86 37.148 0.376 7.26 4.78 12.52
1/19/2021 7:00:00 AM 2.84 37.112 0.375 7.26 5.09 12.53
1/19/2021 7:15:00 AM 2.82 37.076 0.374 7.26 4.82 12.53
1/19/2021 7:30:00 AM 2.8 37.04 0.374 7.25 4.78 12.54
1/19/2021 7:45:00 AM 2.78 37.004 0.374 7.26 4.97 12.55
1/19/2021 8:00:00 AM 2.76 36.968 0.374 7.26 5.44 12.57
1/19/2021 8:15:00 AM 2.74 36.932 0.374 7.25 5.17 12.6
1/19/2021 8:30:00 AM 2.73 36.914 0.374 7.27 8.39 12.63
1/19/2021 8:45:00 AM 2.73 36.914 0.374 7.27 5.41 12.68
1/19/2021 9:00:00 AM 2.72 36.896 0.374 7.27 5.21 12.72
1/19/2021 9:15:00 AM 2.71 36.878 0.374 7.28 5.34 12.77
1/19/2021 9:30:00 AM 2.71 36.878 0.373 7.28 5.86 12.82
1/19/2021 9:45:00 AM 2.72 36.896 0.373 7.3 5.61 12.89
1/19/2021 10:00:00 AM 2.73 36.914 0.374 7.29 5.42 12.95
1/19/2021 10:15:00 AM 2.75 36.95 0.374 7.32 5.58 13.02
1/19/2021 10:30:00 AM 2.78 37.004 0.375 7.33 5.86 13.09
1/19/2021 10:45:00 AM 2.81 37.058 0.376 7.34 4.88 13.17
1/19/2021 11:00:00 AM 2.84 37.112 0.378 7.35 5.04 13.23
1/19/2021 11:15:00 AM 2.88 37.184 0.379 7.36 4.71 13.3
1/19/2021 11:30:00 AM 2.92 37.256 0.381 7.38 5.06 13.36
1/19/2021 11:45:00 AM 2.96 37.328 0.382 7.38 4.89 13.42
1/19/2021 12:00:00 PM 3.02 37.436 0.384 7.4 5.05 13.47
1/19/2021 12:15:00 PM 3.14 37.652 0.386 7.41 4.65 13.54
1/19/2021 12:30:00 PM 3.18 37.724 0.387 7.41 4.3 13.59
1/19/2021 12:45:00 PM 3.18 37.724 0.388 7.44 4.42 13.62
1/19/2021 1:00:00 PM 3.22 37.796 0.389 7.45 4.13 13.68
1/19/2021 1:15:00 PM 3.28 37.904 0.389 7.46 4.38 13.74
1/19/2021 1:30:00 PM 3.31 37.958 0.389 7.48 4.37 13.79
1/19/2021 1:45:00 PM 3.36 38.048 0.389 7.48 4.33 13.82
1/19/2021 2:00:00 PM 3.36 38.048 0.389 7.51 4.45 13.85
1/19/2021 2:15:00 PM 3.39 38.102 0.388 7.52 4.4 13.88
1/19/2021 2:30:00 PM 3.41 38.138 0.387 7.52 4.03 13.9
1/19/2021 2:45:00 PM 3.46 38.228 0.386 7.54 3.96 13.93
1/19/2021 3:00:00 PM 3.48 38.264 0.386 7.52 4.03 13.93
1/19/2021 3:15:00 PM 3.49 38.282 0.385 7.56 3.75 13.93
1/19/2021 3:30:00 PM 3.49 38.282 0.384 7.56 3.8 13.92
1/19/2021 3:45:00 PM 3.5 38.3 0.383 7.56 3.76 13.9
1/19/2021 4:00:00 PM 3.51 38.318 0.382 7.57 3.81 13.9
1/19/2021 4:15:00 PM 3.51 38.318 0.381 7.57 3.84 13.86
1/19/2021 4:30:00 PM 3.49 38.282 0.381 7.56 3.68 13.81
1/19/2021 4:45:00 PM 3.46 38.228 0.38 7.56 3.9 13.76
1/19/2021 5:00:00 PM 3.44 38.192 0.379 7.55 4.06 13.71
1/19/2021 5:15:00 PM 3.41 38.138 0.379 7.55 4.17 13.65
1/19/2021 5:30:00 PM 3.38 38.084 0.379 7.53 4.02 13.57
1/19/2021 5:45:00 PM 3.34 38.012 0.378 7.53 3.93 13.52
1/19/2021 6:00:00 PM 3.31 37.958 0.378 7.52 4.21 13.48
1/19/2021 6:15:00 PM 3.28 37.904 0.377 7.5 3.85 13.41
1/19/2021 6:30:00 PM 3.24 37.832 0.377 7.49 4.09 13.35
1/19/2021 6:45:00 PM 3.2 37.76 0.377 7.48 4.35 13.28
1/19/2021 7:00:00 PM 3.17 37.706 0.377 7.47 4.24 13.24
1/19/2021 7:15:00 PM 3.14 37.652 0.376 7.45 3.86 13.2
1/19/2021 7:30:00 PM 3.12 37.616 0.376 7.45 3.73 13.15
1/19/2021 7:45:00 PM 3.1 37.58 0.376 7.44 3.75 13.1
1/19/2021 8:00:00 PM 3.07 37.526 0.376 7.43 3.74 13.06
1/19/2021 8:15:00 PM 3.05 37.49 0.376 7.42 3.77 13.02
1/19/2021 8:30:00 PM 3.03 37.454 0.376 7.41 3.83 12.97
1/19/2021 8:45:00 PM 3.01 37.418 0.376 7.4 3.77 12.94
1/19/2021 9:00:00 PM 2.98 37.364 0.377 7.39 3.44 12.9
1/19/2021 9:15:00 PM 2.96 37.328 0.378 7.39 3.77 12.87
1/19/2021 9:30:00 PM 2.94 37.292 0.379 7.37 3.36 12.83
1/19/2021 9:45:00 PM 2.93 37.274 0.381 7.37 3.48 12.79
1/19/2021 10:00:00 PM 2.92 37.256 0.383 7.36 3.53 12.76
1/19/2021 10:15:00 PM 2.9 37.22 0.383 7.36 3.6 12.74
1/19/2021 10:30:00 PM 2.89 37.202 0.383 7.34 3.8 12.71
1/19/2021 10:45:00 PM 2.87 37.166 0.382 7.34 3.63 12.7
1/19/2021 11:00:00 PM 2.86 37.148 0.38 7.31 3.73 12.67
1/19/2021 11:15:00 PM 2.85 37.13 0.378 7.32 3.65 12.67
1/19/2021 11:30:00 PM 2.84 37.112 0.377 7.33 3.52 12.66
1/19/2021 11:45:00 PM 2.82 37.076 0.376 7.32 3.72 12.65
1/20/2021 12:00:00 AM 2.82 37.076 0.375 7.31 3.66 12.63
1/20/2021 12:15:00 AM 2.8 37.04 0.375 7.31 3.57 12.63
1/20/2021 12:30:00 AM 2.79 37.022 0.374 7.31 3.68 12.62
1/20/2021 12:45:00 AM 2.78 37.004 0.374 7.31 4.09 12.62
1/20/2021 1:00:00 AM 2.77 36.986 0.374 7.31 3.41 12.61
1/20/2021 1:15:00 AM 2.76 36.968 0.375 7.3 3.6 12.6
1/20/2021 1:30:00 AM 2.76 36.968 0.375 7.3 3.62 12.6
1/20/2021 1:45:00 AM 2.75 36.95 0.376 7.31 3.57 12.59
1/20/2021 2:00:00 AM 2.74 36.932 0.377 7.3 3.6 12.59
1/20/2021 2:15:00 AM 2.72 36.896 0.379 7.3 3.53 12.58
1/20/2021 2:30:00 AM 2.72 36.896 0.38 7.3 3.53 12.58
1/20/2021 2:45:00 AM 2.71 36.878 0.382 7.3 3.83 12.57
1/20/2021 3:00:00 AM 2.7 36.86 0.384 7.29 3.61 12.56
1/20/2021 3:15:00 AM 2.7 36.86 0.386 7.3 3.51 12.56
1/20/2021 3:30:00 AM 2.69 36.842 0.388 7.3 3.7 12.56
1/20/2021 3:45:00 AM 2.69 36.842 0.389 7.3 3.77 12.55
1/20/2021 4:00:00 AM 2.68 36.824 0.391 7.3 3.97 12.56
1/20/2021 4:15:00 AM 2.68 36.824 0.392 7.3 3.86 12.55
1/20/2021 4:30:00 AM 2.67 36.806 0.393 7.29 3.98 12.54
1/20/2021 4:45:00 AM 2.66 36.788 0.393 7.29 4.22 12.54
1/20/2021 5:00:00 AM 2.65 36.77 0.393 7.29 4.25 12.54
1/20/2021 5:15:00 AM 2.62 36.716 0.393 7.28 3.96 12.54
1/20/2021 5:30:00 AM 2.55 36.59 0.393 7.3 3.81 12.53
1/20/2021 5:45:00 AM 2.54 36.572 0.393 7.29 3.81 12.53
1/20/2021 6:00:00 AM 2.52 36.536 0.392 7.3 3.77 12.53
1/20/2021 6:15:00 AM 2.5 36.5 0.392 7.3 3.96 12.54
1/20/2021 6:30:00 AM 2.48 36.464 0.392 7.29 3.7 12.54
1/20/2021 6:45:00 AM 2.46 36.428 0.391 7.3 3.92 12.54
1/20/2021 7:00:00 AM 2.43 36.374 0.39 7.3 4.42 12.56
1/20/2021 7:15:00 AM 2.41 36.338 0.39 7.29 4.08 12.56
1/20/2021 7:30:00 AM 2.39 36.302 0.389 7.3 4.63 12.57
1/20/2021 7:45:00 AM 2.38 36.284 0.389 7.3 4.38 12.59
1/20/2021 8:00:00 AM 2.38 36.284 0.389 7.29 4.25 12.59
1/20/2021 8:15:00 AM 2.36 36.248 0.388 7.29 5.39 12.6
1/20/2021 8:30:00 AM 2.28 36.104 0.387 7.3 3.86 12.62
1/20/2021 8:45:00 AM 2.27 36.086 0.387 7.3 3.84 12.67
1/20/2021 9:00:00 AM 2.24 36.032 0.387 7.31 3.7 12.73
1/20/2021 9:15:00 AM 2.21 35.978 0.386 7.31 3.79 12.78
1/20/2021 9:30:00 AM 2.19 35.942 0.386 7.32 3.93 12.83
1/20/2021 9:45:00 AM 2.21 35.978 0.386 7.33 3.95 12.91
1/20/2021 10:00:00 AM 2.21 35.978 0.385 7.33 3.97 12.96
1/20/2021 10:15:00 AM 2.22 35.996 0.385 7.34 3.76 13.04
1/20/2021 10:30:00 AM 2.26 36.068 0.384 7.35 3.6 13.12
1/20/2021 10:45:00 AM 2.26 36.068 0.384 7.36 3.73 13.19
1/20/2021 11:00:00 AM 2.25 36.05 0.384 7.37 3.72 13.27
1/20/2021 11:15:00 AM 2.3 36.14 0.384 7.38 3.81 13.35
1/20/2021 11:30:00 AM 2.33 36.194 0.384 7.4 3.85 13.42
1/20/2021 11:45:00 AM 2.35 36.23 0.384 7.41 3.69 13.49
1/20/2021 12:00:00 PM 2.45 36.41 0.383 7.41 3.86 13.56
1/20/2021 12:15:00 PM 2.44 36.392 0.383 7.43 3.94 13.63
1/20/2021 12:30:00 PM 2.5 36.5 0.383 7.45 4.35 13.69
1/20/2021 12:45:00 PM 2.54 36.572 0.383 7.46 3.74 13.76
1/20/2021 1:00:00 PM 2.62 36.716 0.383 7.48 4.09 13.82
1/20/2021 1:15:00 PM 2.67 36.806 0.382 7.49 4.05 13.9
1/20/2021 1:30:00 PM 2.7 36.86 0.382 7.5 4.1 13.94
1/20/2021 1:45:00 PM 2.69 36.842 0.382 7.51 3.7 14
1/20/2021 2:00:00 PM 2.78 37.004 0.382 7.54 3.68 14.06
1/20/2021 2:15:00 PM 2.79 37.022 0.382 7.55 3.78 14.09
1/20/2021 2:30:00 PM 2.78 37.004 0.382 7.55 3.37 14.12
1/20/2021 2:45:00 PM 2.75 36.95 0.382 7.57 3.54 14.15
1/20/2021 3:00:00 PM 2.76 36.968 0.381 7.58 5.04 14.17
1/20/2021 3:15:00 PM 2.77 36.986 0.381 7.59 3.51 14.2
1/20/2021 3:30:00 PM 2.77 36.986 0.381 7.59 3.43 14.2
1/20/2021 3:45:00 PM 2.75 36.95 0.381 7.57 3.36 14.2
1/20/2021 4:00:00 PM 2.74 36.932 0.381 7.6 3.38 14.2
1/20/2021 4:15:00 PM 2.72 36.896 0.381 7.6 3.44 14.18
1/20/2021 4:30:00 PM 2.68 36.824 0.382 7.59 3.32 14.15
1/20/2021 4:45:00 PM 2.64 36.752 0.382 7.57 3.28 14.1
1/20/2021 5:00:00 PM 2.59 36.662 0.382 7.59 3.2 14.06
1/20/2021 5:15:00 PM 2.56 36.608 0.382 7.58 3.1 14.01
1/20/2021 5:30:00 PM 2.52 36.536 0.382 7.58 3.18 13.96
1/20/2021 5:45:00 PM 2.49 36.482 0.382 7.56 3.29 13.92
1/20/2021 6:00:00 PM 2.45 36.41 0.383 7.55 3.26 13.87
1/20/2021 6:15:00 PM 2.41 36.338 0.383 7.54 3.42 13.81
1/20/2021 6:30:00 PM 2.37 36.266 0.383 7.52 3.41 13.76
1/20/2021 6:45:00 PM 2.35 36.23 0.383 7.52 3.65 13.7
1/20/2021 7:00:00 PM 2.33 36.194 0.384 7.49 3.41 13.64
1/20/2021 7:15:00 PM 2.3 36.14 0.384 7.49 3.34 13.58
1/20/2021 7:30:00 PM 2.29 36.122 0.385 7.49 3.01 13.54
1/20/2021 7:45:00 PM 2.26 36.068 0.385 7.47 3.11 13.48
1/20/2021 8:00:00 PM 2.24 36.032 0.385 7.46 3.13 13.44
1/20/2021 8:15:00 PM 2.22 35.996 0.386 7.44 2.98 13.39
1/20/2021 8:30:00 PM 2.2 35.96 0.386 7.45 2.96 13.35
1/20/2021 8:45:00 PM 2.19 35.942 0.386 7.42 2.95 13.31
1/20/2021 9:00:00 PM 2.17 35.906 0.387 7.43 2.88 13.26
1/20/2021 9:15:00 PM 2.15 35.87 0.387 7.41 2.95 13.22
1/20/2021 9:30:00 PM 2.13 35.834 0.388 7.4 3.08 13.18
1/20/2021 9:45:00 PM 2.1 35.78 0.388 7.39 3.01 13.14
1/20/2021 10:00:00 PM 2.07 35.726 0.389 7.39 2.99 13.1
1/20/2021 10:15:00 PM 2.04 35.672 0.39 7.38 2.96 13.07
1/20/2021 10:30:00 PM 2.01 35.618 0.39 7.35 2.9 13.05
1/20/2021 10:45:00 PM 1.97 35.546 0.391 7.36 3.06 13.02
1/20/2021 11:00:00 PM 1.95 35.51 0.391 7.36 3.03 12.99
1/20/2021 11:15:00 PM 1.92 35.456 0.392 7.35 2.99 12.97
1/20/2021 11:30:00 PM 1.88 35.384 0.392 7.34 3.08 12.97
1/20/2021 11:45:00 PM 1.85 35.33 0.393 7.34 2.81 12.96
1/21/2021 12:00:00 AM 1.81 35.258 0.394 7.33 3.02 12.96
1/21/2021 12:15:00 AM 1.78 35.204 0.395 7.33 2.94 12.95
1/21/2021 12:30:00 AM 1.74 35.132 0.396 7.33 2.96 12.96
1/21/2021 12:45:00 AM 1.71 35.078 0.397 7.32 3.02 12.95
1/21/2021 1:00:00 AM 1.68 35.024 0.399 7.32 2.99 12.95
1/21/2021 1:15:00 AM 1.65 34.97 0.401 7.31 2.92 12.95
1/21/2021 1:30:00 AM 1.61 34.898 0.403 7.32 3.2 12.95
1/21/2021 1:45:00 AM 1.57 34.826 0.406 7.31 3.2 12.95
1/21/2021 2:00:00 AM 1.53 34.754 0.409 7.32 3.04 12.94
1/21/2021 2:15:00 AM 1.49 34.682 0.412 7.31 3.1 12.95
1/21/2021 2:30:00 AM 1.46 34.628 0.416 7.31 3.15 12.95
1/21/2021 2:45:00 AM 1.42 34.556 0.42 7.29 3.09 12.94
1/21/2021 3:00:00 AM 1.38 34.484 0.424 7.3 3.11 12.94
1/21/2021 3:15:00 AM 1.35 34.43 0.429 7.3 3.13 12.94
1/21/2021 3:30:00 AM 1.32 34.376 0.433 7.3 3.29 12.95
1/21/2021 3:45:00 AM 1.29 34.322 0.438 7.31 3.17 12.94
1/21/2021 4:00:00 AM 1.28 34.304 0.442 7.29 3.45 12.94
1/21/2021 4:15:00 AM 1.26 34.268 0.447 7.3 3.36 12.94
1/21/2021 4:30:00 AM 1.24 34.232 0.451 7.3 3.05 12.94
1/21/2021 4:45:00 AM 1.22 34.196 0.455 7.31 3.17 12.95
1/21/2021 5:00:00 AM 1.21 34.178 0.458 7.3 3.22 12.95
1/21/2021 5:15:00 AM 1.2 34.16 0.461 7.3 3.25 12.95
1/21/2021 5:30:00 AM 1.19 34.142 0.463 7.29 3.24 12.96
1/21/2021 5:45:00 AM 1.17 34.106 0.465 7.3 3.45 12.96
1/21/2021 6:00:00 AM 1.16 34.088 0.466 7.3 3.36 12.95
1/21/2021 6:15:00 AM 1.16 34.088 0.467 7.3 3.26 12.96
1/21/2021 6:30:00 AM 1.15 34.07 0.467 7.3 3.09 12.97
1/21/2021 6:45:00 AM 1.14 34.052 0.467 7.3 3.25 12.96
1/21/2021 7:00:00 AM 1.14 34.052 0.466 7.3 3.53 12.96
1/21/2021 7:15:00 AM 1.13 34.034 0.465 7.3 3.38 12.96
1/21/2021 7:30:00 AM 1.11 33.998 0.464 7.29 3.26 12.97
1/21/2021 7:45:00 AM 1.11 33.998 0.463 7.29 3.46 12.97
1/21/2021 8:00:00 AM 1.1 33.98 0.462 7.29 3.46 12.99
1/21/2021 8:15:00 AM 1.11 33.998 0.46 7.3 3.17 13
1/21/2021 8:30:00 AM 1.11 33.998 0.459 7.31 3.3 13.03
1/21/2021 8:45:00 AM 1.13 34.034 0.457 7.31 3.24 13.07
1/21/2021 9:00:00 AM 1.14 34.052 0.456 7.29 3.35 13.11
1/21/2021 9:15:00 AM 1.16 34.088 0.454 7.28 3.12 13.16
1/21/2021 9:30:00 AM 1.19 34.142 0.452 7.3 3.23 13.21
1/21/2021 9:45:00 AM 1.22 34.196 0.45 7.3 3.21 13.27
1/21/2021 10:00:00 AM 1.26 34.268 0.448 7.31 3.07 13.33
1/21/2021 10:15:00 AM 1.3 34.34 0.447 7.33 3.24 13.39
1/21/2021 10:30:00 AM 1.33 34.394 0.445 7.33 3.18 13.44
1/21/2021 10:45:00 AM 1.36 34.448 0.443 7.34 3.38 13.51
1/21/2021 11:00:00 AM 1.42 34.556 0.441 7.34 3.41 13.58
1/21/2021 11:15:00 AM 1.48 34.664 0.439 7.37 3.49 13.64
1/21/2021 11:30:00 AM 1.55 34.79 0.438 7.38 3.16 13.72
1/21/2021 11:45:00 AM 1.6 34.88 0.436 7.4 3.5 13.77
1/21/2021 12:00:00 PM 1.67 35.006 0.434 7.41 3.23 13.84
1/21/2021 12:15:00 PM 1.76 35.168 0.433 7.42 3.16 13.89
1/21/2021 12:30:00 PM 1.86 35.348 0.432 7.42 3.19 13.95
1/21/2021 12:45:00 PM 1.94 35.492 0.43 7.45 3.3 14
1/21/2021 1:00:00 PM 2.05 35.69 0.429 7.46 3.04 14.04
1/21/2021 1:15:00 PM 2.15 35.87 0.428 7.48 3.16 14.09
1/21/2021 1:30:00 PM 2.18 35.924 0.427 7.49 3.05 14.14
1/21/2021 1:45:00 PM 2.27 36.086 0.426 7.49 2.95 14.18
1/21/2021 2:00:00 PM 2.38 36.284 0.426 7.52 3.12 14.23
1/21/2021 2:15:00 PM 2.45 36.41 0.425 7.53 3.39 14.25
1/21/2021 2:30:00 PM 2.48 36.464 0.425 7.55 3.23 14.28
1/21/2021 2:45:00 PM 2.52 36.536 0.424 7.55 3.3 14.32
1/21/2021 3:00:00 PM 2.57 36.626 0.424 7.58 3.17 14.34
1/21/2021 3:15:00 PM 2.6 36.68 0.424 7.59 2.82 14.37
1/21/2021 3:30:00 PM 2.66 36.788 0.424 7.6 2.92 14.39
1/21/2021 3:45:00 PM 2.71 36.878 0.424 7.61 3.19 14.4
1/21/2021 4:00:00 PM 2.76 36.968 0.424 7.63 3.31 14.39
1/21/2021 4:15:00 PM 2.8 37.04 0.424 7.65 3.06 14.37
1/21/2021 4:30:00 PM 2.83 37.094 0.424 7.65 3.04 14.32
1/21/2021 4:45:00 PM 2.86 37.148 0.424 7.66 3.37 14.28
1/21/2021 5:00:00 PM 2.87 37.166 0.424 7.66 3.25 14.21
1/21/2021 5:15:00 PM 2.88 37.184 0.425 7.66 3.24 14.13
1/21/2021 5:30:00 PM 2.89 37.202 0.426 7.66 3.2 14.06
1/21/2021 5:45:00 PM 2.9 37.22 0.427 7.65 3.25 13.98
1/21/2021 6:00:00 PM 2.91 37.238 0.428 7.63 3.05 13.89
1/21/2021 6:15:00 PM 2.91 37.238 0.428 7.64 2.99 13.8
1/21/2021 6:30:00 PM 2.91 37.238 0.429 7.63 3.25 13.7
1/21/2021 6:45:00 PM 2.91 37.238 0.43 7.62 3.35 13.61
1/21/2021 7:00:00 PM 2.91 37.238 0.43 7.6 3.06 13.52
1/21/2021 7:15:00 PM 2.91 37.238 0.43 7.59 3.19 13.43
1/21/2021 7:30:00 PM 2.91 37.238 0.43 7.58 3.02 13.34
1/21/2021 7:45:00 PM 2.91 37.238 0.429 7.57 3.13 13.27
1/21/2021 8:00:00 PM 2.91 37.238 0.429 7.56 3.04 13.19
1/21/2021 8:15:00 PM 2.91 37.238 0.428 7.55 2.87 13.12
1/21/2021 8:30:00 PM 2.92 37.256 0.427 7.54 2.87 13.06
1/21/2021 8:45:00 PM 2.92 37.256 0.425 7.52 3.11 12.99
1/21/2021 9:00:00 PM 2.93 37.274 0.424 7.51 3.15 12.92
1/21/2021 9:15:00 PM 2.94 37.292 0.422 7.49 3.38 12.85
1/21/2021 9:30:00 PM 2.94 37.292 0.42 7.48 3.27 12.8
1/21/2021 9:45:00 PM 2.94 37.292 0.418 7.47 3.25 12.75
1/21/2021 10:00:00 PM 2.93 37.274 0.416 7.46 3.32 12.69
1/21/2021 10:15:00 PM 2.9 37.22 0.413 7.44 3.35 12.65
1/21/2021 10:30:00 PM 2.89 37.202 0.411 7.43 3.54 12.61
1/21/2021 10:45:00 PM 2.88 37.184 0.408 7.41 3.29 12.59
1/21/2021 11:00:00 PM 2.85 37.13 0.405 7.4 2.83 12.56
1/21/2021 11:15:00 PM 2.83 37.094 0.403 7.39 2.85 12.55
1/21/2021 11:30:00 PM 2.8 37.04 0.401 7.38 3.03 12.54
1/21/2021 11:45:00 PM 2.78 37.004 0.399 7.37 3.25 12.54
1/22/2021 12:00:00 AM 2.74 36.932 0.397 7.36 3.06 12.52
1/22/2021 12:15:00 AM 2.71 36.878 0.396 7.36 3.24 12.52
1/22/2021 12:30:00 AM 2.69 36.842 0.395 7.35 3.11 12.51
1/22/2021 12:45:00 AM 2.67 36.806 0.394 7.34 3.09 12.5
1/22/2021 1:00:00 AM 2.67 36.806 0.394 7.34 3.1 12.49
1/22/2021 1:15:00 AM 2.65 36.77 0.393 7.33 3.18 12.48
1/22/2021 1:30:00 AM 2.63 36.734 0.393 7.32 3.44 12.47
1/22/2021 1:45:00 AM 2.63 36.734 0.393 7.32 3.28 12.46
1/22/2021 2:00:00 AM 2.6 36.68 0.392 7.32 3.32 12.44
1/22/2021 2:15:00 AM 2.55 36.59 0.392 7.31 3.58 12.43
1/22/2021 2:30:00 AM 2.53 36.554 0.392 7.31 3.29 12.43
1/22/2021 2:45:00 AM 2.54 36.572 0.392 7.3 3.4 12.42
1/22/2021 3:00:00 AM 2.56 36.608 0.392 7.3 3.59 12.41
1/22/2021 3:15:00 AM 2.55 36.59 0.391 7.31 3.54 12.41
1/22/2021 3:30:00 AM 2.56 36.608 0.392 7.31 3.41 12.4
1/22/2021 3:45:00 AM 2.56 36.608 0.392 7.3 3.46 12.39
1/22/2021 4:00:00 AM 2.57 36.626 0.392 7.31 3.42 12.39
1/22/2021 4:15:00 AM 2.57 36.626 0.392 7.31 3.5 12.39
1/22/2021 4:30:00 AM 2.58 36.644 0.393 7.3 3.34 12.38
1/22/2021 4:45:00 AM 2.58 36.644 0.394 7.31 3.3 12.37
1/22/2021 5:00:00 AM 2.59 36.662 0.394 7.31 3.34 12.37
1/22/2021 5:15:00 AM 2.59 36.662 0.395 7.31 3.37 12.37
1/22/2021 5:30:00 AM 2.59 36.662 0.396 7.31 3.3 12.36
1/22/2021 5:45:00 AM 2.58 36.644 0.396 7.31 3.28 12.36
1/22/2021 6:00:00 AM 2.57 36.626 0.397 7.31 3.17 12.36
1/22/2021 6:15:00 AM 2.56 36.608 0.398 7.32 3.28 12.35
1/22/2021 6:30:00 AM 2.54 36.572 0.399 7.32 3.44 12.35
1/22/2021 6:45:00 AM 2.54 36.572 0.4 7.32 3.26 12.35
1/22/2021 7:00:00 AM 2.53 36.554 0.401 7.32 3.19 12.35
1/22/2021 7:15:00 AM 2.52 36.536 0.402 7.31 3.29 12.35
1/22/2021 7:30:00 AM 2.5 36.5 0.403 7.32 3.53 12.36
1/22/2021 7:45:00 AM 2.49 36.482 0.404 7.32 3.43 12.37
1/22/2021 8:00:00 AM 2.5 36.5 0.405 7.32 3.51 12.38
1/22/2021 8:15:00 AM 2.5 36.5 0.406 7.32 3.52 12.41
1/22/2021 8:30:00 AM 2.5 36.5 0.406 7.33 3.44 12.44
1/22/2021 8:45:00 AM 2.5 36.5 0.406 7.33 3.49 12.49
1/22/2021 9:00:00 AM 2.51 36.518 0.407 7.34 3.6 12.52
1/22/2021 9:15:00 AM 2.52 36.536 0.407 7.35 3.25 12.57
1/22/2021 9:30:00 AM 2.53 36.554 0.408 7.36 3.37 12.63
1/22/2021 9:45:00 AM 2.56 36.608 0.408 7.35 3.33 12.72
1/22/2021 10:00:00 AM 2.58 36.644 0.408 7.38 3.49 12.8
1/22/2021 10:15:00 AM 2.61 36.698 0.408 7.39 3.59 12.88
1/22/2021 10:30:00 AM 2.64 36.752 0.408 7.38 3.79 12.96
1/22/2021 10:45:00 AM 2.73 36.914 0.408 7.4 3.75 13.06
1/22/2021 11:00:00 AM 2.77 36.986 0.408 7.42 3.46 13.15
1/22/2021 11:15:00 AM 2.79 37.022 0.408 7.44 3.35 13.24
1/22/2021 11:30:00 AM 2.81 37.058 0.408 7.45 3.45 13.31
1/22/2021 11:45:00 AM 2.79 37.022 0.408 7.46 3.58 13.36
1/22/2021 12:00:00 PM 2.77 36.986 0.408 7.48 3.84 13.43
1/22/2021 12:15:00 PM 2.86 37.148 0.408 7.49 4.13 13.52
1/22/2021 12:30:00 PM 2.91 37.238 0.408 7.5 3.92 13.6
1/22/2021 12:45:00 PM 3.01 37.418 0.407 7.53 3.76 13.68
1/22/2021 1:00:00 PM 3.08 37.544 0.407 7.54 3.79 13.75
1/22/2021 1:15:00 PM 3 37.4 0.406 7.55 4.34 13.74
1/22/2021 1:30:00 PM 3.02 37.436 0.406 7.57 3.83 13.8
1/22/2021 1:45:00 PM 3.1 37.58 0.406 7.59 3.52 13.88
1/22/2021 2:00:00 PM 3.15 37.67 0.406 7.6 3.31 13.92
1/22/2021 2:15:00 PM 3.16 37.688 0.406 7.62 3.48 13.96
1/22/2021 2:30:00 PM 3.18 37.724 0.406 7.62 3.31 14.01
1/22/2021 2:45:00 PM 3.22 37.796 0.406 7.65 3.47 14.06
1/22/2021 3:00:00 PM 3.28 37.904 0.406 7.67 3.49 14.1
1/22/2021 3:15:00 PM 3.27 37.886 0.407 7.68 3.69 14.08
1/22/2021 3:30:00 PM 3.26 37.868 0.407 7.67 3.73 14.06
1/22/2021 3:45:00 PM 3.25 37.85 0.408 7.68 4.03 14.03
1/22/2021 4:00:00 PM 3.23 37.814 0.409 7.69 4.26 14.02
1/22/2021 4:15:00 PM 3.24 37.832 0.409 7.69 4.13 14
1/22/2021 4:30:00 PM 3.24 37.832 0.41 7.69 4.09 13.96
1/22/2021 4:45:00 PM 3.23 37.814 0.411 7.69 3.96 13.91
1/22/2021 5:00:00 PM 3.21 37.778 0.412 7.68 3.61 13.85
1/22/2021 5:15:00 PM 3.19 37.742 0.413 7.66 3.41 13.78
1/22/2021 5:30:00 PM 3.16 37.688 0.415 7.64 3.57 13.72
1/22/2021 5:45:00 PM 3.13 37.634 0.417 7.63 3.05 13.65
1/22/2021 6:00:00 PM 3.1 37.58 0.418 7.6 3.34 13.58
1/22/2021 6:15:00 PM 3.08 37.544 0.419 7.6 3.46 13.52
1/22/2021 6:30:00 PM 3.05 37.49 0.421 7.61 3.15 13.46
1/22/2021 6:45:00 PM 3.02 37.436 0.422 7.59 3.17 13.4
1/22/2021 7:00:00 PM 2.99 37.382 0.424 7.58 3.04 13.34
1/22/2021 7:15:00 PM 2.94 37.292 0.426 7.57 3.18 13.28
1/22/2021 7:30:00 PM 2.91 37.238 0.427 7.56 3.06 13.22
1/22/2021 7:45:00 PM 2.87 37.166 0.429 7.54 3.21 13.16
1/22/2021 8:00:00 PM 2.83 37.094 0.43 7.53 3.05 13.11
1/22/2021 8:15:00 PM 2.79 37.022 0.431 7.52 2.96 13.05
1/22/2021 8:30:00 PM 2.75 36.95 0.432 7.51 3.02 13.01
1/22/2021 8:45:00 PM 2.69 36.842 0.432 7.5 2.94 12.97
1/22/2021 9:00:00 PM 2.64 36.752 0.433 7.49 3.13 12.93
1/22/2021 9:15:00 PM 2.61 36.698 0.434 7.48 3.3 12.89
1/22/2021 9:30:00 PM 2.58 36.644 0.435 7.47 2.99 12.85
1/22/2021 9:45:00 PM 2.54 36.572 0.437 7.46 2.92 12.81
1/22/2021 10:00:00 PM 2.5 36.5 0.439 7.45 2.97 12.78
1/22/2021 10:15:00 PM 2.45 36.41 0.441 7.44 2.89 12.76
1/22/2021 10:30:00 PM 2.39 36.302 0.443 7.44 3.03 12.74
1/22/2021 10:45:00 PM 2.34 36.212 0.444 7.43 2.97 12.73
1/22/2021 11:00:00 PM 2.3 36.14 0.445 7.42 3.46 12.72
1/22/2021 11:15:00 PM 2.28 36.104 0.445 7.4 3.02 12.7
1/22/2021 11:30:00 PM 2.25 36.05 0.443 7.41 2.78 12.68
1/22/2021 11:45:00 PM 2.21 35.978 0.441 7.4 2.78 12.68
1/23/2021 12:00:00 AM 2.18 35.924 0.439 7.4 2.9 12.67
1/23/2021 12:15:00 AM 2.13 35.834 0.436 7.39 2.82 12.66
1/23/2021 12:30:00 AM 2.09 35.762 0.433 7.38 2.58 12.66
1/23/2021 12:45:00 AM 2.04 35.672 0.431 7.39 2.85 12.68
1/23/2021 1:00:00 AM 2.01 35.618 0.43 7.38 2.71 12.66
1/23/2021 1:15:00 AM 1.97 35.546 0.428 7.37 2.8 12.68
1/23/2021 1:30:00 AM 1.93 35.474 0.428 7.37 2.76 12.67
1/23/2021 1:45:00 AM 1.89 35.402 0.427 7.37 2.68 12.68
1/23/2021 2:00:00 AM 1.85 35.33 0.427 7.37 2.56 12.69
1/23/2021 2:15:00 AM 1.8 35.24 0.427 7.36 2.75 12.71
1/23/2021 2:30:00 AM 1.78 35.204 0.427 7.35 2.71 12.7
1/23/2021 2:45:00 AM 1.74 35.132 0.428 7.37 2.7 12.72
1/23/2021 3:00:00 AM 1.71 35.078 0.429 7.36 2.83 12.73
1/23/2021 3:15:00 AM 1.68 35.024 0.431 7.36 3.09 12.74
1/23/2021 3:30:00 AM 1.65 34.97 0.433 7.36 2.79 12.74
1/23/2021 3:45:00 AM 1.6 34.88 0.436 7.35 3.02 12.75
1/23/2021 4:00:00 AM 1.57 34.826 0.44 7.34 3.05 12.76
1/23/2021 4:15:00 AM 1.53 34.754 0.443 7.35 2.79 12.77
1/23/2021 4:30:00 AM 1.5 34.7 0.448 7.33 2.77 12.78
1/23/2021 4:45:00 AM 1.46 34.628 0.452 7.35 2.64 12.79
1/23/2021 5:00:00 AM 1.41 34.538 0.457 7.34 2.91 12.79
1/23/2021 5:15:00 AM 1.37 34.466 0.461 7.34 2.89 12.81
1/23/2021 5:30:00 AM 1.32 34.376 0.466 7.34 2.91 12.82
1/23/2021 5:45:00 AM 1.28 34.304 0.47 7.34 3.11 12.83
1/23/2021 6:00:00 AM 1.24 34.232 0.475 7.35 2.88 12.84
1/23/2021 6:15:00 AM 1.2 34.16 0.479 7.34 3.01 12.85
1/23/2021 6:30:00 AM 1.14 34.052 0.483 7.34 3.25 12.88
1/23/2021 6:45:00 AM 1.1 33.98 0.486 7.34 3.24 12.89
1/23/2021 7:00:00 AM 1.06 33.908 0.489 7.34 3.29 12.9
1/23/2021 7:15:00 AM 1.02 33.836 0.492 7.34 5.89 12.92
1/23/2021 7:30:00 AM 0.97 33.746 0.493 7.34 8.58 12.94
1/23/2021 7:45:00 AM 0.93 33.674 0.494 7.34 5.29 12.96
1/23/2021 8:00:00 AM 0.91 33.638 0.494 7.34 3.73 13
1/23/2021 8:15:00 AM 0.89 33.602 0.493 7.35 3.16 13.05
1/23/2021 8:30:00 AM 0.89 33.602 0.492 7.35 3.24 13.11
1/23/2021 8:45:00 AM 0.88 33.584 0.49 7.36 3.29 13.17
1/23/2021 9:00:00 AM 0.89 33.602 0.488 7.36 3.28 13.24
1/23/2021 9:15:00 AM 0.89 33.602 0.486 7.37 3.13 13.32
1/23/2021 9:30:00 AM 0.89 33.602 0.484 7.37 3.04 13.4
1/23/2021 9:45:00 AM 0.91 33.638 0.481 7.38 2.94 13.48
1/23/2021 10:00:00 AM 0.94 33.692 0.478 7.39 3.07 13.57
1/23/2021 10:15:00 AM 0.97 33.746 0.475 7.4 2.93 13.65
1/23/2021 10:30:00 AM 1.01 33.818 0.472 7.41 2.88 13.73
1/23/2021 10:45:00 AM 1.05 33.89 0.469 7.42 2.93 13.82
1/23/2021 11:00:00 AM 1.16 34.088 0.466 7.44 2.86 13.92
1/23/2021 11:15:00 AM 1.27 34.286 0.463 7.46 3.08 14.01
1/23/2021 11:30:00 AM 1.37 34.466 0.46 7.47 4.32 14.11
1/23/2021 11:45:00 AM 1.44 34.592 0.458 7.49 3.34 14.2
1/23/2021 12:00:00 PM 1.49 34.682 0.455 7.5 3.09 14.3
1/23/2021 12:15:00 PM 1.55 34.79 0.453 7.52 3.01 14.37
1/23/2021 12:30:00 PM 1.53 34.754 0.451 7.54 3 14.44
1/23/2021 12:45:00 PM 1.55 34.79 0.449 7.55 3.06 14.5
1/23/2021 1:00:00 PM 1.56 34.808 0.447 7.56 2.99 14.56
1/23/2021 1:15:00 PM 1.57 34.826 0.445 7.57 3.07 14.62
1/23/2021 1:30:00 PM 1.61 34.898 0.444 7.59 3.36 14.68
1/23/2021 1:45:00 PM 1.68 35.024 0.443 7.6 3.37 14.75
1/23/2021 2:00:00 PM 1.74 35.132 0.442 7.62 3.56 14.8
1/23/2021 2:15:00 PM 1.83 35.294 0.441 7.65 3.51 14.85
1/23/2021 2:30:00 PM 1.86 35.348 0.44 7.66 3.32 14.9
1/23/2021 2:45:00 PM 1.87 35.366 0.44 7.67 3.04 14.93
1/23/2021 3:00:00 PM 1.85 35.33 0.439 7.69 3.25 14.98
1/23/2021 3:15:00 PM 1.85 35.33 0.439 7.7 3.02 15.02
1/23/2021 3:30:00 PM 1.85 35.33 0.439 7.71 2.86 15.05
1/23/2021 3:45:00 PM 1.84 35.312 0.438 7.72 3.08 15.07
1/23/2021 4:00:00 PM 1.81 35.258 0.439 7.73 2.86 15.08
1/23/2021 4:15:00 PM 1.78 35.204 0.439 7.73 2.8 15.06
1/23/2021 4:30:00 PM 1.75 35.15 0.439 7.73 2.85 15.05
1/23/2021 4:45:00 PM 1.72 35.096 0.44 7.73 2.85 15.02
1/23/2021 5:00:00 PM 1.68 35.024 0.44 7.73 2.81 14.97
1/23/2021 5:15:00 PM 1.62 34.916 0.441 7.73 2.78 14.92
1/23/2021 5:30:00 PM 1.57 34.826 0.441 7.72 2.74 14.86
1/23/2021 5:45:00 PM 1.52 34.736 0.442 7.72 2.99 14.81
1/23/2021 6:00:00 PM 1.47 34.646 0.443 7.71 3.03 14.74
1/23/2021 6:15:00 PM 1.43 34.574 0.444 7.71 2.98 14.68
1/23/2021 6:30:00 PM 1.38 34.484 0.445 7.69 2.8 14.6
1/23/2021 6:45:00 PM 1.33 34.394 0.447 7.69 2.86 14.53
1/23/2021 7:00:00 PM 1.29 34.322 0.448 7.69 2.72 14.45
1/23/2021 7:15:00 PM 1.24 34.232 0.449 7.67 2.74 14.38
1/23/2021 7:30:00 PM 1.19 34.142 0.451 7.67 2.81 14.3
1/23/2021 7:45:00 PM 1.15 34.07 0.452 7.65 3.13 14.23
1/23/2021 8:00:00 PM 1.12 34.016 0.453 7.65 2.86 14.17
1/23/2021 8:15:00 PM 1.08 33.944 0.453 7.63 2.92 14.11
1/23/2021 8:30:00 PM 1.04 33.872 0.454 7.62 3.09 14.05
1/23/2021 8:45:00 PM 1 33.8 0.454 7.61 2.98 13.99
1/23/2021 9:00:00 PM 0.96 33.728 0.454 7.6 3.02 13.94
1/23/2021 9:15:00 PM 0.92 33.656 0.454 7.59 3.07 13.9
1/23/2021 9:30:00 PM 0.88 33.584 0.454 7.58 2.86 13.85
1/23/2021 9:45:00 PM 0.85 33.53 0.453 7.56 3.4 13.81
1/23/2021 10:00:00 PM 0.81 33.458 0.453 7.55 2.93 13.76
1/23/2021 10:15:00 PM 0.78 33.404 0.453 7.51 2.75 13.71
1/23/2021 10:30:00 PM 0.75 33.35 0.453 7.52 2.77 13.68
1/23/2021 10:45:00 PM 0.71 33.278 0.453 7.5 2.79 13.64
1/23/2021 11:00:00 PM 0.68 33.224 0.453 7.48 2.8 13.6
1/23/2021 11:15:00 PM 0.65 33.17 0.453 7.49 2.47 13.58
1/23/2021 11:30:00 PM 0.64 33.152 0.454 7.48 2.72 13.54
1/23/2021 11:45:00 PM 0.62 33.116 0.454 7.47 2.58 13.51
1/24/2021 12:00:00 AM 0.61 33.098 0.455 7.46 2.49 13.49
1/24/2021 12:15:00 AM 0.59 33.062 0.455 7.45 2.57 13.47
1/24/2021 12:30:00 AM 0.58 33.044 0.456 7.45 2.87 13.45
1/24/2021 12:45:00 AM 0.58 33.044 0.457 7.44 2.68 13.43
1/24/2021 1:00:00 AM 0.57 33.026 0.458 7.44 2.63 13.41
1/24/2021 1:15:00 AM 0.57 33.026 0.458 7.43 2.64 13.39
1/24/2021 1:30:00 AM 0.57 33.026 0.458 7.43 2.56 13.38
1/24/2021 1:45:00 AM 0.57 33.026 0.457 7.43 2.68 13.37
1/24/2021 2:00:00 AM 0.57 33.026 0.457 7.42 2.34 13.35
1/24/2021 2:15:00 AM 0.56 33.008 0.456 7.41 2.45 13.35
1/24/2021 2:30:00 AM 0.55 32.99 0.455 7.41 2.44 13.34
1/24/2021 2:45:00 AM 0.54 32.972 0.453 7.41 2.51 13.34
1/24/2021 3:00:00 AM 0.52 32.936 0.451 7.39 2.38 13.33
1/24/2021 3:15:00 AM 0.51 32.918 0.449 7.39 2.74 13.33
1/24/2021 3:30:00 AM 0.49 32.882 0.447 7.38 2.62 13.34
1/24/2021 3:45:00 AM 0.46 32.828 0.445 7.38 2.79 13.33
1/24/2021 4:00:00 AM 0.43 32.774 0.443 7.37 2.69 13.34
1/24/2021 4:15:00 AM 0.4 32.72 0.441 7.37 2.51 13.35
1/24/2021 4:30:00 AM 0.38 32.684 0.44 7.35 2.64 13.35
1/24/2021 4:45:00 AM 0.35 32.63 0.438 7.35 2.56 13.35
1/24/2021 5:00:00 AM 0.33 32.594 0.437 7.35 2.51 13.35
1/24/2021 5:15:00 AM 0.29 32.522 0.435 7.34 2.62 13.37
1/24/2021 5:30:00 AM 0.26 32.468 0.435 7.34 2.69 13.37
1/24/2021 5:45:00 AM 0.23 32.414 0.434 7.34 2.57 13.38
1/24/2021 6:00:00 AM 0.21 32.378 0.434 7.32 2.79 13.38
1/24/2021 6:15:00 AM 0.18 32.324 0.434 7.33 2.84 13.39
1/24/2021 6:30:00 AM 0.16 32.288 0.434 7.33 2.53 13.39
1/24/2021 6:45:00 AM 0.14 32.252 0.434 7.32 2.48 13.39
1/24/2021 7:00:00 AM 0.13 32.234 0.435 7.32 2.96 13.38
1/24/2021 7:15:00 AM 0.12 32.216 0.435 7.32 3.45 13.37
1/24/2021 7:30:00 AM 0.11 32.198 0.436 7.32 3.46 13.39
1/24/2021 7:45:00 AM 0.09 32.162 0.436 7.32 3.15 13.4
1/24/2021 8:00:00 AM 0.09 32.162 0.437 7.32 2.84 13.43
1/24/2021 8:15:00 AM 0.08 32.144 0.438 7.31 2.53 13.47
1/24/2021 8:30:00 AM 0.09 32.162 0.438 7.33 2.53 13.52
1/24/2021 8:45:00 AM 0.1 32.18 0.439 7.34 2.81 13.57
1/24/2021 9:00:00 AM 0.12 32.216 0.441 7.34 2.62 13.63
1/24/2021 9:15:00 AM 0.14 32.252 0.441 7.35 2.93 13.67
1/24/2021 9:30:00 AM 0.17 32.306 0.443 7.35 2.8 13.71
1/24/2021 9:45:00 AM 0.2 32.36 0.443 7.36 2.91 13.8
1/24/2021 10:00:00 AM 0.25 32.45 0.444 7.37 2.55 13.87
1/24/2021 10:15:00 AM 0.29 32.522 0.445 7.36 2.92 13.92
1/24/2021 10:30:00 AM 0.35 32.63 0.446 7.38 2.62 14.01
1/24/2021 10:45:00 AM 0.39 32.702 0.447 7.4 2.31 14.07
1/24/2021 11:00:00 AM 0.44 32.792 0.448 7.41 2.79 14.13
1/24/2021 11:15:00 AM 0.52 32.936 0.449 7.42 2.39 14.21
1/24/2021 11:30:00 AM 0.59 33.062 0.45 7.43 2.54 14.29
1/24/2021 11:45:00 AM 0.66 33.188 0.451 7.44 2.58 14.38
1/24/2021 12:00:00 PM 0.76 33.368 0.453 7.46 2.27 14.47
1/24/2021 12:15:00 PM 0.86 33.548 0.453 7.49 2.39 14.56
1/24/2021 12:30:00 PM 0.97 33.746 0.455 7.5 2.3 14.64
1/24/2021 12:45:00 PM 1.03 33.854 0.456 7.5 2.43 14.68
1/24/2021 1:00:00 PM 1.1 33.98 0.457 7.53 2.56 14.77
1/24/2021 1:15:00 PM 1.18 34.124 0.459 7.55 2.56 14.83
1/24/2021 1:30:00 PM 1.25 34.25 0.46 7.57 2.46 14.9
1/24/2021 1:45:00 PM 1.31 34.358 0.462 7.59 2.52 14.95
1/24/2021 2:00:00 PM 1.35 34.43 0.463 7.6 2.72 15.01
1/24/2021 2:15:00 PM 1.39 34.502 0.465 7.62 2.91 15.07
1/24/2021 2:30:00 PM 1.43 34.574 0.467 7.64 2.83 15.11
1/24/2021 2:45:00 PM 1.46 34.628 0.469 7.66 2.81 15.17
1/24/2021 3:00:00 PM 1.49 34.682 0.471 7.68 2.85 15.2
1/24/2021 3:15:00 PM 1.53 34.754 0.472 7.7 2.89 15.23
1/24/2021 3:30:00 PM 1.56 34.808 0.474 7.72 2.84 15.24
1/24/2021 3:45:00 PM 1.6 34.88 0.476 7.74 3.19 15.26
1/24/2021 4:00:00 PM 1.64 34.952 0.478 7.75 3.04 15.26
1/24/2021 4:15:00 PM 1.66 34.988 0.479 7.76 3.05 15.24
1/24/2021 4:30:00 PM 1.69 35.042 0.481 7.77 3.15 15.22
1/24/2021 4:45:00 PM 1.73 35.114 0.482 7.78 3.07 15.19
1/24/2021 5:00:00 PM 1.76 35.168 0.483 7.78 3.02 15.14
1/24/2021 5:15:00 PM 1.77 35.186 0.484 7.79 3.06 15.06
1/24/2021 5:30:00 PM 1.78 35.204 0.485 7.78 3.15 14.99
1/24/2021 5:45:00 PM 1.78 35.204 0.486 7.78 3.18 14.91
1/24/2021 6:00:00 PM 1.79 35.222 0.486 7.78 3.48 14.83
1/24/2021 6:15:00 PM 1.78 35.204 0.486 7.77 2.88 14.73
1/24/2021 6:30:00 PM 1.77 35.186 0.486 7.77 2.79 14.65
1/24/2021 6:45:00 PM 1.75 35.15 0.486 7.77 3.14 14.57
1/24/2021 7:00:00 PM 1.74 35.132 0.486 7.76 3.02 14.48
1/24/2021 7:15:00 PM 1.72 35.096 0.487 7.76 2.66 14.38
1/24/2021 7:30:00 PM 1.71 35.078 0.487 7.74 2.7 14.29
1/24/2021 7:45:00 PM 1.7 35.06 0.487 7.73 2.67 14.2
1/24/2021 8:00:00 PM 1.68 35.024 0.487 7.72 2.72 14.1
1/24/2021 8:15:00 PM 1.65 34.97 0.487 7.71 2.35 14.01
1/24/2021 8:30:00 PM 1.63 34.934 0.488 7.7 2.7 13.93
1/24/2021 8:45:00 PM 1.6 34.88 0.488 7.68 2.52 13.85
1/24/2021 9:00:00 PM 1.58 34.844 0.488 7.66 2.56 13.79
1/24/2021 9:15:00 PM 1.55 34.79 0.487 7.65 2.55 13.72
1/24/2021 9:30:00 PM 1.53 34.754 0.487 7.64 2.45 13.67
1/24/2021 9:45:00 PM 1.5 34.7 0.486 7.62 2.57 13.61
1/24/2021 10:00:00 PM 1.46 34.628 0.485 7.61 2.58 13.56
1/24/2021 10:15:00 PM 1.42 34.556 0.483 7.58 2.54 13.51
1/24/2021 10:30:00 PM 1.38 34.484 0.482 7.58 2.72 13.47
1/24/2021 10:45:00 PM 1.34 34.412 0.479 7.56 2.53 13.43
1/24/2021 11:00:00 PM 1.3 34.34 0.477 7.53 2.43 13.38
1/24/2021 11:15:00 PM 1.26 34.268 0.475 7.52 2.65 13.35
1/24/2021 11:30:00 PM 1.22 34.196 0.474 7.52 2.62 13.32
1/24/2021 11:45:00 PM 1.18 34.124 0.472 7.5 2.72 13.29
1/25/2021 12:00:00 AM 1.14 34.052 0.471 7.48 2.58 13.28
1/25/2021 12:15:00 AM 1.1 33.98 0.469 7.48 2.6 13.25
1/25/2021 12:30:00 AM 1.08 33.944 0.469 7.47 2.6 13.23
1/25/2021 12:45:00 AM 1.04 33.872 0.468 7.47 2.73 13.22
1/25/2021 1:00:00 AM 1.01 33.818 0.468 7.46 2.52 13.19
1/25/2021 1:15:00 AM 0.98 33.764 0.468 7.46 2.46 13.18
1/25/2021 1:30:00 AM 0.96 33.728 0.468 7.45 2.66 13.17
1/25/2021 1:45:00 AM 0.93 33.674 0.468 7.45 2.88 13.16
1/25/2021 2:00:00 AM 0.9 33.62 0.467 7.44 2.67 13.15
1/25/2021 2:15:00 AM 0.88 33.584 0.467 7.43 2.91 13.15
1/25/2021 2:30:00 AM 0.84 33.512 0.466 7.43 2.62 13.14
1/25/2021 2:45:00 AM 0.81 33.458 0.465 7.42 2.7 13.14
1/25/2021 3:00:00 AM 0.77 33.386 0.464 7.42 2.63 13.14
1/25/2021 3:15:00 AM 0.74 33.332 0.463 7.42 2.56 13.15
1/25/2021 3:30:00 AM 0.69 33.242 0.462 7.42 2.46 13.15
1/25/2021 3:45:00 AM 0.66 33.188 0.46 7.41 2.64 13.14
1/25/2021 4:00:00 AM 0.62 33.116 0.459 7.4 2.65 13.14
1/25/2021 4:15:00 AM 0.57 33.026 0.457 7.4 2.76 13.16
1/25/2021 4:30:00 AM 0.53 32.954 0.456 7.39 2.87 13.15
1/25/2021 4:45:00 AM 0.47 32.846 0.454 7.38 2.68 13.18
1/25/2021 5:00:00 AM 0.43 32.774 0.453 7.38 2.85 13.18
1/25/2021 5:15:00 AM 0.39 32.702 0.452 7.37 2.5 13.2
1/25/2021 5:30:00 AM 0.34 32.612 0.45 7.37 2.52 13.2
1/25/2021 5:45:00 AM 0.3 32.54 0.449 7.36 3.08 13.2
1/25/2021 6:00:00 AM 0.25 32.45 0.448 7.36 2.67 13.23
1/25/2021 6:15:00 AM 0.22 32.396 0.447 7.35 2.57 13.23
1/25/2021 6:30:00 AM 0.16 32.288 0.446 7.35 2.67 13.25
1/25/2021 6:45:00 AM 0.13 32.234 0.446 7.34 2.9 13.25
1/25/2021 7:00:00 AM 0.1 32.18 0.447 7.34 3.88 13.24
1/25/2021 7:15:00 AM 0.05 32.09 0.445 7.34 2.97 13.26
1/25/2021 7:30:00 AM 0.02 32.036 0.446 7.33 2.76 13.27
1/25/2021 7:45:00 AM 0 32 0.446 7.34 3.28 13.29
1/25/2021 8:00:00 AM -0.03 31.946 0.446 7.33 2.64 13.31
1/25/2021 8:15:00 AM -0.06 31.892 0.446 7.32 2.58 13.36
1/25/2021 8:30:00 AM -0.07 31.874 0.447 7.33 2.64 13.4
1/25/2021 8:45:00 AM -0.06 31.892 0.448 7.33 2.89 13.45
1/25/2021 9:00:00 AM -0.05 31.91 0.449 7.31 2.41 13.49
1/25/2021 9:15:00 AM -0.04 31.928 0.449 7.33 2.64 13.52
1/25/2021 9:30:00 AM -0.05 31.91 0.45 7.33 2.42 13.58
1/25/2021 9:45:00 AM -0.04 31.928 0.451 7.33 2.14 13.63
1/25/2021 10:00:00 AM -0.01 31.982 0.452 7.32 2.32 13.62
1/25/2021 10:15:00 AM 0.02 32.036 0.453 7.34 2.25 13.7
1/25/2021 10:30:00 AM 0.07 32.126 0.454 7.36 2.4 13.79
1/25/2021 10:45:00 AM 0.14 32.252 0.454 7.36 2.51 13.85
1/25/2021 11:00:00 AM 0.21 32.378 0.455 7.37 2.01 13.92
1/25/2021 11:15:00 AM 0.28 32.504 0.456 7.38 2.06 13.97
1/25/2021 11:30:00 AM 0.37 32.666 0.456 7.38 2.2 14.06
1/25/2021 11:45:00 AM 0.46 32.828 0.457 7.4 2.25 14.12
1/25/2021 12:00:00 PM 0.54 32.972 0.46 7.41 2.34 14.15
1/25/2021 12:15:00 PM 0.58 33.044 0.459 7.42 2.14 14.26
1/25/2021 12:30:00 PM 0.67 33.206 0.46 7.43 1.95 14.33
1/25/2021 12:45:00 PM 0.74 33.332 0.46 7.46 2.01 14.44
1/25/2021 1:00:00 PM 0.78 33.404 0.461 7.46 2.21 14.52
1/25/2021 1:15:00 PM 0.8 33.44 0.462 7.49 2.41 14.62
1/25/2021 1:30:00 PM 0.83 33.494 0.463 7.5 2.44 14.66
1/25/2021 1:45:00 PM 0.87 33.566 0.465 7.5 2.58 14.68
1/25/2021 2:00:00 PM 0.92 33.656 0.468 7.51 2.64 14.77
1/25/2021 2:15:00 PM 0.95 33.71 0.469 7.53 2.54 14.84
1/25/2021 2:30:00 PM 0.96 33.728 0.469 7.55 2.88 14.93
1/25/2021 2:45:00 PM 0.98 33.764 0.471 7.57 2.73 15.01
1/25/2021 3:00:00 PM 0.99 33.782 0.471 7.6 2.58 15.12
1/25/2021 3:15:00 PM 1.05 33.89 0.473 7.62 2.82 15.2
1/25/2021 3:30:00 PM 1.12 34.016 0.473 7.65 2.65 15.28
1/25/2021 3:45:00 PM 1.17 34.106 0.474 7.67 2.6 15.34
1/25/2021 4:00:00 PM 1.22 34.196 0.474 7.7 2.87 15.36
1/25/2021 4:15:00 PM 1.27 34.286 0.476 7.71 2.73 15.38
1/25/2021 4:30:00 PM 1.32 34.376 0.477 7.73 3.04 15.38
1/25/2021 4:45:00 PM 1.37 34.466 0.478 7.75 2.91 15.37
1/25/2021 5:00:00 PM 1.41 34.538 0.48 7.75 2.76 15.32
1/25/2021 5:15:00 PM 1.46 34.628 0.482 7.75 2.93 15.26
1/25/2021 5:30:00 PM 1.5 34.7 0.484 7.75 2.68 15.18
1/25/2021 5:45:00 PM 1.54 34.772 0.486 7.75 2.61 15.1
1/25/2021 6:00:00 PM 1.58 34.844 0.488 7.75 2.54 15.02
1/25/2021 6:15:00 PM 1.61 34.898 0.49 7.74 2.49 14.94
1/25/2021 6:30:00 PM 1.64 34.952 0.493 7.74 2.86 14.84
1/25/2021 6:45:00 PM 1.68 35.024 0.494 7.73 2.85 14.78
1/25/2021 7:00:00 PM 1.71 35.078 0.497 7.73 2.66 14.67
1/25/2021 7:15:00 PM 1.74 35.132 0.499 7.74 2.52 14.57
1/25/2021 7:30:00 PM 1.76 35.168 0.501 7.73 2.57 14.46
1/25/2021 7:45:00 PM 1.78 35.204 0.503 7.73 2.67 14.35
1/25/2021 8:00:00 PM 1.8 35.24 0.505 7.73 2.92 14.24
1/25/2021 8:15:00 PM 1.83 35.294 0.507 7.73 3 14.13
1/25/2021 8:30:00 PM 1.86 35.348 0.509 7.73 3.42 14.01
1/25/2021 8:45:00 PM 1.9 35.42 0.511 7.72 3.04 13.91
1/25/2021 9:00:00 PM 1.94 35.492 0.513 7.72 3.3 13.82
1/25/2021 9:15:00 PM 1.97 35.546 0.515 7.72 3.06 13.74
1/25/2021 9:30:00 PM 2 35.6 0.516 7.71 3.09 13.65
1/25/2021 9:45:00 PM 2.03 35.654 0.517 7.71 2.93 13.57
1/25/2021 10:00:00 PM 2.05 35.69 0.518 7.69 2.92 13.47
1/25/2021 10:15:00 PM 2.06 35.708 0.519 7.68 2.87 13.39
1/25/2021 10:30:00 PM 2.06 35.708 0.519 7.66 2.92 13.31
1/25/2021 10:45:00 PM 2.06 35.708 0.518 7.65 2.76 13.23
1/25/2021 11:00:00 PM 2.06 35.708 0.518 7.63 2.82 13.16
1/25/2021 11:15:00 PM 2.05 35.69 0.516 7.61 2.94 13.11
1/25/2021 11:30:00 PM 2.03 35.654 0.513 7.59 2.83 13.05
1/25/2021 11:45:00 PM 2.01 35.618 0.511 7.56 2.87 13
1/26/2021 12:00:00 AM 1.99 35.582 0.507 7.55 2.69 12.97
1/26/2021 12:15:00 AM 1.96 35.528 0.503 7.53 2.76 12.94
1/26/2021 12:30:00 AM 1.94 35.492 0.499 7.52 2.67 12.91
1/26/2021 12:45:00 AM 1.91 35.438 0.495 7.51 2.82 12.89
1/26/2021 1:00:00 AM 1.89 35.402 0.492 7.5 2.72 12.87
1/26/2021 1:15:00 AM 1.87 35.366 0.489 7.48 2.87 12.86
1/26/2021 1:30:00 AM 1.85 35.33 0.487 7.48 2.82 12.85
1/26/2021 1:45:00 AM 1.85 35.33 0.486 7.47 3.12 12.83
1/26/2021 2:00:00 AM 1.85 35.33 0.485 7.47 2.95 12.81
1/26/2021 2:15:00 AM 1.85 35.33 0.485 7.46 2.96 12.79
1/26/2021 2:30:00 AM 1.85 35.33 0.486 7.46 3.15 12.77
1/26/2021 2:45:00 AM 1.86 35.348 0.487 7.46 2.95 12.76
1/26/2021 3:00:00 AM 1.87 35.366 0.488 7.46 2.92 12.73
1/26/2021 3:15:00 AM 1.88 35.384 0.489 7.45 2.72 12.72
1/26/2021 3:30:00 AM 1.89 35.402 0.489 7.45 2.71 12.69
1/26/2021 3:45:00 AM 1.9 35.42 0.489 7.45 2.77 12.69
1/26/2021 4:00:00 AM 1.91 35.438 0.489 7.44 2.87 12.67
1/26/2021 4:15:00 AM 1.92 35.456 0.489 7.45 3.15 12.65
1/26/2021 4:30:00 AM 1.93 35.474 0.487 7.44 3.27 12.64
1/26/2021 4:45:00 AM 1.93 35.474 0.486 7.44 2.9 12.63
1/26/2021 5:00:00 AM 1.91 35.438 0.483 7.42 3 12.62
1/26/2021 5:15:00 AM 1.88 35.384 0.481 7.43 3.4 12.62
1/26/2021 5:30:00 AM 1.86 35.348 0.478 7.41 3.2 12.63
1/26/2021 5:45:00 AM 1.83 35.294 0.475 7.42 3.01 12.64
1/26/2021 6:00:00 AM 1.8 35.24 0.472 7.42 2.77 12.64
1/26/2021 6:15:00 AM 1.78 35.204 0.47 7.41 2.8 12.65
1/26/2021 6:30:00 AM 1.77 35.186 0.467 7.39 2.81 12.65
1/26/2021 6:45:00 AM 1.75 35.15 0.465 7.39 2.88 12.66
1/26/2021 7:00:00 AM 1.73 35.114 0.463 7.39 2.68 12.66
1/26/2021 7:15:00 AM 1.71 35.078 0.46 7.38 2.76 12.66
1/26/2021 7:30:00 AM 1.69 35.042 0.459 7.36 2.87 12.69
1/26/2021 7:45:00 AM 1.67 35.006 0.457 7.36 3.11 12.69
1/26/2021 8:00:00 AM 1.66 34.988 0.456 7.37 2.84 12.71
1/26/2021 8:15:00 AM 1.64 34.952 0.455 7.37 3.02 12.74
1/26/2021 8:30:00 AM 1.63 34.934 0.454 7.36 3.02 12.76
1/26/2021 8:45:00 AM 1.61 34.898 0.453 7.36 3.17 12.79
1/26/2021 9:00:00 AM 1.58 34.844 0.453 7.36 2.71 12.81
1/26/2021 9:15:00 AM 1.49 34.682 0.452 7.37 3.08 12.83
1/26/2021 9:30:00 AM 1.42 34.556 0.451 7.37 2.77 12.89
1/26/2021 9:45:00 AM 1.37 34.466 0.451 7.38 2.94 12.95
1/26/2021 10:00:00 AM 1.35 34.43 0.451 7.37 3.07 13.02
1/26/2021 10:15:00 AM 1.33 34.394 0.451 7.39 2.84 13.1
1/26/2021 10:30:00 AM 1.27 34.286 0.451 7.4 2.98 13.16
1/26/2021 10:45:00 AM 1.26 34.268 0.451 7.42 3.39 13.24
1/26/2021 11:00:00 AM 1.23 34.214 0.452 7.42 2.94 13.31
1/26/2021 11:15:00 AM 1.22 34.196 0.453 7.43 3.03 13.41
1/26/2021 11:30:00 AM 1.2 34.16 0.453 7.45 2.76 13.49
1/26/2021 11:45:00 AM 1.21 34.178 0.453 7.46 2.86 13.57
1/26/2021 12:00:00 PM 1.22 34.196 0.454 7.48 2.54 13.65
1/26/2021 12:15:00 PM 1.23 34.214 0.455 7.49 2.68 13.72
1/26/2021 12:30:00 PM 1.24 34.232 0.455 7.5 2.71 13.79
1/26/2021 12:45:00 PM 1.21 34.178 0.456 7.5 2.57 13.86
1/26/2021 1:00:00 PM 1.15 34.07 0.456 7.53 2.43 13.94
1/26/2021 1:15:00 PM 1.15 34.07 0.457 7.55 2.45 14.03
1/26/2021 1:30:00 PM 1.18 34.124 0.457 7.56 2.61 14.1
1/26/2021 1:45:00 PM 1.22 34.196 0.458 7.58 2.6 14.16
1/26/2021 2:00:00 PM 1.25 34.25 0.458 7.59 2.63 14.23
1/26/2021 2:15:00 PM 1.28 34.304 0.459 7.6 2.77 14.27
1/26/2021 2:30:00 PM 1.31 34.358 0.46 7.61 2.81 14.32
1/26/2021 2:45:00 PM 1.35 34.43 0.46 7.63 2.69 14.35
1/26/2021 3:00:00 PM 1.39 34.502 0.46 7.64 2.63 14.38
1/26/2021 3:15:00 PM 1.42 34.556 0.461 7.64 2.65 14.4
1/26/2021 3:30:00 PM 1.44 34.592 0.461 7.66 2.84 14.43
1/26/2021 3:45:00 PM 1.47 34.646 0.461 7.66 2.84 14.46
1/26/2021 4:00:00 PM 1.48 34.664 0.461 7.67 2.94 14.48
1/26/2021 4:15:00 PM 1.51 34.718 0.461 7.66 3.12 14.48
1/26/2021 4:30:00 PM 1.53 34.754 0.462 7.68 7.1 14.47
1/26/2021 4:45:00 PM 1.56 34.808 0.462 7.67 3 14.45
1/26/2021 5:00:00 PM 1.59 34.862 0.462 7.68 2.77 14.42
1/26/2021 5:15:00 PM 1.62 34.916 0.462 7.69 2.79 14.39
1/26/2021 5:30:00 PM 1.64 34.952 0.462 7.69 2.91 14.34
1/26/2021 5:45:00 PM 1.67 35.006 0.462 7.67 2.78 14.31
1/26/2021 6:00:00 PM 1.68 35.024 0.463 7.68 2.85 14.25
1/26/2021 6:15:00 PM 1.69 35.042 0.463 7.68 2.59 14.2
1/26/2021 6:30:00 PM 1.71 35.078 0.463 7.67 2.96 14.14
1/26/2021 6:45:00 PM 1.72 35.096 0.463 7.67 2.88 14.08
1/26/2021 7:00:00 PM 1.74 35.132 0.463 7.66 2.84 14
1/26/2021 7:15:00 PM 1.76 35.168 0.463 7.64 2.85 13.93
1/26/2021 7:30:00 PM 1.78 35.204 0.464 7.64 2.77 13.85
1/26/2021 7:45:00 PM 1.81 35.258 0.464 7.62 2.64 13.77
1/26/2021 8:00:00 PM 1.83 35.294 0.465 7.62 2.8 13.69
1/26/2021 8:15:00 PM 1.85 35.33 0.465 7.61 2.62 13.61
1/26/2021 8:30:00 PM 1.87 35.366 0.465 7.59 2.49 13.54
1/26/2021 8:45:00 PM 1.89 35.402 0.465 7.58 2.87 13.48
1/26/2021 9:00:00 PM 1.92 35.456 0.465 7.57 2.85 13.42
1/26/2021 9:15:00 PM 1.94 35.492 0.466 7.57 3.26 13.36
1/26/2021 9:30:00 PM 1.96 35.528 0.466 7.56 3.98 13.29
1/26/2021 9:45:00 PM 1.98 35.564 0.466 7.55 5.37 13.22
1/26/2021 10:00:00 PM 2 35.6 0.467 7.54 6.2 13.16
1/26/2021 10:15:00 PM 2.01 35.618 0.467 7.53 9.05 13.09
1/26/2021 10:30:00 PM 2.02 35.636 0.467 7.52 10.69 13.02
1/26/2021 10:45:00 PM 1.95 35.51 0.467 7.51 13.43 12.96
1/26/2021 11:00:00 PM 1.94 35.492 0.467 7.5 13.91 12.91
1/26/2021 11:15:00 PM 1.96 35.528 0.468 7.49 14.37 12.86
1/26/2021 11:30:00 PM 1.98 35.564 0.468 7.47 14.12 12.81
1/26/2021 11:45:00 PM 2 35.6 0.468 7.48 13.35 12.79
1/27/2021 12:00:00 AM 1.98 35.564 0.468 7.46 12.15 12.73
1/27/2021 12:15:00 AM 1.98 35.564 0.468 7.47 11.03 12.72
1/27/2021 12:30:00 AM 2 35.6 0.468 7.46 9.77 12.69
1/27/2021 12:45:00 AM 2.01 35.618 0.468 7.44 8.54 12.66
1/27/2021 1:00:00 AM 2.02 35.636 0.468 7.45 7.15 12.65
1/27/2021 1:15:00 AM 2.03 35.654 0.468 7.45 6.63 12.63
1/27/2021 1:30:00 AM 2.03 35.654 0.469 7.45 5.69 12.61
1/27/2021 1:45:00 AM 2.03 35.654 0.469 7.44 4.86 12.61
1/27/2021 2:00:00 AM 2.03 35.654 0.469 7.44 4.33 12.6
1/27/2021 2:15:00 AM 2.03 35.654 0.47 7.44 3.7 12.59
1/27/2021 2:30:00 AM 2.04 35.672 0.47 7.44 3.22 12.58
1/27/2021 2:45:00 AM 2.04 35.672 0.471 7.44 3.26 12.57
1/27/2021 3:00:00 AM 2.04 35.672 0.472 7.43 3.06 12.56
1/27/2021 3:15:00 AM 2.04 35.672 0.473 7.41 3.14 12.55
1/27/2021 3:30:00 AM 2.04 35.672 0.474 7.43 3.07 12.55
1/27/2021 3:45:00 AM 2.03 35.654 0.475 7.42 2.78 12.55
1/27/2021 4:00:00 AM 2.01 35.618 0.476 7.43 2.92 12.55
1/27/2021 4:15:00 AM 2 35.6 0.478 7.43 2.71 12.54
1/27/2021 4:30:00 AM 1.99 35.582 0.48 7.43 2.68 12.55
1/27/2021 4:45:00 AM 1.98 35.564 0.481 7.43 2.8 12.54
1/27/2021 5:00:00 AM 1.98 35.564 0.483 7.43 2.71 12.52
1/27/2021 5:15:00 AM 1.97 35.546 0.485 7.42 2.95 12.53
1/27/2021 5:30:00 AM 1.97 35.546 0.487 7.42 2.54 12.52
1/27/2021 5:45:00 AM 1.96 35.528 0.489 7.43 2.72 12.53
1/27/2021 6:00:00 AM 1.96 35.528 0.491 7.42 2.67 12.52
1/27/2021 6:15:00 AM 1.95 35.51 0.494 7.42 2.61 12.52
1/27/2021 6:30:00 AM 1.94 35.492 0.497 7.42 2.89 12.52
1/27/2021 6:45:00 AM 1.92 35.456 0.5 7.42 2.68 12.52
1/27/2021 7:00:00 AM 1.91 35.438 0.503 7.41 2.8 12.52
1/27/2021 7:15:00 AM 1.9 35.42 0.506 7.42 3.85 12.51
1/27/2021 7:30:00 AM 1.89 35.402 0.509 7.41 3.19 12.52
1/27/2021 7:45:00 AM 1.88 35.384 0.512 7.41 2.52 12.54
1/27/2021 8:00:00 AM 1.88 35.384 0.514 7.43 2.53 12.56
1/27/2021 8:15:00 AM 1.88 35.384 0.516 7.42 2.64 12.6
1/27/2021 8:30:00 AM 1.89 35.402 0.518 7.43 2.76 12.64
1/27/2021 8:45:00 AM 1.89 35.402 0.519 7.42 2.35 12.69
1/27/2021 9:00:00 AM 1.89 35.402 0.52 7.43 2.58 12.73
1/27/2021 9:15:00 AM 1.9 35.42 0.521 7.44 2.68 12.79
1/27/2021 9:30:00 AM 1.91 35.438 0.522 7.45 2.49 12.86
1/27/2021 9:45:00 AM 1.91 35.438 0.522 7.46 2.6 12.93
1/27/2021 10:00:00 AM 1.91 35.438 0.522 7.46 2.81 12.99
1/27/2021 10:15:00 AM 1.92 35.456 0.523 7.47 2.78 13.05
1/27/2021 10:30:00 AM 1.92 35.456 0.523 7.47 2.75 13.13
1/27/2021 10:45:00 AM 1.91 35.438 0.523 7.49 2.7 13.23
1/27/2021 11:00:00 AM 1.93 35.474 0.524 7.5 2.65 13.34
1/27/2021 11:15:00 AM 1.96 35.528 0.525 7.52 2.92 13.45
1/27/2021 11:30:00 AM 1.97 35.546 0.528 7.53 2.6 13.57
1/27/2021 11:45:00 AM 1.97 35.546 0.53 7.54 2.35 13.66
1/27/2021 12:00:00 PM 1.99 35.582 0.534 7.56 2.38 13.77
1/27/2021 12:15:00 PM 2 35.6 0.537 7.57 2.4 13.87
1/27/2021 12:30:00 PM 2.02 35.636 0.542 7.6 2.43 13.99
1/27/2021 12:45:00 PM 2.05 35.69 0.547 7.61 2.23 14.08
1/27/2021 1:00:00 PM 2.07 35.726 0.553 7.63 2.25 14.19
1/27/2021 1:15:00 PM 2.09 35.762 0.56 7.64 2.25 14.28
1/27/2021 1:30:00 PM 2.1 35.78 0.566 7.65 2.48 14.37
1/27/2021 1:45:00 PM 2.12 35.816 0.572 7.67 2.46 14.44
1/27/2021 2:00:00 PM 2.13 35.834 0.578 7.69 2.75 14.53
1/27/2021 2:15:00 PM 2.14 35.852 0.585 7.71 2.36 14.61
1/27/2021 2:30:00 PM 2.15 35.87 0.59 7.72 2.36 14.68
1/27/2021 2:45:00 PM 2.15 35.87 0.595 7.73 2.37 14.74
1/27/2021 3:00:00 PM 2.15 35.87 0.6 7.74 2.35 14.77
1/27/2021 3:15:00 PM 2.15 35.87 0.604 7.76 2.68 14.8
1/27/2021 3:30:00 PM 2.15 35.87 0.608 7.76 2.56 14.84
1/27/2021 3:45:00 PM 2.14 35.852 0.611 7.78 2.7 14.87
1/27/2021 4:00:00 PM 2.14 35.852 0.613 7.79 2.59 14.89
1/27/2021 4:15:00 PM 2.14 35.852 0.615 7.8 2.39 14.89
1/27/2021 4:30:00 PM 2.14 35.852 0.616 7.81 2.3 14.89
1/27/2021 4:45:00 PM 2.15 35.87 0.618 7.82 2.63 14.88
1/27/2021 5:00:00 PM 2.15 35.87 0.618 7.81 2.57 14.85
1/27/2021 5:15:00 PM 2.14 35.852 0.619 7.82 2.79 14.8
1/27/2021 5:30:00 PM 2.14 35.852 0.62 7.81 2.71 14.72
1/27/2021 5:45:00 PM 2.13 35.834 0.62 7.81 2.53 14.67
1/27/2021 6:00:00 PM 2.12 35.816 0.62 7.8 2.55 14.6
1/27/2021 6:15:00 PM 2.1 35.78 0.62 7.79 2.41 14.54
1/27/2021 6:30:00 PM 2.08 35.744 0.619 7.8 2.53 14.47
1/27/2021 6:45:00 PM 2.06 35.708 0.619 7.79 2.72 14.41
1/27/2021 7:00:00 PM 2.04 35.672 0.618 7.78 2.56 14.36
1/27/2021 7:15:00 PM 2.02 35.636 0.617 7.77 2.69 14.27
1/27/2021 7:30:00 PM 1.99 35.582 0.616 7.76 2.72 14.21
1/27/2021 7:45:00 PM 1.95 35.51 0.614 7.75 2.64 14.15
1/27/2021 8:00:00 PM 1.92 35.456 0.613 7.74 2.6 14.06
1/27/2021 8:15:00 PM 1.9 35.42 0.611 7.73 2.73 13.98
1/27/2021 8:30:00 PM 1.88 35.384 0.609 7.72 2.59 13.91
1/27/2021 8:45:00 PM 1.85 35.33 0.608 7.7 2.35 13.83
1/27/2021 9:00:00 PM 1.82 35.276 0.606 7.68 2.43 13.75
1/27/2021 9:15:00 PM 1.79 35.222 0.605 7.67 2.52 13.7
1/27/2021 9:30:00 PM 1.76 35.168 0.602 7.66 2.46 13.63
1/27/2021 9:45:00 PM 1.72 35.096 0.6 7.65 2.51 13.57
1/27/2021 10:00:00 PM 1.68 35.024 0.598 7.63 2.51 13.51
1/27/2021 10:15:00 PM 1.65 34.97 0.596 7.63 8.79 13.45
1/27/2021 10:30:00 PM 1.62 34.916 0.595 7.61 2.24 13.41
1/27/2021 10:45:00 PM 1.58 34.844 0.593 7.6 2.49 13.37
1/27/2021 11:00:00 PM 1.54 34.772 0.591 7.58 2.19 13.31
1/27/2021 11:15:00 PM 1.49 34.682 0.589 7.58 2.12 13.27
1/27/2021 11:30:00 PM 1.46 34.628 0.588 7.57 2.17 13.23
1/27/2021 11:45:00 PM 1.42 34.556 0.587 7.55 2.37 13.18
1/28/2021 12:00:00 AM 1.39 34.502 0.585 7.54 2.54 13.14
1/28/2021 12:15:00 AM 1.37 34.466 0.583 7.53 2.45 13.11
1/28/2021 12:30:00 AM 1.34 34.412 0.582 7.52 2.2 13.08
1/28/2021 12:45:00 AM 1.31 34.358 0.58 7.52 2.22 13.06
1/28/2021 1:00:00 AM 1.28 34.304 0.579 7.51 2 13.02
1/28/2021 1:15:00 AM 1.23 34.214 0.577 7.5 2.27 13.01
1/28/2021 1:30:00 AM 1.19 34.142 0.576 7.49 1.96 12.99
1/28/2021 1:45:00 AM 1.15 34.07 0.575 7.48 1.96 12.97
1/28/2021 2:00:00 AM 1.12 34.016 0.573 7.48 2.26 12.96
1/28/2021 2:15:00 AM 1.08 33.944 0.571 7.47 2.07 12.95
1/28/2021 2:30:00 AM 1.04 33.872 0.571 7.47 2.35 12.95
1/28/2021 2:45:00 AM 1 33.8 0.569 7.46 2.26 12.97
1/28/2021 3:00:00 AM 0.97 33.746 0.568 7.46 2.43 12.95
1/28/2021 3:15:00 AM 0.94 33.692 0.566 7.45 2.36 12.96
1/28/2021 3:30:00 AM 0.91 33.638 0.564 7.44 2.36 12.97
1/28/2021 3:45:00 AM 0.9 33.62 0.564 7.44 2.34 12.93
1/28/2021 4:00:00 AM 0.87 33.566 0.562 7.44 2.41 12.95
1/28/2021 4:15:00 AM 0.83 33.494 0.56 7.44 2.54 12.96
1/28/2021 4:30:00 AM 0.81 33.458 0.56 7.43 2.42 12.95
1/28/2021 4:45:00 AM 0.77 33.386 0.558 7.44 2.35 12.97
1/28/2021 5:00:00 AM 0.75 33.35 0.557 7.44 2.55 12.98
1/28/2021 5:15:00 AM 0.73 33.314 0.556 7.43 2.22 12.97
1/28/2021 5:30:00 AM 0.71 33.278 0.555 7.43 2.16 12.99
1/28/2021 5:45:00 AM 0.7 33.26 0.554 7.43 2.14 12.97
1/28/2021 6:00:00 AM 0.68 33.224 0.553 7.43 2.15 12.97
1/28/2021 6:15:00 AM 0.66 33.188 0.551 7.43 2.38 12.98
1/28/2021 6:30:00 AM 0.63 33.134 0.55 7.43 2.36 12.98
1/28/2021 6:45:00 AM 0.59 33.062 0.549 7.42 2.54 12.98
1/28/2021 7:00:00 AM 0.56 33.008 0.548 7.42 2.66 12.99
1/28/2021 7:15:00 AM 0.51 32.918 0.548 7.42 2.46 12.99
1/28/2021 7:30:00 AM 0.47 32.846 0.547 7.42 3.11 13.01
1/28/2021 7:45:00 AM 0.43 32.774 0.546 7.42 3.23 13.06
1/28/2021 8:00:00 AM 0.41 32.738 0.546 7.42 2.79 13.09
1/28/2021 8:15:00 AM 0.41 32.738 0.546 7.42 2.75 13.12
1/28/2021 8:30:00 AM 0.41 32.738 0.546 7.41 3.05 13.19
1/28/2021 8:45:00 AM 0.39 32.702 0.546 7.43 2.5 13.26
1/28/2021 9:00:00 AM 0.4 32.72 0.546 7.44 2.63 13.35
1/28/2021 9:15:00 AM 0.4 32.72 0.547 7.45 2.6 13.44
1/28/2021 9:30:00 AM 0.39 32.702 0.547 7.46 2.22 13.54
1/28/2021 9:45:00 AM 0.39 32.702 0.549 7.46 2.37 13.65
1/28/2021 10:00:00 AM 0.4 32.72 0.55 7.46 2.15 13.7
1/28/2021 10:15:00 AM 0.39 32.702 0.552 7.48 1.73 13.82
1/28/2021 10:30:00 AM 0.42 32.756 0.555 7.5 1.82 13.93
1/28/2021 10:45:00 AM 0.49 32.882 0.559 7.51 1.78 14.03
1/28/2021 11:00:00 AM 0.55 32.99 0.562 7.52 1.86 14.09
1/28/2021 11:15:00 AM 0.62 33.116 0.565 7.53 1.9 14.19
1/28/2021 11:30:00 AM 0.68 33.224 0.568 7.54 2.01 14.3
1/28/2021 11:45:00 AM 0.75 33.35 0.571 7.56 1.99 14.41
1/28/2021 12:00:00 PM 0.82 33.476 0.574 7.58 1.76 14.5
1/28/2021 12:15:00 PM 0.93 33.674 0.579 7.6 1.95 14.65
1/28/2021 12:30:00 PM 0.99 33.782 0.582 7.61 1.91 14.74
1/28/2021 12:45:00 PM 1.04 33.872 0.585 7.63 1.71 14.83
1/28/2021 1:00:00 PM 1.04 33.872 0.587 7.64 1.75 14.9
1/28/2021 1:15:00 PM 1.13 34.034 0.59 7.67 1.9 15
1/28/2021 1:30:00 PM 1.22 34.196 0.592 7.67 2.05 15.05
1/28/2021 1:45:00 PM 1.27 34.286 0.593 7.69 2.12 15.11
1/28/2021 2:00:00 PM 1.33 34.394 0.595 7.69 2.04 15.17
1/28/2021 2:15:00 PM 1.36 34.448 0.596 7.71 2.13 15.22
1/28/2021 2:30:00 PM 1.41 34.538 0.596 7.73 2.3 15.27
1/28/2021 2:45:00 PM 1.42 34.556 0.597 7.74 2.42 15.29
1/28/2021 3:00:00 PM 1.44 34.592 0.596 7.76 2.18 15.37
1/28/2021 3:15:00 PM 1.46 34.628 0.597 7.78 2.41 15.42
1/28/2021 3:30:00 PM 1.48 34.664 0.596 7.79 2.27 15.46
1/28/2021 3:45:00 PM 1.51 34.718 0.595 7.82 2.64 15.54
1/28/2021 4:00:00 PM 1.52 34.736 0.594 7.83 2.39 15.55
1/28/2021 4:15:00 PM 1.52 34.736 0.593 7.85 2.66 15.59
1/28/2021 4:30:00 PM 1.52 34.736 0.592 7.86 3.08 15.58
1/28/2021 4:45:00 PM 1.53 34.754 0.591 7.87 3.02 15.6
1/28/2021 5:00:00 PM 1.52 34.736 0.59 7.88 2.93 15.55
1/28/2021 5:15:00 PM 1.52 34.736 0.59 7.88 3.26 15.49
1/28/2021 5:30:00 PM 1.5 34.7 0.589 7.89 2.99 15.46
1/28/2021 5:45:00 PM 1.46 34.628 0.588 7.9 2.99 15.4
1/28/2021 6:00:00 PM 1.43 34.574 0.588 7.89 3.06 15.32
1/28/2021 6:15:00 PM 1.38 34.484 0.587 7.89 2.94 15.26
1/28/2021 6:30:00 PM 1.33 34.394 0.586 7.89 2.62 15.19
1/28/2021 6:45:00 PM 1.3 34.34 0.586 7.88 2.7 15.09
1/28/2021 7:00:00 PM 1.25 34.25 0.586 7.87 2.62 15.03
1/28/2021 7:15:00 PM 1.2 34.16 0.585 7.87 2.79 14.98
1/28/2021 7:30:00 PM 1.13 34.034 0.585 7.85 3.79 14.89
1/28/2021 7:45:00 PM 1.08 33.944 0.585 7.85 2.58 14.8
1/28/2021 8:00:00 PM 1.04 33.872 0.585 7.83 2.39 14.68
1/28/2021 8:15:00 PM 1 33.8 0.584 7.82 2.79 14.61
1/28/2021 8:30:00 PM 0.96 33.728 0.584 7.81 2.61 14.51
1/28/2021 8:45:00 PM 0.91 33.638 0.583 7.8 2.54 14.43
1/28/2021 9:00:00 PM 0.88 33.584 0.583 7.78 2.41 14.33
1/28/2021 9:15:00 PM 0.85 33.53 0.583 7.76 2.28 14.26
1/28/2021 9:30:00 PM 0.83 33.494 0.583 7.76 2.39 14.19
1/28/2021 9:45:00 PM 0.82 33.476 0.582 7.75 2.28 14.12
1/28/2021 10:00:00 PM 0.81 33.458 0.581 7.74 2.54 14.07
1/28/2021 10:15:00 PM 0.79 33.422 0.582 7.73 2.45 14
1/28/2021 10:30:00 PM 0.78 33.404 0.581 7.71 2.77 13.94
1/28/2021 10:45:00 PM 0.78 33.404 0.581 7.7 2.89 13.88
1/28/2021 11:00:00 PM 0.76 33.368 0.58 7.68 2.84 13.81
1/28/2021 11:15:00 PM 0.74 33.332 0.581 7.67 2.49 13.75
1/28/2021 11:30:00 PM 0.72 33.296 0.58 7.65 2.69 13.69
1/28/2021 11:45:00 PM 0.67 33.206 0.579 7.65 2.39 13.65
1/29/2021 12:00:00 AM 0.64 33.152 0.578 7.63 2.24 13.59
1/29/2021 12:15:00 AM 0.58 33.044 0.577 7.63 2.16 13.56
1/29/2021 12:30:00 AM 0.52 32.936 0.576 7.61 2.41 13.54
1/29/2021 12:45:00 AM 0.48 32.864 0.576 7.58 1.99 13.49
1/29/2021 1:00:00 AM 0.42 32.756 0.574 7.59 2.27 13.48
1/29/2021 1:15:00 AM 0.37 32.666 0.573 7.57 2.42 13.47
1/29/2021 1:30:00 AM 0.33 32.594 0.571 7.56 2.31 13.44
1/29/2021 1:45:00 AM 0.29 32.522 0.57 7.54 2.45 13.42
1/29/2021 2:00:00 AM 0.26 32.468 0.569 7.54 2.49 13.4
1/29/2021 2:15:00 AM 0.23 32.414 0.567 7.53 2.15 13.38
1/29/2021 2:30:00 AM 0.21 32.378 0.565 7.51 2.3 13.36
1/29/2021 2:45:00 AM 0.2 32.36 0.564 7.51 2.19 13.34
1/29/2021 3:00:00 AM 0.16 32.288 0.562 7.51 2.22 13.33
1/29/2021 3:15:00 AM 0.13 32.234 0.56 7.5 2.4 13.31
1/29/2021 3:30:00 AM 0.07 32.126 0.558 7.49 2.68 13.29
1/29/2021 3:45:00 AM 0.05 32.09 0.558 7.48 2.45 13.27
1/29/2021 4:00:00 AM 0 32 0.557 7.49 2.13 13.29
1/29/2021 4:15:00 AM -0.03 31.946 0.556 7.46 2.57 13.27
1/29/2021 4:30:00 AM -0.05 31.91 0.557 7.46 2.16 13.24
1/29/2021 4:45:00 AM -0.09 31.838 0.557 7.46 2.39 13.25
1/29/2021 5:00:00 AM -0.09 31.838 0.557 7.45 2.52 13.23
1/29/2021 5:15:00 AM -0.1 31.82 0.556 7.45 2.32 13.22
1/29/2021 5:30:00 AM -0.11 31.802 0.555 7.44 2.33 13.21
1/29/2021 5:45:00 AM -0.11 31.802 0.556 7.45 2.33 13.21
1/29/2021 6:00:00 AM -0.12 31.784 0.556 7.45 2.49 13.21
1/29/2021 6:15:00 AM -0.13 31.766 0.555 7.44 2.26 13.2
1/29/2021 6:30:00 AM -0.13 31.766 0.556 7.44 2.32 13.2
1/29/2021 6:45:00 AM -0.13 31.766 0.556 7.44 2.29 13.21
1/29/2021 7:00:00 AM -0.14 31.748 0.556 7.43 2.48 13.2
1/29/2021 7:15:00 AM -0.14 31.748 0.556 7.43 2.64 13.21
1/29/2021 7:30:00 AM -0.13 31.766 0.556 7.43 2.46 13.2
1/29/2021 7:45:00 AM -0.13 31.766 0.556 7.42 2.56 13.2
1/29/2021 8:00:00 AM -0.13 31.766 0.556 7.41 2.67 13.24
1/29/2021 8:15:00 AM -0.13 31.766 0.556 7.42 2.57 13.28
1/29/2021 8:30:00 AM -0.12 31.784 0.556 7.42 2.86 13.33
1/29/2021 8:45:00 AM -0.12 31.784 0.556 7.42 2.63 13.39
1/29/2021 9:00:00 AM -0.12 31.784 0.555 7.43 2.67 13.47
1/29/2021 9:15:00 AM -0.1 31.82 0.555 7.43 2.63 13.54
1/29/2021 9:30:00 AM -0.09 31.838 0.555 7.44 2.5 13.61
1/29/2021 9:45:00 AM -0.07 31.874 0.555 7.44 2.24 13.66
1/29/2021 10:00:00 AM -0.05 31.91 0.554 7.44 2.19 13.7
1/29/2021 10:15:00 AM -0.05 31.91 0.553 7.45 2.25 13.76
1/29/2021 10:30:00 AM -0.01 31.982 0.553 7.44 2.1 13.81
1/29/2021 10:45:00 AM 0.01 32.018 0.553 7.45 2.4 13.91
1/29/2021 11:00:00 AM 0.04 32.072 0.552 7.47 2.23 14.04
1/29/2021 11:15:00 AM 0.07 32.126 0.552 7.47 2.32 14.11
1/29/2021 11:30:00 AM 0.11 32.198 0.552 7.48 2.14 14.22
1/29/2021 11:45:00 AM 0.14 32.252 0.552 7.49 2.51 14.32
1/29/2021 12:00:00 PM 0.18 32.324 0.551 7.5 2.62 14.43
1/29/2021 12:15:00 PM 0.21 32.378 0.551 7.51 2.35 14.53
1/29/2021 12:30:00 PM 0.25 32.45 0.55 7.53 1.97 14.69
1/29/2021 12:45:00 PM 0.3 32.54 0.55 7.55 1.99 14.81
1/29/2021 1:00:00 PM 0.34 32.612 0.55 7.56 1.99 14.94
1/29/2021 1:15:00 PM 0.39 32.702 0.55 7.58 2.2 15.11
1/29/2021 1:30:00 PM 0.41 32.738 0.55 7.6 2.39 15.22
1/29/2021 1:45:00 PM 0.43 32.774 0.551 7.61 2.27 15.3
1/29/2021 2:00:00 PM 0.45 32.81 0.551 7.63 2.04 15.42
1/29/2021 2:15:00 PM 0.46 32.828 0.551 7.64 2.25 15.52
1/29/2021 2:30:00 PM 0.45 32.81 0.552 7.65 1.96 15.54
1/29/2021 2:45:00 PM 0.43 32.774 0.552 7.66 2.13 15.65
1/29/2021 3:00:00 PM 0.43 32.774 0.553 7.67 2.64 15.73
1/29/2021 3:15:00 PM 0.42 32.756 0.554 7.69 2.24 15.79
1/29/2021 3:30:00 PM 0.39 32.702 0.555 7.7 2.51 15.88
1/29/2021 3:45:00 PM 0.37 32.666 0.555 7.72 2.3 15.95
1/29/2021 4:00:00 PM 0.35 32.63 0.556 7.74 2.52 16.02
1/29/2021 4:15:00 PM 0.34 32.612 0.559 7.75 2.31 16.06
1/29/2021 4:30:00 PM 0.29 32.522 0.558 7.77 2.57 16.1
1/29/2021 4:45:00 PM 0.26 32.468 0.56 7.78 2.56 16.12
1/29/2021 5:00:00 PM 0.24 32.432 0.561 7.79 3.22 16.14
1/29/2021 5:15:00 PM 0.22 32.396 0.563 7.79 3.34 16.06
1/29/2021 5:30:00 PM 0.19 32.342 0.564 7.8 3.5 16.06
1/29/2021 5:45:00 PM 0.17 32.306 0.565 7.81 3.02 16.04
1/29/2021 6:00:00 PM 0.16 32.288 0.566 7.82 2.96 15.99
1/29/2021 6:15:00 PM 0.15 32.27 0.567 7.82 2.22 15.95
1/29/2021 6:30:00 PM 0.14 32.252 0.568 7.82 2.5 15.89
1/29/2021 6:45:00 PM 0.12 32.216 0.57 7.83 2.71 15.85
1/29/2021 7:00:00 PM 0.11 32.198 0.571 7.81 2.63 15.77
1/29/2021 7:15:00 PM 0.11 32.198 0.572 7.82 2.93 15.7
1/29/2021 7:30:00 PM 0.11 32.198 0.574 7.81 2.35 15.63
1/29/2021 7:45:00 PM 0.1 32.18 0.574 7.81 2.44 15.54
1/29/2021 8:00:00 PM 0.1 32.18 0.576 7.8 2.09 15.42
1/29/2021 8:15:00 PM 0.11 32.198 0.578 7.79 2.11 15.29
1/29/2021 8:30:00 PM 0.11 32.198 0.579 7.78 2.28 15.18
1/29/2021 8:45:00 PM 0.09 32.162 0.58 7.78 2.38 15.09
1/29/2021 9:00:00 PM 0.1 32.18 0.581 7.77 2.37 14.98
1/29/2021 9:15:00 PM 0.09 32.162 0.582 7.76 2.26 14.88
1/29/2021 9:30:00 PM 0.09 32.162 0.583 7.75 2.2 14.78
1/29/2021 9:45:00 PM 0.08 32.144 0.584 7.75 3.05 14.67
1/29/2021 10:00:00 PM 0.08 32.144 0.584 7.74 2.35 14.56
1/29/2021 10:15:00 PM 0.09 32.162 0.585 7.72 2.28 14.48
1/29/2021 10:30:00 PM 0.08 32.144 0.585 7.73 2.43 14.42
1/29/2021 10:45:00 PM 0.08 32.144 0.586 7.72 2.25 14.32
1/29/2021 11:00:00 PM 0.08 32.144 0.586 7.71 2.65 14.25
1/29/2021 11:15:00 PM 0.08 32.144 0.586 7.7 2.45 14.16
1/29/2021 11:30:00 PM 0.09 32.162 0.586 7.69 2.51 14.08
1/29/2021 11:45:00 PM 0.1 32.18 0.586 7.68 2.71 14
1/30/2021 12:00:00 AM 0.1 32.18 0.586 7.65 2.6 13.9
1/30/2021 12:15:00 AM 0.1 32.18 0.585 7.66 2.48 13.84
1/30/2021 12:30:00 AM 0.11 32.198 0.585 7.65 2.83 13.76
1/30/2021 12:45:00 AM 0.11 32.198 0.584 7.63 2.39 13.68
1/30/2021 1:00:00 AM 0.11 32.198 0.583 7.62 2.75 13.62
1/30/2021 1:15:00 AM 0.12 32.216 0.582 7.6 2.48 13.55
1/30/2021 1:30:00 AM 0.12 32.216 0.581 7.6 2.45 13.51
1/30/2021 1:45:00 AM 0.13 32.234 0.579 7.57 2.31 13.46
1/30/2021 2:00:00 AM 0.13 32.234 0.577 7.58 2.21 13.4
1/30/2021 2:15:00 AM 0.13 32.234 0.576 7.56 2.16 13.36
1/30/2021 2:30:00 AM 0.14 32.252 0.574 7.55 2.13 13.33
1/30/2021 2:45:00 AM 0.14 32.252 0.572 7.53 2.04 13.29
1/30/2021 3:00:00 AM 0.13 32.234 0.57 7.53 2.13 13.27
1/30/2021 3:15:00 AM 0.13 32.234 0.567 7.52 2.01 13.24
1/30/2021 3:30:00 AM 0.13 32.234 0.567 7.51 2.05 13.21
1/30/2021 3:45:00 AM 0.13 32.234 0.564 7.49 2.24 13.18
1/30/2021 4:00:00 AM 0.13 32.234 0.563 7.48 2 13.13
1/30/2021 4:15:00 AM 0.11 32.198 0.558 7.48 2.31 13.17
1/30/2021 4:30:00 AM 0.1 32.18 0.556 7.47 2.38 13.14
1/30/2021 4:45:00 AM 0.08 32.144 0.555 7.46 1.97 13.16
1/30/2021 5:00:00 AM 0.08 32.144 0.553 7.46 2.18 13.16
1/30/2021 5:15:00 AM 0.07 32.126 0.552 7.45 2.3 13.15
1/30/2021 5:30:00 AM 0.06 32.108 0.551 7.44 2.45 13.14
1/30/2021 5:45:00 AM 0.05 32.09 0.55 7.44 2.48 13.13
1/30/2021 6:00:00 AM 0.04 32.072 0.549 7.44 2.33 13.14
1/30/2021 6:15:00 AM 0.03 32.054 0.549 7.43 2.55 13.15
1/30/2021 6:30:00 AM 0.03 32.054 0.549 7.43 2.78 13.13
1/30/2021 6:45:00 AM 0.02 32.036 0.548 7.43 2.9 13.14
1/30/2021 7:00:00 AM 0.02 32.036 0.549 7.43 2.69 13.13
1/30/2021 7:15:00 AM 0 32 0.548 7.43 3.25 13.15
1/30/2021 7:30:00 AM 0 32 0.549 7.43 3.28 13.15
1/30/2021 7:45:00 AM 0 32 0.551 7.42 2.88 13.13
1/30/2021 8:00:00 AM -0.01 31.982 0.55 7.43 3.04 13.19
1/30/2021 8:15:00 AM -0.01 31.982 0.55 7.43 3.56 13.21
1/30/2021 8:30:00 AM -0.02 31.964 0.551 7.43 2.82 13.27
1/30/2021 8:45:00 AM -0.02 31.964 0.552 7.43 2.66 13.31
1/30/2021 9:00:00 AM -0.02 31.964 0.552 7.44 2.67 13.39
1/30/2021 9:15:00 AM -0.01 31.982 0.553 7.45 2.44 13.46
1/30/2021 9:30:00 AM 0.01 32.018 0.553 7.45 2.64 13.52
1/30/2021 9:45:00 AM 0.04 32.072 0.553 7.46 2.62 13.61
1/30/2021 10:00:00 AM 0.07 32.126 0.554 7.47 2.64 13.7
1/30/2021 10:15:00 AM 0.11 32.198 0.554 7.47 2.45 13.76
1/30/2021 10:30:00 AM 0.18 32.324 0.555 7.48 4.97 13.87
1/30/2021 10:45:00 AM 0.23 32.414 0.554 7.49 2.84 13.95
1/30/2021 11:00:00 AM 0.24 32.432 0.554 7.49 3.01 14.02
1/30/2021 11:15:00 AM 0.31 32.558 0.555 7.5 2.86 14.12
1/30/2021 11:30:00 AM 0.38 32.684 0.554 7.52 2.61 14.22
1/30/2021 11:45:00 AM 0.44 32.792 0.554 7.53 2.74 14.33
1/30/2021 12:00:00 PM 0.5 32.9 0.553 7.53 2.65 14.45
1/30/2021 12:15:00 PM 0.57 33.026 0.554 7.56 2.67 14.57
1/30/2021 12:30:00 PM 0.61 33.098 0.555 7.57 2.33 14.62
1/30/2021 12:45:00 PM 0.69 33.242 0.553 7.59 2.07 14.79
1/30/2021 1:00:00 PM 0.75 33.35 0.552 7.6 2.46 14.9
1/30/2021 1:15:00 PM 0.81 33.458 0.552 7.61 2.06 14.96
1/30/2021 1:30:00 PM 0.85 33.53 0.551 7.63 2.06 15.08
1/30/2021 1:45:00 PM 0.9 33.62 0.55 7.64 2.17 15.22
1/30/2021 2:00:00 PM 0.93 33.674 0.549 7.66 2.02 15.3
1/30/2021 2:15:00 PM 0.97 33.746 0.548 7.67 2.15 15.41
1/30/2021 2:30:00 PM 0.99 33.782 0.547 7.68 2.33 15.46
1/30/2021 2:45:00 PM 0.99 33.782 0.546 7.7 2.18 15.55
1/30/2021 3:00:00 PM 0.97 33.746 0.545 7.71 2.07 15.57
1/30/2021 3:15:00 PM 0.94 33.692 0.544 7.73 2.25 15.66
1/30/2021 3:30:00 PM 0.91 33.638 0.543 7.73 2.05 15.69
1/30/2021 3:45:00 PM 0.89 33.602 0.542 7.74 1.91 15.75
1/30/2021 4:00:00 PM 0.88 33.584 0.542 7.76 2.26 15.76
1/30/2021 4:15:00 PM 0.87 33.566 0.541 7.77 2.31 15.79
1/30/2021 4:30:00 PM 0.86 33.548 0.541 7.78 2.49 15.82
1/30/2021 4:45:00 PM 0.85 33.53 0.541 7.79 2.36 15.81
1/30/2021 5:00:00 PM 0.85 33.53 0.541 7.8 2.44 15.78
1/30/2021 5:15:00 PM 0.84 33.512 0.541 7.81 2.35 15.76
1/30/2021 5:30:00 PM 0.85 33.53 0.541 7.82 2.36 15.72
1/30/2021 5:45:00 PM 0.85 33.53 0.541 7.82 2.48 15.67
1/30/2021 6:00:00 PM 0.85 33.53 0.542 7.82 2.5 15.59
1/30/2021 6:15:00 PM 0.86 33.548 0.542 7.82 3.19 15.54
1/30/2021 6:30:00 PM 0.86 33.548 0.543 7.83 2.84 15.48
1/30/2021 6:45:00 PM 0.87 33.566 0.544 7.82 2.67 15.39
1/30/2021 7:00:00 PM 0.87 33.566 0.544 7.82 3.22 15.32
1/30/2021 7:15:00 PM 0.88 33.584 0.545 7.82 2.73 15.25
1/30/2021 7:30:00 PM 0.88 33.584 0.546 7.81 3.14 15.15
1/30/2021 7:45:00 PM 0.87 33.566 0.548 7.8 3.15 15.04
1/30/2021 8:00:00 PM 0.87 33.566 0.555 7.8 2.93 14.93
1/30/2021 8:15:00 PM 0.85 33.53 0.55 7.78 3.15 14.82
1/30/2021 8:30:00 PM 0.84 33.512 0.551 7.77 2.96 14.7
1/30/2021 8:45:00 PM 0.82 33.476 0.552 7.75 3.12 14.57
1/30/2021 9:00:00 PM 0.81 33.458 0.552 7.74 3.05 14.5
1/30/2021 9:15:00 PM 0.78 33.404 0.553 7.73 2.76 14.38
1/30/2021 9:30:00 PM 0.77 33.386 0.554 7.71 2.65 14.26
1/30/2021 9:45:00 PM 0.73 33.314 0.554 7.7 2.5 14.19
1/30/2021 10:00:00 PM 0.71 33.278 0.555 7.68 2.7 14.1
1/30/2021 10:15:00 PM 0.69 33.242 0.556 7.68 2.4 14.02
1/30/2021 10:30:00 PM 0.66 33.188 0.556 7.65 2.62 13.94
1/30/2021 10:45:00 PM 0.63 33.134 0.556 7.65 2.32 13.89
1/30/2021 11:00:00 PM 0.6 33.08 0.557 7.63 2.6 13.82
1/30/2021 11:15:00 PM 0.58 33.044 0.557 7.63 2.61 13.77
1/30/2021 11:30:00 PM 0.54 32.972 0.557 7.62 2.09 13.73
1/30/2021 11:45:00 PM 0.51 32.918 0.558 7.61 2.35 13.67
1/31/2021 12:00:00 AM 0.48 32.864 0.559 7.59 2.46 13.61
1/31/2021 12:15:00 AM 0.43 32.774 0.559 7.59 2.35 13.58
1/31/2021 12:30:00 AM 0.41 32.738 0.56 7.58 2.25 13.53
1/31/2021 12:45:00 AM 0.37 32.666 0.56 7.57 2.21 13.48
1/31/2021 1:00:00 AM 0.34 32.612 0.56 7.56 2.04 13.46
1/31/2021 1:15:00 AM 0.3 32.54 0.561 7.55 2.08 13.44
1/31/2021 1:30:00 AM 0.27 32.486 0.562 7.55 2.17 13.39
1/31/2021 1:45:00 AM 0.24 32.432 0.562 7.53 2.2 13.38
1/31/2021 2:00:00 AM 0.22 32.396 0.562 7.53 2.15 13.29
1/31/2021 2:15:00 AM 0.18 32.324 0.563 7.52 2.33 13.33
1/31/2021 2:30:00 AM 0.15 32.27 0.563 7.51 1.9 13.31
1/31/2021 2:45:00 AM 0.12 32.216 0.562 7.51 2.08 13.29
1/31/2021 3:00:00 AM 0.12 32.216 0.564 7.5 2.23 13.26
1/31/2021 3:15:00 AM 0.09 32.162 0.562 7.5 2.23 13.26
1/31/2021 3:30:00 AM 0.06 32.108 0.562 7.49 2.15 13.24
1/31/2021 3:45:00 AM 0.04 32.072 0.563 7.49 1.92 13.24
1/31/2021 4:00:00 AM 0.02 32.036 0.562 7.49 2.39 13.24
1/31/2021 4:15:00 AM 0 32 0.562 7.48 2.33 13.23
1/31/2021 4:30:00 AM -0.02 31.964 0.561 7.48 2.28 13.23
1/31/2021 4:45:00 AM -0.02 31.964 0.562 7.46 3.03 13.21
1/31/2021 5:00:00 AM -0.04 31.928 0.561 7.46 3.14 13.21
1/31/2021 5:15:00 AM -0.04 31.928 0.561 7.46 2.96 13.2
1/31/2021 5:30:00 AM -0.06 31.892 0.56 7.45 2.71 13.21
1/31/2021 5:45:00 AM -0.05 31.91 0.563 7.45 3.49 13.19
1/31/2021 6:00:00 AM -0.07 31.874 0.56 7.45 2.67 13.22
1/31/2021 6:15:00 AM -0.07 31.874 0.56 7.44 2.99 13.19
1/31/2021 6:30:00 AM -0.07 31.874 0.56 7.44 2.78 13.21
1/31/2021 6:45:00 AM -0.07 31.874 0.562 7.44 3.13 13.2
1/31/2021 7:00:00 AM -0.08 31.856 0.56 7.43 3.43 13.2
1/31/2021 7:15:00 AM -0.09 31.838 0.56 7.42 3.26 13.2
1/31/2021 7:30:00 AM -0.08 31.856 0.56 7.43 3.33 13.19
1/31/2021 7:45:00 AM -0.08 31.856 0.561 7.43 4.11 13.19
1/31/2021 8:00:00 AM -0.07 31.874 0.561 7.43 3.38 13.22
1/31/2021 8:15:00 AM -0.06 31.892 0.561 7.43 2.86 13.25
1/31/2021 8:30:00 AM -0.04 31.928 0.561 7.43 3.04 13.26
1/31/2021 8:45:00 AM -0.03 31.946 0.561 7.43 2.45 13.35
1/31/2021 9:00:00 AM 0 32 0.561 7.43 2.6 13.41
1/31/2021 9:15:00 AM 0.02 32.036 0.561 7.44 2.83 13.48
1/31/2021 9:30:00 AM 0.05 32.09 0.561 7.44 2.68 13.54
1/31/2021 9:45:00 AM 0.08 32.144 0.564 7.42 3.6 13.55
1/31/2021 10:00:00 AM 0.09 32.162 0.561 7.44 3.73 13.65
1/31/2021 10:15:00 AM 0.12 32.216 0.561 7.45 3.22 13.7
1/31/2021 10:30:00 AM 0.14 32.252 0.561 7.46 3.17 13.82
1/31/2021 10:45:00 AM 0.17 32.306 0.56 7.46 2.76 13.89
1/31/2021 11:00:00 AM 0.21 32.378 0.562 7.47 2.67 13.99
1/31/2021 11:15:00 AM 0.24 32.432 0.559 7.48 2.74 14.11
1/31/2021 11:30:00 AM 0.27 32.486 0.559 7.49 2.62 14.2
1/31/2021 11:45:00 AM 0.3 32.54 0.56 7.5 2.52 14.31
1/31/2021 12:00:00 PM 0.32 32.576 0.559 7.51 2.62 14.4
1/31/2021 12:15:00 PM 0.35 32.63 0.558 7.52 2.67 14.52
1/31/2021 12:30:00 PM 0.37 32.666 0.556 7.54 2.79 14.64
1/31/2021 12:45:00 PM 0.4 32.72 0.556 7.55 2.67 14.78
1/31/2021 1:00:00 PM 0.41 32.738 0.555 7.56 2.22 14.87
1/31/2021 1:15:00 PM 0.43 32.774 0.555 7.58 2.53 15.01
1/31/2021 1:30:00 PM 0.42 32.756 0.554 7.6 2.18 15.1
1/31/2021 1:45:00 PM 0.43 32.774 0.555 7.61 2.81 15.22
1/31/2021 2:00:00 PM 0.43 32.774 0.554 7.62 2.58 15.33
1/31/2021 2:15:00 PM 0.42 32.756 0.553 7.64 2.2 15.41
1/31/2021 2:30:00 PM 0.42 32.756 0.553 7.65 2.33 15.51
1/31/2021 2:45:00 PM 0.44 32.792 0.553 7.66 2.13 15.56
1/31/2021 3:00:00 PM 0.44 32.792 0.553 7.67 2.25 15.68
1/31/2021 3:15:00 PM 0.45 32.81 0.552 7.69 2.28 15.72
1/31/2021 3:30:00 PM 0.45 32.81 0.553 7.68 2.01 15.79
1/31/2021 3:45:00 PM 0.46 32.828 0.552 7.71 1.86 15.86
1/31/2021 4:00:00 PM 0.46 32.828 0.552 7.72 1.85 15.91
1/31/2021 4:15:00 PM 0.45 32.81 0.553 7.74 2.34 15.94
1/31/2021 4:30:00 PM 0.42 32.756 0.553 7.74 2.27 15.97
1/31/2021 4:45:00 PM 0.4 32.72 0.553 7.76 1.83 15.97
1/31/2021 5:00:00 PM 0.4 32.72 0.554 7.77 2.12 15.95
1/31/2021 5:15:00 PM 0.39 32.702 0.554 7.77 2.34 15.9
1/31/2021 5:30:00 PM 0.38 32.684 0.554 7.78 2.16 15.87
1/31/2021 5:45:00 PM 0.37 32.666 0.555 7.76 2.54 15.81
1/31/2021 6:00:00 PM 0.35 32.63 0.555 7.79 2.45 15.77
1/31/2021 6:15:00 PM 0.35 32.63 0.563 7.79 2.69 15.71
1/31/2021 6:30:00 PM 0.32 32.576 0.556 7.8 2.56 15.66
1/31/2021 6:45:00 PM 0.31 32.558 0.556 7.8 2.66 15.62
1/31/2021 7:00:00 PM 0.3 32.54 0.556 7.8 3.16 15.53
1/31/2021 7:15:00 PM 0.31 32.558 0.557 7.79 3.03 15.45
1/31/2021 7:30:00 PM 0.31 32.558 0.557 7.8 3.15 15.4
1/31/2021 7:45:00 PM 0.31 32.558 0.559 7.8 3.47 15.29
1/31/2021 8:00:00 PM 0.31 32.558 0.56 7.79 3.79 15.21
1/31/2021 8:15:00 PM 0.31 32.558 0.561 7.78 3.18 15.12
1/31/2021 8:30:00 PM 0.33 32.594 0.563 7.77 2.7 14.99
1/31/2021 8:45:00 PM 0.31 32.558 0.563 7.77 3.59 14.89
1/31/2021 9:00:00 PM 0.33 32.594 0.565 7.76 3.17 14.78
1/31/2021 9:15:00 PM 0.33 32.594 0.566 7.75 2.96 14.67
1/31/2021 9:30:00 PM 0.36 32.648 0.568 7.73 3.11 14.56
1/31/2021 9:45:00 PM 0.37 32.666 0.57 7.73 2.98 14.45
1/31/2021 10:00:00 PM 0.38 32.684 0.572 7.73 3.32 14.38
1/31/2021 10:15:00 PM 0.38 32.684 0.573 7.73 2.84 14.3
1/31/2021 10:30:00 PM 0.4 32.72 0.575 7.72 2.86 14.22
1/31/2021 10:45:00 PM 0.4 32.72 0.577 7.72 2.51 14.14
1/31/2021 11:00:00 PM 0.39 32.702 0.58 7.7 2.62 14.05
1/31/2021 11:15:00 PM 0.4 32.72 0.581 7.69 2.27 13.98
1/31/2021 11:30:00 PM 0.41 32.738 0.583 7.7 2.17 13.89
1/31/2021 11:45:00 PM 0.41 32.738 0.585 7.69 2.49 13.82
2/1/2021 12:00:00 AM 0.39 32.702 0.587 7.68 2.58 13.75
2/1/2021 12:15:00 AM 0.41 32.738 0.589 7.67 2.31 13.64
2/1/2021 12:30:00 AM 0.42 32.756 0.59 7.67 2.35 13.58
2/1/2021 12:45:00 AM 0.43 32.774 0.591 7.66 2.52 13.51
2/1/2021 1:00:00 AM 0.44 32.792 0.592 7.65 2.37 13.45
2/1/2021 1:15:00 AM 0.45 32.81 0.593 7.64 2.4 13.38
2/1/2021 1:30:00 AM 0.44 32.792 0.593 7.64 2.16 13.33
2/1/2021 1:45:00 AM 0.42 32.756 0.593 7.62 2.04 13.26
2/1/2021 2:00:00 AM 0.43 32.774 0.593 7.61 2.27 13.22
2/1/2021 2:15:00 AM 0.44 32.792 0.592 7.61 2.31 13.18
2/1/2021 2:30:00 AM 0.45 32.81 0.592 7.6 2.08 13.13
2/1/2021 2:45:00 AM 0.43 32.774 0.591 7.58 2.1 13.07
2/1/2021 3:00:00 AM 0.44 32.792 0.59 7.57 2.28 13.04
2/1/2021 3:15:00 AM 0.43 32.774 0.588 7.57 2.68 13.02
2/1/2021 3:30:00 AM 0.44 32.792 0.587 7.55 2.79 12.99
2/1/2021 3:45:00 AM 0.43 32.774 0.585 7.55 2.34 12.97
2/1/2021 4:00:00 AM 0.45 32.81 0.583 7.54 2.36 12.95
2/1/2021 4:15:00 AM 0.44 32.792 0.581 7.54 2.24 12.94
2/1/2021 4:30:00 AM 0.45 32.81 0.58 7.52 2.52 12.92
2/1/2021 4:45:00 AM 0.45 32.81 0.578 7.52 2.61 12.91
2/1/2021 5:00:00 AM 0.45 32.81 0.576 7.51 2.63 12.88
2/1/2021 5:15:00 AM 0.44 32.792 0.573 7.51 2.39 12.87
2/1/2021 5:30:00 AM 0.43 32.774 0.571 7.5 2.49 12.88
2/1/2021 5:45:00 AM 0.4 32.72 0.568 7.49 3.07 12.89
2/1/2021 6:00:00 AM 0.37 32.666 0.566 7.49 3.52 12.88
2/1/2021 6:15:00 AM 0.37 32.666 0.564 7.47 3.06 12.86
2/1/2021 6:30:00 AM 0.37 32.666 0.562 7.48 3.73 12.87
2/1/2021 6:45:00 AM 0.38 32.684 0.56 7.47 3.49 12.86
2/1/2021 7:00:00 AM 0.36 32.648 0.557 7.48 2.98 12.87
2/1/2021 7:15:00 AM 0.35 32.63 0.556 7.47 3.11 12.86
2/1/2021 7:30:00 AM 0.33 32.594 0.554 7.47 3.26 12.88
2/1/2021 7:45:00 AM 0.32 32.576 0.554 7.46 3.34 12.89
2/1/2021 8:00:00 AM 0.31 32.558 0.553 7.45 3.16 12.91
2/1/2021 8:15:00 AM 0.31 32.558 0.552 7.47 2.56 12.96
2/1/2021 8:30:00 AM 0.31 32.558 0.552 7.47 2.9 13.01
2/1/2021 8:45:00 AM 0.32 32.576 0.551 7.47 2.79 13.07
2/1/2021 9:00:00 AM 0.33 32.594 0.551 7.48 2.94 13.16
2/1/2021 9:15:00 AM 0.35 32.63 0.551 7.49 2.89 13.25
2/1/2021 9:30:00 AM 0.37 32.666 0.551 7.5 2.25 13.35
2/1/2021 9:45:00 AM 0.4 32.72 0.552 7.49 2.6 13.44
2/1/2021 10:00:00 AM 0.43 32.774 0.552 7.5 2.64 13.53
2/1/2021 10:15:00 AM 0.46 32.828 0.553 7.52 2.79 13.63
2/1/2021 10:30:00 AM 0.47 32.846 0.553 7.53 2.61 13.7
2/1/2021 10:45:00 AM 0.49 32.882 0.554 7.54 2.31 13.81
2/1/2021 11:00:00 AM 0.53 32.954 0.555 7.55 2.58 13.9
2/1/2021 11:15:00 AM 0.58 33.044 0.555 7.56 2.18 13.98
2/1/2021 11:30:00 AM 0.66 33.188 0.555 7.58 2.48 14.16
2/1/2021 11:45:00 AM 0.74 33.332 0.556 7.58 2.66 14.29
2/1/2021 12:00:00 PM 0.8 33.44 0.556 7.59 2.41 14.39
2/1/2021 12:15:00 PM 0.87 33.566 0.556 7.61 2.17 14.56
2/1/2021 12:30:00 PM 0.93 33.674 0.556 7.62 2.51 14.68
2/1/2021 12:45:00 PM 1 33.8 0.557 7.64 2.5 14.8
2/1/2021 1:00:00 PM 1.07 33.926 0.557 7.66 2.35 14.92
2/1/2021 1:15:00 PM 1.16 34.088 0.557 7.68 2.52 15.03
2/1/2021 1:30:00 PM 1.2 34.16 0.557 7.7 2.28 15.14
2/1/2021 1:45:00 PM 1.26 34.268 0.557 7.72 2.19 15.23
2/1/2021 2:00:00 PM 1.31 34.358 0.557 7.73 2.34 15.3
2/1/2021 2:15:00 PM 1.35 34.43 0.557 7.74 2.39 15.41
2/1/2021 2:30:00 PM 1.37 34.466 0.557 7.77 2.31 15.48
2/1/2021 2:45:00 PM 1.39 34.502 0.557 7.78 2.24 15.54
2/1/2021 3:00:00 PM 1.41 34.538 0.557 7.79 2.23 15.6
2/1/2021 3:15:00 PM 1.44 34.592 0.556 7.81 2.12 15.67
2/1/2021 3:30:00 PM 1.45 34.61 0.556 7.82 1.95 15.7
2/1/2021 3:45:00 PM 1.46 34.628 0.555 7.84 2.15 15.77
2/1/2021 4:00:00 PM 1.47 34.646 0.554 7.84 2.05 15.8
2/1/2021 4:15:00 PM 1.48 34.664 0.554 7.87 1.84 15.84
2/1/2021 4:30:00 PM 1.5 34.7 0.553 7.88 2.12 15.87
2/1/2021 4:45:00 PM 1.49 34.682 0.553 7.88 2.02 15.86
2/1/2021 5:00:00 PM 1.48 34.664 0.552 7.89 2.11 15.83
2/1/2021 5:15:00 PM 1.47 34.646 0.553 7.89 2.43 15.78
2/1/2021 5:30:00 PM 1.45 34.61 0.551 7.9 2.34 15.73
2/1/2021 5:45:00 PM 1.43 34.574 0.551 7.9 2.82 15.66
2/1/2021 6:00:00 PM 1.41 34.538 0.55 7.91 2.34 15.6
2/1/2021 6:15:00 PM 1.4 34.52 0.55 7.91 2.5 15.54
2/1/2021 6:30:00 PM 1.41 34.538 0.549 7.91 2.25 15.45
2/1/2021 6:45:00 PM 1.42 34.556 0.549 7.91 2.28 15.4
2/1/2021 7:00:00 PM 1.43 34.574 0.549 7.91 2.12 15.32
2/1/2021 7:15:00 PM 1.44 34.592 0.548 7.91 2.39 15.26
2/1/2021 7:30:00 PM 1.44 34.592 0.548 7.91 2.97 15.16
2/1/2021 7:45:00 PM 1.43 34.574 0.548 7.9 2.8 15.06
2/1/2021 8:00:00 PM 1.43 34.574 0.548 7.89 2.57 14.94
2/1/2021 8:15:00 PM 1.43 34.574 0.548 7.88 2.67 14.83
2/1/2021 8:30:00 PM 1.42 34.556 0.548 7.87 3.01 14.71
2/1/2021 8:45:00 PM 1.42 34.556 0.549 7.84 2.63 14.56
2/1/2021 9:00:00 PM 1.41 34.538 0.548 7.82 2.68 14.47
2/1/2021 9:15:00 PM 1.4 34.52 0.548 7.83 2.16 14.33
2/1/2021 9:30:00 PM 1.4 34.52 0.549 7.8 2.92 14.19
2/1/2021 9:45:00 PM 1.38 34.484 0.549 7.79 2.92 14.07
2/1/2021 10:00:00 PM 1.37 34.466 0.549 7.78 2.51 13.99
2/1/2021 10:15:00 PM 1.37 34.466 0.549 7.76 2.71 13.9
2/1/2021 10:30:00 PM 1.37 34.466 0.55 7.76 2.65 13.81
2/1/2021 10:45:00 PM 1.38 34.484 0.55 7.75 2.65 13.74
2/1/2021 11:00:00 PM 1.38 34.484 0.551 7.73 2.59 13.66
2/1/2021 11:15:00 PM 1.38 34.484 0.551 7.73 2.21 13.59
2/1/2021 11:30:00 PM 1.37 34.466 0.552 7.71 2.33 13.52
2/1/2021 11:45:00 PM 1.37 34.466 0.552 7.7 2.29 13.44
2/2/2021 12:00:00 AM 1.36 34.448 0.552 7.69 2.62 13.38
2/2/2021 12:15:00 AM 1.35 34.43 0.553 7.68 2.37 13.29
2/2/2021 12:30:00 AM 1.33 34.394 0.553 7.67 2.54 13.24
2/2/2021 12:45:00 AM 1.31 34.358 0.553 7.66 2.49 13.18
2/2/2021 1:00:00 AM 1.29 34.322 0.554 7.64 2.1 13.12
2/2/2021 1:15:00 AM 1.28 34.304 0.554 7.63 2.2 13.07
2/2/2021 1:30:00 AM 1.25 34.25 0.554 7.62 2.33 13.02
2/2/2021 1:45:00 AM 1.24 34.232 0.555 7.61 2.29 12.97
2/2/2021 2:00:00 AM 1.22 34.196 0.555 7.6 2.27 12.92
2/2/2021 2:15:00 AM 1.2 34.16 0.555 7.59 2.33 12.88
2/2/2021 2:30:00 AM 1.17 34.106 0.555 7.58 2.45 12.84
2/2/2021 2:45:00 AM 1.14 34.052 0.556 7.57 2.08 12.81
2/2/2021 3:00:00 AM 1.11 33.998 0.556 7.56 2.26 12.79
2/2/2021 3:15:00 AM 1.08 33.944 0.556 7.55 2.17 12.75
2/2/2021 3:30:00 AM 1.04 33.872 0.557 7.54 2.33 12.7
2/2/2021 3:45:00 AM 0.99 33.782 0.556 7.54 2.3 12.7
2/2/2021 4:00:00 AM 0.91 33.638 0.555 7.54 2.53 12.71
2/2/2021 4:15:00 AM 0.84 33.512 0.555 7.53 2.18 12.69
2/2/2021 4:30:00 AM 0.79 33.422 0.555 7.53 2.47 12.69
2/2/2021 4:45:00 AM 0.76 33.368 0.555 7.52 2.28 12.66
2/2/2021 5:00:00 AM 0.73 33.314 0.554 7.52 3.09 12.66
2/2/2021 5:15:00 AM 0.71 33.278 0.555 7.51 2.38 12.63
2/2/2021 5:30:00 AM 0.69 33.242 0.554 7.51 2.76 12.65
2/2/2021 5:45:00 AM 0.69 33.242 0.554 7.51 2.27 12.63
2/2/2021 6:00:00 AM 0.67 33.206 0.554 7.5 2.12 12.63
2/2/2021 6:15:00 AM 0.64 33.152 0.554 7.5 2.21 12.62
2/2/2021 6:30:00 AM 0.62 33.116 0.554 7.49 2.48 12.62
2/2/2021 6:45:00 AM 0.58 33.044 0.554 7.5 2.77 12.63
2/2/2021 7:00:00 AM 0.55 32.99 0.555 7.49 2.82 12.62
2/2/2021 7:15:00 AM 0.51 32.918 0.554 7.49 3.34 12.64
2/2/2021 7:30:00 AM 0.47 32.846 0.554 7.49 2.78 12.65
2/2/2021 7:45:00 AM 0.41 32.738 0.554 7.48 2.67 12.68
2/2/2021 8:00:00 AM 0.39 32.702 0.555 7.49 2.74 12.71
2/2/2021 8:15:00 AM 0.38 32.684 0.556 7.49 2.52 12.76
2/2/2021 8:30:00 AM 0.37 32.666 0.558 7.49 2.54 12.82
2/2/2021 8:45:00 AM 0.38 32.684 0.558 7.48 2.38 12.88
2/2/2021 9:00:00 AM 0.4 32.72 0.559 7.51 2.24 13
2/2/2021 9:15:00 AM 0.44 32.792 0.56 7.51 2.14 13.09
2/2/2021 9:30:00 AM 0.47 32.846 0.56 7.52 2.22 13.15
2/2/2021 9:45:00 AM 0.5 32.9 0.561 7.53 2.44 13.24
2/2/2021 10:00:00 AM 0.53 32.954 0.562 7.53 2.47 13.33
2/2/2021 10:15:00 AM 0.57 33.026 0.563 7.53 2.62 13.42
2/2/2021 10:30:00 AM 0.59 33.062 0.564 7.55 2.25 13.52
2/2/2021 10:45:00 AM 0.61 33.098 0.565 7.54 2.31 13.61
2/2/2021 11:00:00 AM 0.62 33.116 0.566 7.57 2.14 13.71
2/2/2021 11:15:00 AM 0.64 33.152 0.567 7.57 1.94 13.81
2/2/2021 11:30:00 AM 0.66 33.188 0.568 7.57 2.42 13.91
2/2/2021 11:45:00 AM 0.7 33.26 0.57 7.6 2.55 14.05
2/2/2021 12:00:00 PM 0.73 33.314 0.572 7.61 2.78 14.17
2/2/2021 12:15:00 PM 0.77 33.386 0.572 7.63 2.44 14.31
2/2/2021 12:30:00 PM 0.81 33.458 0.574 7.65 2.54 14.45
2/2/2021 12:45:00 PM 0.86 33.548 0.575 7.67 2.92 14.57
2/2/2021 1:00:00 PM 0.9 33.62 0.576 7.68 2.73 14.69
2/2/2021 1:15:00 PM 0.93 33.674 0.577 7.69 2.47 14.8
2/2/2021 1:30:00 PM 0.95 33.71 0.579 7.71 2.42 14.89
2/2/2021 1:45:00 PM 0.99 33.782 0.58 7.72 2.49 14.98
2/2/2021 2:00:00 PM 1.02 33.836 0.581 7.74 2.5 15.07
2/2/2021 2:15:00 PM 1.03 33.854 0.583 7.75 2.39 15.13
2/2/2021 2:30:00 PM 1.04 33.872 0.586 7.75 2.27 15.15
2/2/2021 2:45:00 PM 1.05 33.89 0.586 7.77 2.83 15.21
2/2/2021 3:00:00 PM 1.05 33.89 0.589 7.79 2.42 15.27
2/2/2021 3:15:00 PM 1.08 33.944 0.591 7.8 3.14 15.35
2/2/2021 3:30:00 PM 1.11 33.998 0.594 7.82 2.56 15.41
2/2/2021 3:45:00 PM 1.14 34.052 0.596 7.83 2.23 15.48
2/2/2021 4:00:00 PM 1.17 34.106 0.6 7.84 2.5 15.52
2/2/2021 4:15:00 PM 1.17 34.106 0.603 7.85 2.42 15.53
2/2/2021 4:30:00 PM 1.18 34.124 0.608 7.86 2.41 15.55
2/2/2021 4:45:00 PM 1.18 34.124 0.612 7.87 2.61 15.54
2/2/2021 5:00:00 PM 1.18 34.124 0.617 7.87 2.69 15.5
2/2/2021 5:15:00 PM 1.19 34.142 0.622 7.88 2.39 15.48
2/2/2021 5:30:00 PM 1.2 34.16 0.627 7.88 2.66 15.44
2/2/2021 5:45:00 PM 1.2 34.16 0.633 7.87 2.47 15.35
2/2/2021 6:00:00 PM 1.21 34.178 0.638 7.88 2.48 15.31
2/2/2021 6:15:00 PM 1.21 34.178 0.643 7.88 2.53 15.25
2/2/2021 6:30:00 PM 1.22 34.196 0.648 7.88 2.49 15.19
2/2/2021 6:45:00 PM 1.23 34.214 0.652 7.88 2.46 15.13
2/2/2021 7:00:00 PM 1.24 34.232 0.655 7.89 2.3 15.06
2/2/2021 7:15:00 PM 1.24 34.232 0.659 7.88 2.39 14.99
2/2/2021 7:30:00 PM 1.26 34.268 0.662 7.88 2.5 14.9
2/2/2021 7:45:00 PM 1.26 34.268 0.664 7.87 2.5 14.8
2/2/2021 8:00:00 PM 1.26 34.268 0.666 7.85 2.67 14.67
2/2/2021 8:15:00 PM 1.26 34.268 0.667 7.85 2.57 14.58
2/2/2021 8:30:00 PM 1.26 34.268 0.668 7.83 2.58 14.44
2/2/2021 8:45:00 PM 1.26 34.268 0.669 7.82 2.45 14.34
2/2/2021 9:00:00 PM 1.25 34.25 0.669 7.79 2.12 14.23
2/2/2021 9:15:00 PM 1.25 34.25 0.669 7.78 2.31 14.12
2/2/2021 9:30:00 PM 1.25 34.25 0.668 7.77 2.65 14.04
2/2/2021 9:45:00 PM 1.24 34.232 0.668 7.77 2.95 13.96
2/2/2021 10:00:00 PM 1.25 34.25 0.667 7.76 2.8 13.86
2/2/2021 10:15:00 PM 1.25 34.25 0.666 7.75 4.04 13.79
2/2/2021 10:30:00 PM 1.25 34.25 0.664 7.74 2.78 13.72
2/2/2021 10:45:00 PM 1.22 34.196 0.663 7.73 2.57 13.65
2/2/2021 11:00:00 PM 1.21 34.178 0.661 7.72 2.29 13.58
2/2/2021 11:15:00 PM 1.19 34.142 0.659 7.7 2.52 13.51
2/2/2021 11:30:00 PM 1.18 34.124 0.657 7.7 2.19 13.44
2/2/2021 11:45:00 PM 1.18 34.124 0.656 7.69 2.28 13.37
2/3/2021 12:00:00 AM 1.18 34.124 0.653 7.68 2.32 13.3
2/3/2021 12:15:00 AM 1.18 34.124 0.65 7.67 2.16 13.23
2/3/2021 12:30:00 AM 1.18 34.124 0.648 7.66 2.33 13.16
2/3/2021 12:45:00 AM 1.18 34.124 0.645 7.65 2.12 13.1
2/3/2021 1:00:00 AM 1.18 34.124 0.642 7.64 2.26 13.04
2/3/2021 1:15:00 AM 1.18 34.124 0.641 7.63 2.61 12.98
2/3/2021 1:30:00 AM 1.18 34.124 0.637 7.62 2.44 12.94
2/3/2021 1:45:00 AM 1.18 34.124 0.635 7.6 2.47 12.89
2/3/2021 2:00:00 AM 1.18 34.124 0.632 7.59 2.66 12.82
2/3/2021 2:15:00 AM 1.18 34.124 0.629 7.6 2.24 12.8
2/3/2021 2:30:00 AM 1.18 34.124 0.626 7.58 2.25 12.76
2/3/2021 2:45:00 AM 1.18 34.124 0.624 7.58 2.66 12.72
2/3/2021 3:00:00 AM 1.17 34.106 0.621 7.56 2.28 12.69
2/3/2021 3:15:00 AM 1.17 34.106 0.619 7.57 2.34 12.65
2/3/2021 3:30:00 AM 1.17 34.106 0.617 7.56 2.44 12.63
2/3/2021 3:45:00 AM 1.16 34.088 0.615 7.55 2.4 12.59
2/3/2021 4:00:00 AM 1.14 34.052 0.612 7.54 2.11 12.58
2/3/2021 4:15:00 AM 1.14 34.052 0.611 7.55 2.48 12.57
2/3/2021 4:30:00 AM 1.14 34.052 0.61 7.53 2.37 12.54
2/3/2021 4:45:00 AM 1.13 34.034 0.608 7.53 2.36 12.52
2/3/2021 5:00:00 AM 1.13 34.034 0.607 7.52 2.5 12.52
2/3/2021 5:15:00 AM 1.14 34.052 0.606 7.52 2.47 12.5
2/3/2021 5:30:00 AM 1.14 34.052 0.606 7.51 2.45 12.49
2/3/2021 5:45:00 AM 1.13 34.034 0.605 7.51 2.37 12.48
2/3/2021 6:00:00 AM 1.13 34.034 0.605 7.51 2.19 12.48
2/3/2021 6:15:00 AM 1.13 34.034 0.607 7.5 2.31 12.46
2/3/2021 6:30:00 AM 1.11 33.998 0.606 7.5 2.48 12.48
2/3/2021 6:45:00 AM 1.1 33.98 0.607 7.49 2.15 12.46
2/3/2021 7:00:00 AM 1.08 33.944 0.608 7.5 2.33 12.49
2/3/2021 7:15:00 AM 1.08 33.944 0.609 7.49 2.24 12.46
2/3/2021 7:30:00 AM 1.07 33.926 0.61 7.48 2.71 12.48
2/3/2021 7:45:00 AM 1.04 33.872 0.612 7.49 2.68 12.52
2/3/2021 8:00:00 AM 1.03 33.854 0.613 7.49 2.52 12.55
2/3/2021 8:15:00 AM 1.03 33.854 0.614 7.5 2.41 12.61
2/3/2021 8:30:00 AM 1.02 33.836 0.616 7.5 2.25 12.69
2/3/2021 8:45:00 AM 1.02 33.836 0.618 7.51 2.25 12.75
2/3/2021 9:00:00 AM 1.02 33.836 0.619 7.51 2.15 12.85
2/3/2021 9:15:00 AM 1.04 33.872 0.621 7.52 2.19 12.94
2/3/2021 9:30:00 AM 1.03 33.854 0.622 7.53 2.07 13.02
2/3/2021 9:45:00 AM 1.04 33.872 0.624 7.54 2.15 13.13
2/3/2021 10:00:00 AM 1.04 33.872 0.625 7.55 2.15 13.24
2/3/2021 10:15:00 AM 1.03 33.854 0.627 7.55 2.21 13.33
2/3/2021 10:30:00 AM 1.04 33.872 0.628 7.56 2.59 13.42
2/3/2021 10:45:00 AM 1.05 33.89 0.629 7.57 2.56 13.53
2/3/2021 11:00:00 AM 1.08 33.944 0.63 7.6 2.9 13.65
2/3/2021 11:15:00 AM 1.11 33.998 0.63 7.61 2.9 13.76
2/3/2021 11:30:00 AM 1.14 34.052 0.631 7.62 3.15 13.86
2/3/2021 11:45:00 AM 1.16 34.088 0.631 7.63 3.65 13.99
2/3/2021 12:00:00 PM 1.18 34.124 0.631 7.64 3.37 14.09
2/3/2021 12:15:00 PM 1.19 34.142 0.63 7.67 3.31 14.22
2/3/2021 12:30:00 PM 1.23 34.214 0.63 7.68 3.74 14.35
2/3/2021 12:45:00 PM 1.27 34.286 0.629 7.7 3.68 14.52
2/3/2021 1:00:00 PM 1.32 34.376 0.628 7.72 3.72 14.65
2/3/2021 1:15:00 PM 1.38 34.484 0.627 7.73 3.47 14.75
2/3/2021 1:30:00 PM 1.44 34.592 0.628 7.76 3.48 14.88
2/3/2021 1:45:00 PM 1.5 34.7 0.625 7.78 3.43 14.98
2/3/2021 2:00:00 PM 1.54 34.772 0.625 7.79 2.67 15.05
2/3/2021 2:15:00 PM 1.6 34.88 0.624 7.81 2.49 15.16
2/3/2021 2:30:00 PM 1.66 34.988 0.623 7.83 2.09 15.26
2/3/2021 2:45:00 PM 1.72 35.096 0.622 7.84 2.3 15.34
2/3/2021 3:00:00 PM 1.79 35.222 0.621 7.87 2.65 15.43
2/3/2021 3:15:00 PM 1.84 35.312 0.62 7.87 3.34 15.49
2/3/2021 3:30:00 PM 1.87 35.366 0.62 7.89 3.22 15.53
2/3/2021 3:45:00 PM 1.89 35.402 0.619 7.9 2.99 15.59
2/3/2021 4:00:00 PM 1.89 35.402 0.618 7.92 2.51 15.64
2/3/2021 4:15:00 PM 1.89 35.402 0.617 7.93 2.85 15.69
2/3/2021 4:30:00 PM 1.89 35.402 0.616 7.94 2.7 15.7
2/3/2021 4:45:00 PM 1.89 35.402 0.616 7.95 2.78 15.69
2/3/2021 5:00:00 PM 1.88 35.384 0.615 7.96 2.36 15.68
2/3/2021 5:15:00 PM 1.88 35.384 0.615 7.96 2.29 15.66
2/3/2021 5:30:00 PM 1.87 35.366 0.614 7.97 2.52 15.6
2/3/2021 5:45:00 PM 1.87 35.366 0.614 7.96 3.32 15.55
2/3/2021 6:00:00 PM 1.86 35.348 0.614 7.98 3.16 15.47
2/3/2021 6:15:00 PM 1.87 35.366 0.614 7.97 2.89 15.36
2/3/2021 6:30:00 PM 1.87 35.366 0.614 7.97 3.06 15.32
2/3/2021 6:45:00 PM 1.87 35.366 0.614 7.97 3.69 15.22
2/3/2021 7:00:00 PM 1.87 35.366 0.614 7.96 3.71 15.15
2/3/2021 7:15:00 PM 1.87 35.366 0.614 7.96 3.39 15.07
2/3/2021 7:30:00 PM 1.85 35.33 0.615 7.95 4.02 14.95
2/3/2021 7:45:00 PM 1.85 35.33 0.616 7.93 3.64 14.86
2/3/2021 8:00:00 PM 1.82 35.276 0.616 7.93 3.88 14.77
2/3/2021 8:15:00 PM 1.79 35.222 0.617 7.92 3.29 14.64
2/3/2021 8:30:00 PM 1.76 35.168 0.618 7.89 2.79 14.53
2/3/2021 8:45:00 PM 1.73 35.114 0.619 7.89 3.82 14.41
2/3/2021 9:00:00 PM 1.7 35.06 0.619 7.87 2.44 14.31
2/3/2021 9:15:00 PM 1.68 35.024 0.62 7.85 2.64 14.2
2/3/2021 9:30:00 PM 1.68 35.024 0.621 7.84 2.15 14.09
2/3/2021 9:45:00 PM 1.67 35.006 0.621 7.83 2.55 13.99
2/3/2021 10:00:00 PM 1.67 35.006 0.622 7.82 2.69 13.91
2/3/2021 10:15:00 PM 1.65 34.97 0.622 7.8 3.47 13.8
2/3/2021 10:30:00 PM 1.62 34.916 0.623 7.78 3.19 13.72
2/3/2021 10:45:00 PM 1.59 34.862 0.623 7.77 3.25 13.64
2/3/2021 11:00:00 PM 1.55 34.79 0.623 7.76 2.94 13.57
2/3/2021 11:15:00 PM 1.52 34.736 0.622 7.75 2.53 13.51
2/3/2021 11:30:00 PM 1.48 34.664 0.622 7.74 2.81 13.44
2/3/2021 11:45:00 PM 1.44 34.592 0.621 7.71 2.67 13.37
2/4/2021 12:00:00 AM 1.41 34.538 0.621 7.68 2.54 13.26
2/4/2021 12:15:00 AM 1.36 34.448 0.62 7.69 2.53 13.23
2/4/2021 12:30:00 AM 1.32 34.376 0.619 7.67 2.53 13.16
2/4/2021 12:45:00 AM 1.3 34.34 0.618 7.66 2.67 13.1
2/4/2021 1:00:00 AM 1.26 34.268 0.617 7.64 2.46 13.03
2/4/2021 1:15:00 AM 1.22 34.196 0.616 7.64 2.42 13
2/4/2021 1:30:00 AM 1.2 34.16 0.616 7.62 2.45 12.95
2/4/2021 1:45:00 AM 1.17 34.106 0.615 7.61 2.46 12.9
2/4/2021 2:00:00 AM 1.15 34.07 0.615 7.6 2.54 12.85
2/4/2021 2:15:00 AM 1.12 34.016 0.615 7.6 2.63 12.83
2/4/2021 2:30:00 AM 1.09 33.962 0.615 7.58 2.2 12.79
2/4/2021 2:45:00 AM 1.06 33.908 0.615 7.58 2.24 12.77
2/4/2021 3:00:00 AM 1.03 33.854 0.616 7.57 2.32 12.73
2/4/2021 3:15:00 AM 1 33.8 0.617 7.56 2.2 12.71
2/4/2021 3:30:00 AM 0.96 33.728 0.618 7.54 2.09 12.71
2/4/2021 3:45:00 AM 0.93 33.674 0.621 7.54 2.28 12.69
2/4/2021 4:00:00 AM 0.9 33.62 0.623 7.53 2.49 12.68
2/4/2021 4:15:00 AM 0.87 33.566 0.626 7.53 2.33 12.67
2/4/2021 4:30:00 AM 0.83 33.494 0.63 7.53 2.18 12.67
2/4/2021 4:45:00 AM 0.81 33.458 0.635 7.52 2.62 12.66
2/4/2021 5:00:00 AM 0.78 33.404 0.641 7.52 2.7 12.65
2/4/2021 5:15:00 AM 0.75 33.35 0.646 7.5 8.56 12.62
2/4/2021 5:30:00 AM 0.71 33.278 0.653 7.51 2.55 12.66
2/4/2021 5:45:00 AM 0.68 33.224 0.659 7.5 2.41 12.65
2/4/2021 6:00:00 AM 0.64 33.152 0.665 7.5 2.41 12.66
2/4/2021 6:15:00 AM 0.61 33.098 0.673 7.5 2.55 12.67
2/4/2021 6:30:00 AM 0.57 33.026 0.678 7.49 2.23 12.68
2/4/2021 6:45:00 AM 0.55 32.99 0.684 7.49 2.47 12.68
2/4/2021 7:00:00 AM 0.5 32.9 0.689 7.48 2.27 12.72
2/4/2021 7:15:00 AM 0.46 32.828 0.694 7.49 2.51 12.73
2/4/2021 7:30:00 AM 0.42 32.756 0.698 7.49 2.59 12.74
2/4/2021 7:45:00 AM 0.39 32.702 0.7 7.48 2.39 12.78
2/4/2021 8:00:00 AM 0.36 32.648 0.702 7.48 2.77 12.83
2/4/2021 8:15:00 AM 0.33 32.594 0.703 7.49 2.54 12.89
2/4/2021 8:30:00 AM 0.3 32.54 0.703 7.48 2.6 12.95
2/4/2021 8:45:00 AM 0.28 32.504 0.703 7.49 2.46 13.03
2/4/2021 9:00:00 AM 0.27 32.486 0.702 7.5 2.66 13.08
2/4/2021 9:15:00 AM 0.26 32.468 0.7 7.51 2.58 13.18
2/4/2021 9:30:00 AM 0.26 32.468 0.698 7.51 2.25 13.21
2/4/2021 9:45:00 AM 0.27 32.486 0.695 7.49 2.45 13.31
2/4/2021 10:00:00 AM 0.28 32.504 0.692 7.52 2.31 13.39
2/4/2021 10:15:00 AM 0.34 32.612 0.689 7.53 2.21 13.49
2/4/2021 10:30:00 AM 0.41 32.738 0.686 7.54 2.19 13.55
2/4/2021 10:45:00 AM 0.51 32.918 0.682 7.54 2.06 13.66
2/4/2021 11:00:00 AM 0.63 33.134 0.678 7.56 2.23 13.78
2/4/2021 11:15:00 AM 0.72 33.296 0.674 7.57 2.24 13.87
2/4/2021 11:30:00 AM 0.83 33.494 0.671 7.58 2.26 13.96
2/4/2021 11:45:00 AM 0.92 33.656 0.668 7.59 2.17 14.01
2/4/2021 12:00:00 PM 1.07 33.926 0.664 7.6 2.27 14.16
2/4/2021 12:15:00 PM 1.2 34.16 0.661 7.61 2.15 14.24
2/4/2021 12:30:00 PM 1.33 34.394 0.659 7.62 2.32 14.34
2/4/2021 12:45:00 PM 1.45 34.61 0.656 7.63 1.88 14.43
2/4/2021 1:00:00 PM 1.56 34.808 0.654 7.65 1.86 14.54
2/4/2021 1:15:00 PM 1.66 34.988 0.651 7.66 1.96 14.64
2/4/2021 1:30:00 PM 1.73 35.114 0.649 7.66 2.03 14.68
2/4/2021 1:45:00 PM 1.84 35.312 0.646 7.68 1.94 14.82
2/4/2021 2:00:00 PM 1.92 35.456 0.644 7.69 1.81 14.88
2/4/2021 2:15:00 PM 2.02 35.636 0.642 7.71 2.01 15.01
2/4/2021 2:30:00 PM 2.1 35.78 0.64 7.72 1.92 15.08
2/4/2021 2:45:00 PM 2.15 35.87 0.639 7.73 1.91 15.13
2/4/2021 3:00:00 PM 2.19 35.942 0.637 7.73 1.88 15.2
2/4/2021 3:15:00 PM 2.22 35.996 0.636 7.76 1.9 15.3
2/4/2021 3:30:00 PM 2.25 36.05 0.635 7.77 1.89 15.34
2/4/2021 3:45:00 PM 2.27 36.086 0.633 7.78 1.96 15.38
2/4/2021 4:00:00 PM 2.32 36.176 0.631 7.81 2.04 15.43
2/4/2021 4:15:00 PM 2.37 36.266 0.63 7.82 1.88 15.46
2/4/2021 4:30:00 PM 2.45 36.41 0.628 7.85 2.16 15.51
2/4/2021 4:45:00 PM 2.51 36.518 0.628 7.86 2.21 15.51
2/4/2021 5:00:00 PM 2.58 36.644 0.627 7.88 2.46 15.52
2/4/2021 5:15:00 PM 2.63 36.734 0.627 7.9 2.17 15.51
2/4/2021 5:30:00 PM 2.67 36.806 0.628 7.91 2.34 15.48
2/4/2021 5:45:00 PM 2.71 36.878 0.63 7.93 2.38 15.44
2/4/2021 6:00:00 PM 2.72 36.896 0.631 7.92 2.49 15.36
2/4/2021 6:15:00 PM 2.74 36.932 0.633 7.94 2.27 15.3
2/4/2021 6:30:00 PM 2.74 36.932 0.635 7.94 2.02 15.22
2/4/2021 6:45:00 PM 2.73 36.914 0.637 7.93 2.32 15.12
2/4/2021 7:00:00 PM 2.71 36.878 0.64 7.91 2.57 15
2/4/2021 7:15:00 PM 2.69 36.842 0.642 7.91 2.71 14.9
2/4/2021 7:30:00 PM 2.67 36.806 0.644 7.9 2.45 14.79
2/4/2021 7:45:00 PM 2.63 36.734 0.647 7.88 2.69 14.63
2/4/2021 8:00:00 PM 2.59 36.662 0.649 7.87 2.44 14.49
2/4/2021 8:15:00 PM 2.56 36.608 0.651 7.84 2.73 14.36
2/4/2021 8:30:00 PM 2.52 36.536 0.652 7.83 2.92 14.23
2/4/2021 8:45:00 PM 2.48 36.464 0.652 7.81 2.83 14.1
2/4/2021 9:00:00 PM 2.45 36.41 0.652 7.79 3.08 13.98
2/4/2021 9:15:00 PM 2.42 36.356 0.65 7.79 3.09 13.86
2/4/2021 9:30:00 PM 2.38 36.284 0.649 7.76 3.53 13.73
2/4/2021 9:45:00 PM 2.33 36.194 0.646 7.77 3.11 13.65
2/4/2021 10:00:00 PM 2.29 36.122 0.644 7.75 3.59 13.53
2/4/2021 10:15:00 PM 2.26 36.068 0.642 7.75 3.41 13.46
2/4/2021 10:30:00 PM 2.22 35.996 0.641 7.74 3.27 13.38
2/4/2021 10:45:00 PM 2.18 35.924 0.639 7.72 3.33 13.29
2/4/2021 11:00:00 PM 2.15 35.87 0.638 7.71 3.13 13.21
2/4/2021 11:15:00 PM 2.12 35.816 0.638 7.71 3.21 13.14
2/4/2021 11:30:00 PM 2.09 35.762 0.637 7.7 2.77 13.08
2/4/2021 11:45:00 PM 2.07 35.726 0.637 7.7 2.71 13.01
2/5/2021 12:00:00 AM 2.05 35.69 0.638 7.69 2.85 12.95
2/5/2021 12:15:00 AM 2.04 35.672 0.638 7.67 2.77 12.89
2/5/2021 12:30:00 AM 2.02 35.636 0.638 7.66 2.85 12.82
2/5/2021 12:45:00 AM 2.01 35.618 0.638 7.66 2.62 12.76
2/5/2021 1:00:00 AM 2 35.6 0.639 7.66 2.3 12.72
2/5/2021 1:15:00 AM 1.99 35.582 0.638 7.65 2.56 12.66
2/5/2021 1:30:00 AM 1.99 35.582 0.639 7.64 2.28 12.61
2/5/2021 1:45:00 AM 1.98 35.564 0.638 7.62 2.41 12.55
2/5/2021 2:00:00 AM 1.95 35.51 0.638 7.62 2.5 12.53
2/5/2021 2:15:00 AM 1.93 35.474 0.637 7.61 2.38 12.49
2/5/2021 2:30:00 AM 1.92 35.456 0.636 7.6 2.42 12.46
2/5/2021 2:45:00 AM 1.92 35.456 0.634 7.6 2.2 12.44
2/5/2021 3:00:00 AM 1.93 35.474 0.633 7.59 2.35 12.4
2/5/2021 3:15:00 AM 1.93 35.474 0.631 7.58 2.23 12.36
2/5/2021 3:30:00 AM 1.93 35.474 0.629 7.58 2.42 12.34
2/5/2021 3:45:00 AM 1.93 35.474 0.626 7.57 2.22 12.31
2/5/2021 4:00:00 AM 1.91 35.438 0.623 7.56 2.24 12.32
2/5/2021 4:15:00 AM 1.91 35.438 0.62 7.55 2.66 12.32
2/5/2021 4:30:00 AM 1.91 35.438 0.617 7.54 2.52 12.31
2/5/2021 4:45:00 AM 1.91 35.438 0.613 7.54 2.31 12.29
2/5/2021 5:00:00 AM 1.9 35.42 0.61 7.53 2.5 12.27
2/5/2021 5:15:00 AM 1.9 35.42 0.608 7.52 2.92 12.27
2/5/2021 5:30:00 AM 1.9 35.42 0.605 7.51 2.64 12.27
2/5/2021 5:45:00 AM 1.9 35.42 0.601 7.51 2.68 12.25
2/5/2021 6:00:00 AM 1.91 35.438 0.599 7.49 2.59 12.25
2/5/2021 6:15:00 AM 1.91 35.438 0.597 7.49 2.63 12.24
2/5/2021 6:30:00 AM 1.9 35.42 0.595 7.48 2.34 12.22
2/5/2021 6:45:00 AM 1.9 35.42 0.593 7.48 2.51 12.24
2/5/2021 7:00:00 AM 1.91 35.438 0.592 7.48 2.5 12.23
2/5/2021 7:15:00 AM 1.92 35.456 0.592 7.48 2.62 12.21
2/5/2021 7:30:00 AM 1.92 35.456 0.591 7.48 2.47 12.19
2/5/2021 7:45:00 AM 1.92 35.456 0.592 7.46 2.64 12.21
2/5/2021 8:00:00 AM 1.92 35.456 0.592 7.47 19.84 12.21
2/5/2021 8:15:00 AM 1.91 35.438 0.593 7.49 2.85 12.31
2/5/2021 8:30:00 AM 1.91 35.438 0.595 7.48 2.51 12.36
2/5/2021 8:45:00 AM 1.9 35.42 0.596 7.49 2.6 12.44
2/5/2021 9:00:00 AM 1.9 35.42 0.599 7.49 2.7 12.5
2/5/2021 9:15:00 AM 1.91 35.438 0.6 7.5 2.63 12.59
2/5/2021 9:30:00 AM 1.92 35.456 0.602 7.51 2.46 12.67
2/5/2021 9:45:00 AM 1.95 35.51 0.605 7.53 2.67 12.75
2/5/2021 10:00:00 AM 1.99 35.582 0.608 7.53 2.37 12.86
2/5/2021 10:15:00 AM 2.06 35.708 0.61 7.54 2.51 12.97
2/5/2021 10:30:00 AM 2.12 35.816 0.612